<?xml version="1.0" encoding="UTF-8" standalone="no" ?>
<gpx xmlns="http://www.topografix.com/GPX/1/1" xmlns:xsi="http://www.w3.org/2001/XMLSchema-instance" xsi:schemaLocation="http://www.topografix.com/GPX/1/1 http://www.topografix.com/GPX/1/1/gpx.xsd" version="1.1" creator="VisuGPX - https://www.visugpx.com">
  <metadata>
    <name>Monte Gimont (Gran Charvia)</name>
    <desc><![CDATA[Clavière - Monte Gimont (Gran Charvia)]]></desc>
  </metadata>
  <trk>
    <name><![CDATA[M_Gimont_30 NOV 2017]]></name>
    <trkseg>
      <trkpt lat="44.93994" lon="6.75236">
        <ele>1817.03</ele>
        <time>2017-11-30T08:09:59Z</time>
      </trkpt>
      <trkpt lat="44.93994" lon="6.75236">
        <ele>1817.03</ele>
        <time>2017-11-30T08:10:00Z</time>
      </trkpt>
      <trkpt lat="44.93996" lon="6.75235">
        <ele>1815.11</ele>
        <time>2017-11-30T08:10:19Z</time>
      </trkpt>
      <trkpt lat="44.93994" lon="6.75232">
        <ele>1814.15</ele>
        <time>2017-11-30T08:10:51Z</time>
      </trkpt>
      <trkpt lat="44.93993" lon="6.75229">
        <ele>1812.7</ele>
        <time>2017-11-30T08:11:35Z</time>
      </trkpt>
      <trkpt lat="44.93994" lon="6.75231">
        <ele>1812.22</ele>
        <time>2017-11-30T08:12:08Z</time>
      </trkpt>
      <trkpt lat="44.93994" lon="6.7523">
        <ele>1810.78</ele>
        <time>2017-11-30T08:12:37Z</time>
      </trkpt>
      <trkpt lat="44.93992" lon="6.75229">
        <ele>1810.3</ele>
        <time>2017-11-30T08:13:09Z</time>
      </trkpt>
      <trkpt lat="44.93992" lon="6.75229">
        <ele>1808.86</ele>
        <time>2017-11-30T08:13:48Z</time>
      </trkpt>
      <trkpt lat="44.93993" lon="6.7523">
        <ele>1807.9</ele>
        <time>2017-11-30T08:14:34Z</time>
      </trkpt>
      <trkpt lat="44.93992" lon="6.75232">
        <ele>1808.86</ele>
        <time>2017-11-30T08:15:00Z</time>
      </trkpt>
      <trkpt lat="44.93993" lon="6.75232">
        <ele>1806.94</ele>
        <time>2017-11-30T08:15:14Z</time>
      </trkpt>
      <trkpt lat="44.93992" lon="6.75231">
        <ele>1807.9</ele>
        <time>2017-11-30T08:15:33Z</time>
      </trkpt>
      <trkpt lat="44.93994" lon="6.75234">
        <ele>1807.42</ele>
        <time>2017-11-30T08:15:49Z</time>
      </trkpt>
      <trkpt lat="44.93994" lon="6.75236">
        <ele>1806.45</ele>
        <time>2017-11-30T08:16:05Z</time>
      </trkpt>
      <trkpt lat="44.93994" lon="6.75233">
        <ele>1806.45</ele>
        <time>2017-11-30T08:16:18Z</time>
      </trkpt>
      <trkpt lat="44.93997" lon="6.75237">
        <ele>1805.49</ele>
        <time>2017-11-30T08:16:40Z</time>
      </trkpt>
      <trkpt lat="44.93995" lon="6.75238">
        <ele>1805.49</ele>
        <time>2017-11-30T08:16:56Z</time>
      </trkpt>
      <trkpt lat="44.93995" lon="6.75239">
        <ele>1805.01</ele>
        <time>2017-11-30T08:17:10Z</time>
      </trkpt>
      <trkpt lat="44.93995" lon="6.75239">
        <ele>1804.53</ele>
        <time>2017-11-30T08:17:28Z</time>
      </trkpt>
      <trkpt lat="44.93996" lon="6.75234">
        <ele>1803.57</ele>
        <time>2017-11-30T08:17:52Z</time>
      </trkpt>
      <trkpt lat="44.93997" lon="6.75233">
        <ele>1803.57</ele>
        <time>2017-11-30T08:18:10Z</time>
      </trkpt>
      <trkpt lat="44.93998" lon="6.75235">
        <ele>1803.09</ele>
        <time>2017-11-30T08:18:23Z</time>
      </trkpt>
      <trkpt lat="44.93996" lon="6.75231">
        <ele>1802.13</ele>
        <time>2017-11-30T08:18:53Z</time>
      </trkpt>
      <trkpt lat="44.93997" lon="6.75233">
        <ele>1801.65</ele>
        <time>2017-11-30T08:19:05Z</time>
      </trkpt>
      <trkpt lat="44.93996" lon="6.75231">
        <ele>1802.13</ele>
        <time>2017-11-30T08:19:18Z</time>
      </trkpt>
      <trkpt lat="44.93996" lon="6.75233">
        <ele>1801.65</ele>
        <time>2017-11-30T08:19:32Z</time>
      </trkpt>
      <trkpt lat="44.93995" lon="6.75234">
        <ele>1800.69</ele>
        <time>2017-11-30T08:19:52Z</time>
      </trkpt>
      <trkpt lat="44.93994" lon="6.75234">
        <ele>1800.21</ele>
        <time>2017-11-30T08:20:18Z</time>
      </trkpt>
      <trkpt lat="44.93996" lon="6.75229">
        <ele>1799.73</ele>
        <time>2017-11-30T08:20:47Z</time>
      </trkpt>
      <trkpt lat="44.93997" lon="6.75233">
        <ele>1799.24</ele>
        <time>2017-11-30T08:21:15Z</time>
      </trkpt>
      <trkpt lat="44.93998" lon="6.75232">
        <ele>1798.28</ele>
        <time>2017-11-30T08:21:52Z</time>
      </trkpt>
      <trkpt lat="44.93997" lon="6.75233">
        <ele>1798.28</ele>
        <time>2017-11-30T08:22:14Z</time>
      </trkpt>
      <trkpt lat="44.93996" lon="6.75227">
        <ele>1797.8</ele>
        <time>2017-11-30T08:22:27Z</time>
      </trkpt>
      <trkpt lat="44.93992" lon="6.75214">
        <ele>1797.8</ele>
        <time>2017-11-30T08:22:41Z</time>
      </trkpt>
      <trkpt lat="44.93991" lon="6.75197">
        <ele>1797.8</ele>
        <time>2017-11-30T08:22:55Z</time>
      </trkpt>
      <trkpt lat="44.93979" lon="6.752">
        <ele>1795.88</ele>
        <time>2017-11-30T08:23:10Z</time>
      </trkpt>
      <trkpt lat="44.93978" lon="6.752">
        <ele>1795.88</ele>
        <time>2017-11-30T08:23:11Z</time>
      </trkpt>
      <trkpt lat="44.93972" lon="6.752">
        <ele>1795.4</ele>
        <time>2017-11-30T08:23:17Z</time>
      </trkpt>
      <trkpt lat="44.93959" lon="6.75189">
        <ele>1794.92</ele>
        <time>2017-11-30T08:23:34Z</time>
      </trkpt>
      <trkpt lat="44.93954" lon="6.75181">
        <ele>1795.4</ele>
        <time>2017-11-30T08:23:42Z</time>
      </trkpt>
      <trkpt lat="44.93947" lon="6.7518">
        <ele>1795.88</ele>
        <time>2017-11-30T08:23:49Z</time>
      </trkpt>
      <trkpt lat="44.93945" lon="6.75175">
        <ele>1795.88</ele>
        <time>2017-11-30T08:23:53Z</time>
      </trkpt>
      <trkpt lat="44.93938" lon="6.75165">
        <ele>1795.4</ele>
        <time>2017-11-30T08:24:06Z</time>
      </trkpt>
      <trkpt lat="44.93932" lon="6.7518">
        <ele>1792.03</ele>
        <time>2017-11-30T08:24:20Z</time>
      </trkpt>
      <trkpt lat="44.93927" lon="6.75192">
        <ele>1789.15</ele>
        <time>2017-11-30T08:24:35Z</time>
      </trkpt>
      <trkpt lat="44.9392" lon="6.75198">
        <ele>1786.27</ele>
        <time>2017-11-30T08:24:50Z</time>
      </trkpt>
      <trkpt lat="44.93913" lon="6.75204">
        <ele>1782.9</ele>
        <time>2017-11-30T08:25:05Z</time>
      </trkpt>
      <trkpt lat="44.93909" lon="6.75204">
        <ele>1782.42</ele>
        <time>2017-11-30T08:25:10Z</time>
      </trkpt>
      <trkpt lat="44.93895" lon="6.75209">
        <ele>1780.98</ele>
        <time>2017-11-30T08:25:25Z</time>
      </trkpt>
      <trkpt lat="44.93893" lon="6.7521">
        <ele>1780.98</ele>
        <time>2017-11-30T08:25:27Z</time>
      </trkpt>
      <trkpt lat="44.93887" lon="6.75208">
        <ele>1780.98</ele>
        <time>2017-11-30T08:25:33Z</time>
      </trkpt>
      <trkpt lat="44.93877" lon="6.75204">
        <ele>1780.98</ele>
        <time>2017-11-30T08:25:48Z</time>
      </trkpt>
      <trkpt lat="44.93868" lon="6.75199">
        <ele>1780.5</ele>
        <time>2017-11-30T08:25:58Z</time>
      </trkpt>
      <trkpt lat="44.93853" lon="6.75189">
        <ele>1780.5</ele>
        <time>2017-11-30T08:26:15Z</time>
      </trkpt>
      <trkpt lat="44.93847" lon="6.75186">
        <ele>1780.98</ele>
        <time>2017-11-30T08:26:21Z</time>
      </trkpt>
      <trkpt lat="44.93834" lon="6.75177">
        <ele>1781.46</ele>
        <time>2017-11-30T08:26:35Z</time>
      </trkpt>
      <trkpt lat="44.93821" lon="6.75169">
        <ele>1782.42</ele>
        <time>2017-11-30T08:26:50Z</time>
      </trkpt>
      <trkpt lat="44.9381" lon="6.75159">
        <ele>1783.38</ele>
        <time>2017-11-30T08:27:04Z</time>
      </trkpt>
      <trkpt lat="44.93802" lon="6.75156">
        <ele>1783.86</ele>
        <time>2017-11-30T08:27:14Z</time>
      </trkpt>
      <trkpt lat="44.93799" lon="6.75151">
        <ele>1783.86</ele>
        <time>2017-11-30T08:27:19Z</time>
      </trkpt>
      <trkpt lat="44.93792" lon="6.75145">
        <ele>1785.31</ele>
        <time>2017-11-30T08:27:28Z</time>
      </trkpt>
      <trkpt lat="44.93789" lon="6.7514">
        <ele>1785.79</ele>
        <time>2017-11-30T08:27:33Z</time>
      </trkpt>
      <trkpt lat="44.93781" lon="6.75133">
        <ele>1786.27</ele>
        <time>2017-11-30T08:27:45Z</time>
      </trkpt>
      <trkpt lat="44.93779" lon="6.75131">
        <ele>1786.27</ele>
        <time>2017-11-30T08:27:47Z</time>
      </trkpt>
      <trkpt lat="44.9377" lon="6.75124">
        <ele>1786.75</ele>
        <time>2017-11-30T08:28:01Z</time>
      </trkpt>
      <trkpt lat="44.93762" lon="6.75115">
        <ele>1787.71</ele>
        <time>2017-11-30T08:28:13Z</time>
      </trkpt>
      <trkpt lat="44.93759" lon="6.7511">
        <ele>1787.71</ele>
        <time>2017-11-30T08:28:20Z</time>
      </trkpt>
      <trkpt lat="44.93758" lon="6.75107">
        <ele>1788.19</ele>
        <time>2017-11-30T08:28:22Z</time>
      </trkpt>
      <trkpt lat="44.93749" lon="6.75097">
        <ele>1789.15</ele>
        <time>2017-11-30T08:28:36Z</time>
      </trkpt>
      <trkpt lat="44.93744" lon="6.75091">
        <ele>1789.15</ele>
        <time>2017-11-30T08:28:44Z</time>
      </trkpt>
      <trkpt lat="44.93744" lon="6.75089">
        <ele>1789.15</ele>
        <time>2017-11-30T08:28:46Z</time>
      </trkpt>
      <trkpt lat="44.93737" lon="6.75079">
        <ele>1789.15</ele>
        <time>2017-11-30T08:28:55Z</time>
      </trkpt>
      <trkpt lat="44.93735" lon="6.75079">
        <ele>1789.15</ele>
        <time>2017-11-30T08:28:57Z</time>
      </trkpt>
      <trkpt lat="44.9373" lon="6.75072">
        <ele>1789.63</ele>
        <time>2017-11-30T08:29:04Z</time>
      </trkpt>
      <trkpt lat="44.93721" lon="6.75055">
        <ele>1789.63</ele>
        <time>2017-11-30T08:29:20Z</time>
      </trkpt>
      <trkpt lat="44.9371" lon="6.75038">
        <ele>1790.11</ele>
        <time>2017-11-30T08:29:36Z</time>
      </trkpt>
      <trkpt lat="44.93704" lon="6.75023">
        <ele>1790.59</ele>
        <time>2017-11-30T08:29:49Z</time>
      </trkpt>
      <trkpt lat="44.93703" lon="6.75022">
        <ele>1790.59</ele>
        <time>2017-11-30T08:29:50Z</time>
      </trkpt>
      <trkpt lat="44.93702" lon="6.7502">
        <ele>1790.59</ele>
        <time>2017-11-30T08:29:52Z</time>
      </trkpt>
      <trkpt lat="44.937" lon="6.75015">
        <ele>1791.07</ele>
        <time>2017-11-30T08:29:56Z</time>
      </trkpt>
      <trkpt lat="44.93694" lon="6.75002">
        <ele>1792.03</ele>
        <time>2017-11-30T08:30:08Z</time>
      </trkpt>
      <trkpt lat="44.93688" lon="6.74991">
        <ele>1793.96</ele>
        <time>2017-11-30T08:30:20Z</time>
      </trkpt>
      <trkpt lat="44.93688" lon="6.7499">
        <ele>1793.96</ele>
        <time>2017-11-30T08:30:21Z</time>
      </trkpt>
      <trkpt lat="44.93685" lon="6.74981">
        <ele>1793.96</ele>
        <time>2017-11-30T08:30:29Z</time>
      </trkpt>
      <trkpt lat="44.93675" lon="6.74967">
        <ele>1793.96</ele>
        <time>2017-11-30T08:30:43Z</time>
      </trkpt>
      <trkpt lat="44.93664" lon="6.74953">
        <ele>1794.44</ele>
        <time>2017-11-30T08:30:58Z</time>
      </trkpt>
      <trkpt lat="44.93657" lon="6.74944">
        <ele>1793.96</ele>
        <time>2017-11-30T08:31:10Z</time>
      </trkpt>
      <trkpt lat="44.93647" lon="6.74942">
        <ele>1793.48</ele>
        <time>2017-11-30T08:31:25Z</time>
      </trkpt>
      <trkpt lat="44.93642" lon="6.74937">
        <ele>1794.92</ele>
        <time>2017-11-30T08:31:38Z</time>
      </trkpt>
      <trkpt lat="44.93639" lon="6.74931">
        <ele>1794.92</ele>
        <time>2017-11-30T08:31:44Z</time>
      </trkpt>
      <trkpt lat="44.9363" lon="6.74924">
        <ele>1795.4</ele>
        <time>2017-11-30T08:32:00Z</time>
      </trkpt>
      <trkpt lat="44.9363" lon="6.74923">
        <ele>1795.4</ele>
        <time>2017-11-30T08:32:15Z</time>
      </trkpt>
      <trkpt lat="44.9363" lon="6.74923">
        <ele>1794.44</ele>
        <time>2017-11-30T08:32:30Z</time>
      </trkpt>
      <trkpt lat="44.93629" lon="6.74925">
        <ele>1793.96</ele>
        <time>2017-11-30T08:32:56Z</time>
      </trkpt>
      <trkpt lat="44.93626" lon="6.74922">
        <ele>1793.96</ele>
        <time>2017-11-30T08:33:27Z</time>
      </trkpt>
      <trkpt lat="44.93627" lon="6.74927">
        <ele>1794.92</ele>
        <time>2017-11-30T08:33:59Z</time>
      </trkpt>
      <trkpt lat="44.93628" lon="6.74921">
        <ele>1794.92</ele>
        <time>2017-11-30T08:34:13Z</time>
      </trkpt>
      <trkpt lat="44.93628" lon="6.74921">
        <ele>1793.96</ele>
        <time>2017-11-30T08:34:30Z</time>
      </trkpt>
      <trkpt lat="44.93628" lon="6.7492">
        <ele>1793.96</ele>
        <time>2017-11-30T08:34:50Z</time>
      </trkpt>
      <trkpt lat="44.9363" lon="6.74926">
        <ele>1794.44</ele>
        <time>2017-11-30T08:35:08Z</time>
      </trkpt>
      <trkpt lat="44.93629" lon="6.74929">
        <ele>1793.96</ele>
        <time>2017-11-30T08:35:33Z</time>
      </trkpt>
      <trkpt lat="44.93627" lon="6.74925">
        <ele>1793.96</ele>
        <time>2017-11-30T08:35:53Z</time>
      </trkpt>
      <trkpt lat="44.93626" lon="6.74926">
        <ele>1794.44</ele>
        <time>2017-11-30T08:36:07Z</time>
      </trkpt>
      <trkpt lat="44.9362" lon="6.74925">
        <ele>1796.36</ele>
        <time>2017-11-30T08:36:21Z</time>
      </trkpt>
      <trkpt lat="44.93612" lon="6.74927">
        <ele>1799.24</ele>
        <time>2017-11-30T08:36:34Z</time>
      </trkpt>
      <trkpt lat="44.93608" lon="6.74929">
        <ele>1801.17</ele>
        <time>2017-11-30T08:36:47Z</time>
      </trkpt>
      <trkpt lat="44.93602" lon="6.74919">
        <ele>1803.09</ele>
        <time>2017-11-30T08:37:00Z</time>
      </trkpt>
      <trkpt lat="44.93602" lon="6.74916">
        <ele>1803.09</ele>
        <time>2017-11-30T08:37:16Z</time>
      </trkpt>
      <trkpt lat="44.93598" lon="6.74909">
        <ele>1803.57</ele>
        <time>2017-11-30T08:37:27Z</time>
      </trkpt>
      <trkpt lat="44.93593" lon="6.749">
        <ele>1804.05</ele>
        <time>2017-11-30T08:37:39Z</time>
      </trkpt>
      <trkpt lat="44.93588" lon="6.74891">
        <ele>1805.49</ele>
        <time>2017-11-30T08:37:51Z</time>
      </trkpt>
      <trkpt lat="44.93582" lon="6.74882">
        <ele>1806.45</ele>
        <time>2017-11-30T08:38:04Z</time>
      </trkpt>
      <trkpt lat="44.93576" lon="6.74872">
        <ele>1807.42</ele>
        <time>2017-11-30T08:38:19Z</time>
      </trkpt>
      <trkpt lat="44.93571" lon="6.74862">
        <ele>1808.38</ele>
        <time>2017-11-30T08:38:33Z</time>
      </trkpt>
      <trkpt lat="44.93564" lon="6.7485">
        <ele>1809.34</ele>
        <time>2017-11-30T08:38:49Z</time>
      </trkpt>
      <trkpt lat="44.93561" lon="6.7484">
        <ele>1810.3</ele>
        <time>2017-11-30T08:39:02Z</time>
      </trkpt>
      <trkpt lat="44.93558" lon="6.74831">
        <ele>1810.3</ele>
        <time>2017-11-30T08:39:15Z</time>
      </trkpt>
      <trkpt lat="44.93556" lon="6.74818">
        <ele>1811.26</ele>
        <time>2017-11-30T08:39:29Z</time>
      </trkpt>
      <trkpt lat="44.93555" lon="6.74804">
        <ele>1811.26</ele>
        <time>2017-11-30T08:39:42Z</time>
      </trkpt>
      <trkpt lat="44.93554" lon="6.74789">
        <ele>1811.74</ele>
        <time>2017-11-30T08:39:57Z</time>
      </trkpt>
      <trkpt lat="44.93552" lon="6.74773">
        <ele>1812.22</ele>
        <time>2017-11-30T08:40:10Z</time>
      </trkpt>
      <trkpt lat="44.93551" lon="6.74759">
        <ele>1812.7</ele>
        <time>2017-11-30T08:40:24Z</time>
      </trkpt>
      <trkpt lat="44.93551" lon="6.74743">
        <ele>1813.66</ele>
        <time>2017-11-30T08:40:39Z</time>
      </trkpt>
      <trkpt lat="44.93547" lon="6.74726">
        <ele>1814.63</ele>
        <time>2017-11-30T08:40:54Z</time>
      </trkpt>
      <trkpt lat="44.93542" lon="6.7471">
        <ele>1815.59</ele>
        <time>2017-11-30T08:41:09Z</time>
      </trkpt>
      <trkpt lat="44.9354" lon="6.74694">
        <ele>1817.51</ele>
        <time>2017-11-30T08:41:23Z</time>
      </trkpt>
      <trkpt lat="44.93539" lon="6.74684">
        <ele>1818.95</ele>
        <time>2017-11-30T08:41:36Z</time>
      </trkpt>
      <trkpt lat="44.93532" lon="6.74677">
        <ele>1819.91</ele>
        <time>2017-11-30T08:41:50Z</time>
      </trkpt>
      <trkpt lat="44.93525" lon="6.74671">
        <ele>1822.32</ele>
        <time>2017-11-30T08:42:02Z</time>
      </trkpt>
      <trkpt lat="44.93524" lon="6.7467">
        <ele>1821.84</ele>
        <time>2017-11-30T08:42:03Z</time>
      </trkpt>
      <trkpt lat="44.93521" lon="6.74661">
        <ele>1823.76</ele>
        <time>2017-11-30T08:42:16Z</time>
      </trkpt>
      <trkpt lat="44.93517" lon="6.74652">
        <ele>1824.24</ele>
        <time>2017-11-30T08:42:26Z</time>
      </trkpt>
      <trkpt lat="44.93514" lon="6.74639">
        <ele>1826.16</ele>
        <time>2017-11-30T08:42:39Z</time>
      </trkpt>
      <trkpt lat="44.93509" lon="6.74628">
        <ele>1826.64</ele>
        <time>2017-11-30T08:42:52Z</time>
      </trkpt>
      <trkpt lat="44.93501" lon="6.74617">
        <ele>1828.08</ele>
        <time>2017-11-30T08:43:05Z</time>
      </trkpt>
      <trkpt lat="44.93499" lon="6.74616">
        <ele>1828.08</ele>
        <time>2017-11-30T08:43:07Z</time>
      </trkpt>
      <trkpt lat="44.93491" lon="6.74605">
        <ele>1829.05</ele>
        <time>2017-11-30T08:43:20Z</time>
      </trkpt>
      <trkpt lat="44.93488" lon="6.746">
        <ele>1829.05</ele>
        <time>2017-11-30T08:43:26Z</time>
      </trkpt>
      <trkpt lat="44.93484" lon="6.74584">
        <ele>1829.53</ele>
        <time>2017-11-30T08:43:41Z</time>
      </trkpt>
      <trkpt lat="44.93482" lon="6.7458">
        <ele>1830.01</ele>
        <time>2017-11-30T08:43:45Z</time>
      </trkpt>
      <trkpt lat="44.93475" lon="6.74575">
        <ele>1830.01</ele>
        <time>2017-11-30T08:43:54Z</time>
      </trkpt>
      <trkpt lat="44.93471" lon="6.74574">
        <ele>1830.01</ele>
        <time>2017-11-30T08:43:57Z</time>
      </trkpt>
      <trkpt lat="44.93461" lon="6.74574">
        <ele>1830.49</ele>
        <time>2017-11-30T08:44:12Z</time>
      </trkpt>
      <trkpt lat="44.93458" lon="6.7457">
        <ele>1831.45</ele>
        <time>2017-11-30T08:44:17Z</time>
      </trkpt>
      <trkpt lat="44.93448" lon="6.74557">
        <ele>1831.45</ele>
        <time>2017-11-30T08:44:31Z</time>
      </trkpt>
      <trkpt lat="44.93441" lon="6.74544">
        <ele>1831.93</ele>
        <time>2017-11-30T08:44:44Z</time>
      </trkpt>
      <trkpt lat="44.93432" lon="6.74535">
        <ele>1831.93</ele>
        <time>2017-11-30T08:44:56Z</time>
      </trkpt>
      <trkpt lat="44.93428" lon="6.74527">
        <ele>1831.93</ele>
        <time>2017-11-30T08:45:04Z</time>
      </trkpt>
      <trkpt lat="44.93424" lon="6.74518">
        <ele>1831.93</ele>
        <time>2017-11-30T08:45:12Z</time>
      </trkpt>
      <trkpt lat="44.93416" lon="6.74504">
        <ele>1831.93</ele>
        <time>2017-11-30T08:45:26Z</time>
      </trkpt>
      <trkpt lat="44.93415" lon="6.74501">
        <ele>1831.93</ele>
        <time>2017-11-30T08:45:30Z</time>
      </trkpt>
      <trkpt lat="44.93414" lon="6.74484">
        <ele>1831.45</ele>
        <time>2017-11-30T08:45:42Z</time>
      </trkpt>
      <trkpt lat="44.93413" lon="6.74482">
        <ele>1831.45</ele>
        <time>2017-11-30T08:45:44Z</time>
      </trkpt>
      <trkpt lat="44.93412" lon="6.74466">
        <ele>1831.93</ele>
        <time>2017-11-30T08:45:56Z</time>
      </trkpt>
      <trkpt lat="44.93412" lon="6.74459">
        <ele>1832.89</ele>
        <time>2017-11-30T08:46:02Z</time>
      </trkpt>
      <trkpt lat="44.93413" lon="6.74441">
        <ele>1833.37</ele>
        <time>2017-11-30T08:46:15Z</time>
      </trkpt>
      <trkpt lat="44.93417" lon="6.7442">
        <ele>1833.85</ele>
        <time>2017-11-30T08:46:30Z</time>
      </trkpt>
      <trkpt lat="44.93415" lon="6.74404">
        <ele>1833.85</ele>
        <time>2017-11-30T08:46:43Z</time>
      </trkpt>
      <trkpt lat="44.93414" lon="6.74402">
        <ele>1834.33</ele>
        <time>2017-11-30T08:46:45Z</time>
      </trkpt>
      <trkpt lat="44.93406" lon="6.74389">
        <ele>1835.29</ele>
        <time>2017-11-30T08:46:58Z</time>
      </trkpt>
      <trkpt lat="44.934" lon="6.74383">
        <ele>1835.29</ele>
        <time>2017-11-30T08:47:10Z</time>
      </trkpt>
      <trkpt lat="44.93396" lon="6.74374">
        <ele>1835.77</ele>
        <time>2017-11-30T08:47:21Z</time>
      </trkpt>
      <trkpt lat="44.93387" lon="6.74364">
        <ele>1836.26</ele>
        <time>2017-11-30T08:47:34Z</time>
      </trkpt>
      <trkpt lat="44.93379" lon="6.74358">
        <ele>1836.26</ele>
        <time>2017-11-30T08:47:46Z</time>
      </trkpt>
      <trkpt lat="44.9337" lon="6.7435">
        <ele>1835.77</ele>
        <time>2017-11-30T08:47:58Z</time>
      </trkpt>
      <trkpt lat="44.93363" lon="6.74344">
        <ele>1835.29</ele>
        <time>2017-11-30T08:48:12Z</time>
      </trkpt>
      <trkpt lat="44.93353" lon="6.74334">
        <ele>1834.33</ele>
        <time>2017-11-30T08:48:26Z</time>
      </trkpt>
      <trkpt lat="44.9335" lon="6.74327">
        <ele>1833.37</ele>
        <time>2017-11-30T08:48:34Z</time>
      </trkpt>
      <trkpt lat="44.93346" lon="6.7431">
        <ele>1831.45</ele>
        <time>2017-11-30T08:48:48Z</time>
      </trkpt>
      <trkpt lat="44.93344" lon="6.74302">
        <ele>1830.01</ele>
        <time>2017-11-30T08:48:56Z</time>
      </trkpt>
      <trkpt lat="44.93342" lon="6.74286">
        <ele>1828.08</ele>
        <time>2017-11-30T08:49:08Z</time>
      </trkpt>
      <trkpt lat="44.93338" lon="6.74269">
        <ele>1826.16</ele>
        <time>2017-11-30T08:49:23Z</time>
      </trkpt>
      <trkpt lat="44.93338" lon="6.74266">
        <ele>1825.2</ele>
        <time>2017-11-30T08:49:37Z</time>
      </trkpt>
      <trkpt lat="44.93335" lon="6.74259">
        <ele>1824.72</ele>
        <time>2017-11-30T08:49:51Z</time>
      </trkpt>
      <trkpt lat="44.93331" lon="6.74251">
        <ele>1824.24</ele>
        <time>2017-11-30T08:50:06Z</time>
      </trkpt>
      <trkpt lat="44.93327" lon="6.74241">
        <ele>1821.35</ele>
        <time>2017-11-30T08:50:15Z</time>
      </trkpt>
      <trkpt lat="44.93315" lon="6.74228">
        <ele>1819.43</ele>
        <time>2017-11-30T08:50:29Z</time>
      </trkpt>
      <trkpt lat="44.93302" lon="6.74215">
        <ele>1819.43</ele>
        <time>2017-11-30T08:50:46Z</time>
      </trkpt>
      <trkpt lat="44.93295" lon="6.74201">
        <ele>1818.47</ele>
        <time>2017-11-30T08:51:02Z</time>
      </trkpt>
      <trkpt lat="44.9329" lon="6.74193">
        <ele>1818.47</ele>
        <time>2017-11-30T08:51:16Z</time>
      </trkpt>
      <trkpt lat="44.93285" lon="6.74181">
        <ele>1819.43</ele>
        <time>2017-11-30T08:51:29Z</time>
      </trkpt>
      <trkpt lat="44.93281" lon="6.74168">
        <ele>1821.35</ele>
        <time>2017-11-30T08:51:42Z</time>
      </trkpt>
      <trkpt lat="44.93277" lon="6.74154">
        <ele>1822.8</ele>
        <time>2017-11-30T08:51:55Z</time>
      </trkpt>
      <trkpt lat="44.93274" lon="6.74142">
        <ele>1824.24</ele>
        <time>2017-11-30T08:52:06Z</time>
      </trkpt>
      <trkpt lat="44.93272" lon="6.74129">
        <ele>1826.16</ele>
        <time>2017-11-30T08:52:19Z</time>
      </trkpt>
      <trkpt lat="44.93266" lon="6.74116">
        <ele>1827.6</ele>
        <time>2017-11-30T08:52:33Z</time>
      </trkpt>
      <trkpt lat="44.9326" lon="6.74103">
        <ele>1829.05</ele>
        <time>2017-11-30T08:52:47Z</time>
      </trkpt>
      <trkpt lat="44.93255" lon="6.74091">
        <ele>1829.05</ele>
        <time>2017-11-30T08:53:00Z</time>
      </trkpt>
      <trkpt lat="44.93248" lon="6.74079">
        <ele>1829.53</ele>
        <time>2017-11-30T08:53:13Z</time>
      </trkpt>
      <trkpt lat="44.93243" lon="6.74071">
        <ele>1830.01</ele>
        <time>2017-11-30T08:53:20Z</time>
      </trkpt>
      <trkpt lat="44.93242" lon="6.74069">
        <ele>1830.01</ele>
        <time>2017-11-30T08:53:22Z</time>
      </trkpt>
      <trkpt lat="44.93235" lon="6.74056">
        <ele>1830.01</ele>
        <time>2017-11-30T08:53:34Z</time>
      </trkpt>
      <trkpt lat="44.93228" lon="6.74041">
        <ele>1830.01</ele>
        <time>2017-11-30T08:53:47Z</time>
      </trkpt>
      <trkpt lat="44.93225" lon="6.74037">
        <ele>1830.01</ele>
        <time>2017-11-30T08:53:52Z</time>
      </trkpt>
      <trkpt lat="44.93221" lon="6.74017">
        <ele>1830.49</ele>
        <time>2017-11-30T08:54:08Z</time>
      </trkpt>
      <trkpt lat="44.93221" lon="6.74007">
        <ele>1830.49</ele>
        <time>2017-11-30T08:54:17Z</time>
      </trkpt>
      <trkpt lat="44.93222" lon="6.74001">
        <ele>1830.97</ele>
        <time>2017-11-30T08:54:21Z</time>
      </trkpt>
      <trkpt lat="44.93224" lon="6.73993">
        <ele>1830.97</ele>
        <time>2017-11-30T08:54:27Z</time>
      </trkpt>
      <trkpt lat="44.93225" lon="6.73975">
        <ele>1831.45</ele>
        <time>2017-11-30T08:54:41Z</time>
      </trkpt>
      <trkpt lat="44.93224" lon="6.73956">
        <ele>1830.49</ele>
        <time>2017-11-30T08:54:54Z</time>
      </trkpt>
      <trkpt lat="44.93223" lon="6.73943">
        <ele>1830.01</ele>
        <time>2017-11-30T08:55:04Z</time>
      </trkpt>
      <trkpt lat="44.93223" lon="6.73935">
        <ele>1830.01</ele>
        <time>2017-11-30T08:55:09Z</time>
      </trkpt>
      <trkpt lat="44.93221" lon="6.73923">
        <ele>1830.01</ele>
        <time>2017-11-30T08:55:16Z</time>
      </trkpt>
      <trkpt lat="44.93221" lon="6.7392">
        <ele>1829.53</ele>
        <time>2017-11-30T08:55:18Z</time>
      </trkpt>
      <trkpt lat="44.93219" lon="6.73903">
        <ele>1830.01</ele>
        <time>2017-11-30T08:55:30Z</time>
      </trkpt>
      <trkpt lat="44.93219" lon="6.73901">
        <ele>1830.01</ele>
        <time>2017-11-30T08:55:32Z</time>
      </trkpt>
      <trkpt lat="44.93218" lon="6.73898">
        <ele>1830.01</ele>
        <time>2017-11-30T08:55:35Z</time>
      </trkpt>
      <trkpt lat="44.9321" lon="6.73892">
        <ele>1830.49</ele>
        <time>2017-11-30T08:55:45Z</time>
      </trkpt>
      <trkpt lat="44.932" lon="6.73879">
        <ele>1831.45</ele>
        <time>2017-11-30T08:55:59Z</time>
      </trkpt>
      <trkpt lat="44.93197" lon="6.73875">
        <ele>1831.93</ele>
        <time>2017-11-30T08:56:03Z</time>
      </trkpt>
      <trkpt lat="44.9319" lon="6.73863">
        <ele>1832.41</ele>
        <time>2017-11-30T08:56:16Z</time>
      </trkpt>
      <trkpt lat="44.93185" lon="6.73852">
        <ele>1832.89</ele>
        <time>2017-11-30T08:56:27Z</time>
      </trkpt>
      <trkpt lat="44.93178" lon="6.73838">
        <ele>1833.85</ele>
        <time>2017-11-30T08:56:41Z</time>
      </trkpt>
      <trkpt lat="44.93171" lon="6.73823">
        <ele>1834.33</ele>
        <time>2017-11-30T08:56:54Z</time>
      </trkpt>
      <trkpt lat="44.93165" lon="6.73816">
        <ele>1834.81</ele>
        <time>2017-11-30T08:57:03Z</time>
      </trkpt>
      <trkpt lat="44.93156" lon="6.73804">
        <ele>1835.77</ele>
        <time>2017-11-30T08:57:16Z</time>
      </trkpt>
      <trkpt lat="44.93145" lon="6.73797">
        <ele>1836.74</ele>
        <time>2017-11-30T08:57:28Z</time>
      </trkpt>
      <trkpt lat="44.9314" lon="6.73795">
        <ele>1836.74</ele>
        <time>2017-11-30T08:57:34Z</time>
      </trkpt>
      <trkpt lat="44.9313" lon="6.7379">
        <ele>1837.7</ele>
        <time>2017-11-30T08:57:48Z</time>
      </trkpt>
      <trkpt lat="44.9312" lon="6.73784">
        <ele>1838.66</ele>
        <time>2017-11-30T08:58:01Z</time>
      </trkpt>
      <trkpt lat="44.93117" lon="6.73783">
        <ele>1839.14</ele>
        <time>2017-11-30T08:58:05Z</time>
      </trkpt>
      <trkpt lat="44.93108" lon="6.73777">
        <ele>1840.1</ele>
        <time>2017-11-30T08:58:18Z</time>
      </trkpt>
      <trkpt lat="44.93104" lon="6.73771">
        <ele>1840.1</ele>
        <time>2017-11-30T08:58:33Z</time>
      </trkpt>
      <trkpt lat="44.93095" lon="6.73764">
        <ele>1840.58</ele>
        <time>2017-11-30T08:58:44Z</time>
      </trkpt>
      <trkpt lat="44.9309" lon="6.73761">
        <ele>1841.06</ele>
        <time>2017-11-30T08:58:50Z</time>
      </trkpt>
      <trkpt lat="44.93079" lon="6.73751">
        <ele>1841.54</ele>
        <time>2017-11-30T08:59:02Z</time>
      </trkpt>
      <trkpt lat="44.9307" lon="6.73741">
        <ele>1842.02</ele>
        <time>2017-11-30T08:59:14Z</time>
      </trkpt>
      <trkpt lat="44.93068" lon="6.73738">
        <ele>1842.02</ele>
        <time>2017-11-30T08:59:30Z</time>
      </trkpt>
      <trkpt lat="44.93065" lon="6.73734">
        <ele>1842.02</ele>
        <time>2017-11-30T08:59:51Z</time>
      </trkpt>
      <trkpt lat="44.93057" lon="6.73718">
        <ele>1843.47</ele>
        <time>2017-11-30T09:00:07Z</time>
      </trkpt>
      <trkpt lat="44.93053" lon="6.7371">
        <ele>1843.47</ele>
        <time>2017-11-30T09:00:18Z</time>
      </trkpt>
      <trkpt lat="44.93045" lon="6.73696">
        <ele>1842.02</ele>
        <time>2017-11-30T09:00:32Z</time>
      </trkpt>
      <trkpt lat="44.93043" lon="6.737">
        <ele>1842.5</ele>
        <time>2017-11-30T09:00:46Z</time>
      </trkpt>
      <trkpt lat="44.9304" lon="6.73693">
        <ele>1842.98</ele>
        <time>2017-11-30T09:01:02Z</time>
      </trkpt>
      <trkpt lat="44.93037" lon="6.73694">
        <ele>1843.47</ele>
        <time>2017-11-30T09:01:12Z</time>
      </trkpt>
      <trkpt lat="44.93032" lon="6.73693">
        <ele>1843.95</ele>
        <time>2017-11-30T09:01:17Z</time>
      </trkpt>
      <trkpt lat="44.93023" lon="6.7369">
        <ele>1844.91</ele>
        <time>2017-11-30T09:01:29Z</time>
      </trkpt>
      <trkpt lat="44.93021" lon="6.73688">
        <ele>1844.91</ele>
        <time>2017-11-30T09:01:32Z</time>
      </trkpt>
      <trkpt lat="44.93013" lon="6.73676">
        <ele>1845.39</ele>
        <time>2017-11-30T09:01:44Z</time>
      </trkpt>
      <trkpt lat="44.93004" lon="6.73664">
        <ele>1846.35</ele>
        <time>2017-11-30T09:01:59Z</time>
      </trkpt>
      <trkpt lat="44.92997" lon="6.73652">
        <ele>1847.31</ele>
        <time>2017-11-30T09:02:13Z</time>
      </trkpt>
      <trkpt lat="44.92989" lon="6.73638">
        <ele>1848.27</ele>
        <time>2017-11-30T09:02:27Z</time>
      </trkpt>
      <trkpt lat="44.92981" lon="6.73627">
        <ele>1849.71</ele>
        <time>2017-11-30T09:02:41Z</time>
      </trkpt>
      <trkpt lat="44.92972" lon="6.73615">
        <ele>1851.16</ele>
        <time>2017-11-30T09:02:56Z</time>
      </trkpt>
      <trkpt lat="44.92962" lon="6.73605">
        <ele>1853.08</ele>
        <time>2017-11-30T09:03:12Z</time>
      </trkpt>
      <trkpt lat="44.92953" lon="6.73594">
        <ele>1854.04</ele>
        <time>2017-11-30T09:03:26Z</time>
      </trkpt>
      <trkpt lat="44.92944" lon="6.73585">
        <ele>1855</ele>
        <time>2017-11-30T09:03:41Z</time>
      </trkpt>
      <trkpt lat="44.92935" lon="6.73578">
        <ele>1855.96</ele>
        <time>2017-11-30T09:03:54Z</time>
      </trkpt>
      <trkpt lat="44.92927" lon="6.7357">
        <ele>1857.4</ele>
        <time>2017-11-30T09:04:08Z</time>
      </trkpt>
      <trkpt lat="44.92917" lon="6.73561">
        <ele>1858.37</ele>
        <time>2017-11-30T09:04:23Z</time>
      </trkpt>
      <trkpt lat="44.9291" lon="6.73553">
        <ele>1859.81</ele>
        <time>2017-11-30T09:04:34Z</time>
      </trkpt>
      <trkpt lat="44.929" lon="6.73546">
        <ele>1860.29</ele>
        <time>2017-11-30T09:04:48Z</time>
      </trkpt>
      <trkpt lat="44.92889" lon="6.73535">
        <ele>1861.73</ele>
        <time>2017-11-30T09:05:04Z</time>
      </trkpt>
      <trkpt lat="44.92886" lon="6.73533">
        <ele>1862.21</ele>
        <time>2017-11-30T09:05:07Z</time>
      </trkpt>
      <trkpt lat="44.92883" lon="6.73527">
        <ele>1862.21</ele>
        <time>2017-11-30T09:05:13Z</time>
      </trkpt>
      <trkpt lat="44.92874" lon="6.73517">
        <ele>1863.17</ele>
        <time>2017-11-30T09:05:27Z</time>
      </trkpt>
      <trkpt lat="44.92866" lon="6.73508">
        <ele>1864.13</ele>
        <time>2017-11-30T09:05:41Z</time>
      </trkpt>
      <trkpt lat="44.92859" lon="6.73498">
        <ele>1865.09</ele>
        <time>2017-11-30T09:05:54Z</time>
      </trkpt>
      <trkpt lat="44.92851" lon="6.73485">
        <ele>1866.54</ele>
        <time>2017-11-30T09:06:11Z</time>
      </trkpt>
      <trkpt lat="44.92848" lon="6.73471">
        <ele>1868.46</ele>
        <time>2017-11-30T09:06:24Z</time>
      </trkpt>
      <trkpt lat="44.9284" lon="6.73461">
        <ele>1870.38</ele>
        <time>2017-11-30T09:06:38Z</time>
      </trkpt>
      <trkpt lat="44.92832" lon="6.73454">
        <ele>1872.3</ele>
        <time>2017-11-30T09:06:51Z</time>
      </trkpt>
      <trkpt lat="44.92826" lon="6.73447">
        <ele>1873.75</ele>
        <time>2017-11-30T09:07:03Z</time>
      </trkpt>
      <trkpt lat="44.92821" lon="6.73442">
        <ele>1874.23</ele>
        <time>2017-11-30T09:07:17Z</time>
      </trkpt>
      <trkpt lat="44.92813" lon="6.73434">
        <ele>1875.19</ele>
        <time>2017-11-30T09:07:30Z</time>
      </trkpt>
      <trkpt lat="44.92808" lon="6.73428">
        <ele>1876.63</ele>
        <time>2017-11-30T09:07:42Z</time>
      </trkpt>
      <trkpt lat="44.928" lon="6.7342">
        <ele>1877.59</ele>
        <time>2017-11-30T09:07:55Z</time>
      </trkpt>
      <trkpt lat="44.92797" lon="6.73418">
        <ele>1878.55</ele>
        <time>2017-11-30T09:08:01Z</time>
      </trkpt>
      <trkpt lat="44.92792" lon="6.73411">
        <ele>1881.92</ele>
        <time>2017-11-30T09:08:14Z</time>
      </trkpt>
      <trkpt lat="44.92784" lon="6.73404">
        <ele>1882.4</ele>
        <time>2017-11-30T09:08:29Z</time>
      </trkpt>
      <trkpt lat="44.92777" lon="6.73397">
        <ele>1884.32</ele>
        <time>2017-11-30T09:08:43Z</time>
      </trkpt>
      <trkpt lat="44.9277" lon="6.73393">
        <ele>1885.76</ele>
        <time>2017-11-30T09:08:56Z</time>
      </trkpt>
      <trkpt lat="44.92763" lon="6.73389">
        <ele>1888.65</ele>
        <time>2017-11-30T09:09:11Z</time>
      </trkpt>
      <trkpt lat="44.92756" lon="6.73386">
        <ele>1890.57</ele>
        <time>2017-11-30T09:09:25Z</time>
      </trkpt>
      <trkpt lat="44.92747" lon="6.73384">
        <ele>1892.49</ele>
        <time>2017-11-30T09:09:40Z</time>
      </trkpt>
      <trkpt lat="44.92736" lon="6.73379">
        <ele>1894.42</ele>
        <time>2017-11-30T09:09:55Z</time>
      </trkpt>
      <trkpt lat="44.92725" lon="6.73375">
        <ele>1895.38</ele>
        <time>2017-11-30T09:10:10Z</time>
      </trkpt>
      <trkpt lat="44.92713" lon="6.73371">
        <ele>1895.38</ele>
        <time>2017-11-30T09:10:25Z</time>
      </trkpt>
      <trkpt lat="44.92703" lon="6.73368">
        <ele>1895.38</ele>
        <time>2017-11-30T09:10:35Z</time>
      </trkpt>
      <trkpt lat="44.92694" lon="6.73365">
        <ele>1896.34</ele>
        <time>2017-11-30T09:10:46Z</time>
      </trkpt>
      <trkpt lat="44.92685" lon="6.73363">
        <ele>1897.3</ele>
        <time>2017-11-30T09:10:58Z</time>
      </trkpt>
      <trkpt lat="44.92674" lon="6.73361">
        <ele>1898.74</ele>
        <time>2017-11-30T09:11:13Z</time>
      </trkpt>
      <trkpt lat="44.92665" lon="6.73359">
        <ele>1900.18</ele>
        <time>2017-11-30T09:11:25Z</time>
      </trkpt>
      <trkpt lat="44.92654" lon="6.73356">
        <ele>1901.63</ele>
        <time>2017-11-30T09:11:39Z</time>
      </trkpt>
      <trkpt lat="44.92645" lon="6.73351">
        <ele>1903.07</ele>
        <time>2017-11-30T09:11:53Z</time>
      </trkpt>
      <trkpt lat="44.92637" lon="6.7335">
        <ele>1904.03</ele>
        <time>2017-11-30T09:12:05Z</time>
      </trkpt>
      <trkpt lat="44.92632" lon="6.73344">
        <ele>1907.87</ele>
        <time>2017-11-30T09:12:15Z</time>
      </trkpt>
      <trkpt lat="44.92624" lon="6.73337">
        <ele>1907.39</ele>
        <time>2017-11-30T09:12:30Z</time>
      </trkpt>
      <trkpt lat="44.92616" lon="6.73329">
        <ele>1908.83</ele>
        <time>2017-11-30T09:12:43Z</time>
      </trkpt>
      <trkpt lat="44.92606" lon="6.7332">
        <ele>1909.8</ele>
        <time>2017-11-30T09:12:59Z</time>
      </trkpt>
      <trkpt lat="44.92602" lon="6.73317">
        <ele>1910.76</ele>
        <time>2017-11-30T09:13:06Z</time>
      </trkpt>
      <trkpt lat="44.92595" lon="6.73311">
        <ele>1911.72</ele>
        <time>2017-11-30T09:13:17Z</time>
      </trkpt>
      <trkpt lat="44.92589" lon="6.73302">
        <ele>1912.68</ele>
        <time>2017-11-30T09:13:29Z</time>
      </trkpt>
      <trkpt lat="44.92581" lon="6.73293">
        <ele>1914.12</ele>
        <time>2017-11-30T09:13:43Z</time>
      </trkpt>
      <trkpt lat="44.92574" lon="6.73283">
        <ele>1915.08</ele>
        <time>2017-11-30T09:13:57Z</time>
      </trkpt>
      <trkpt lat="44.92566" lon="6.73273">
        <ele>1916.04</ele>
        <time>2017-11-30T09:14:11Z</time>
      </trkpt>
      <trkpt lat="44.92556" lon="6.73264">
        <ele>1917.49</ele>
        <time>2017-11-30T09:14:26Z</time>
      </trkpt>
      <trkpt lat="44.92547" lon="6.73252">
        <ele>1917.97</ele>
        <time>2017-11-30T09:14:42Z</time>
      </trkpt>
      <trkpt lat="44.92538" lon="6.7324">
        <ele>1918.45</ele>
        <time>2017-11-30T09:14:55Z</time>
      </trkpt>
      <trkpt lat="44.9253" lon="6.73229">
        <ele>1918.93</ele>
        <time>2017-11-30T09:15:08Z</time>
      </trkpt>
      <trkpt lat="44.92524" lon="6.73221">
        <ele>1920.37</ele>
        <time>2017-11-30T09:15:21Z</time>
      </trkpt>
      <trkpt lat="44.92517" lon="6.73211">
        <ele>1920.85</ele>
        <time>2017-11-30T09:15:35Z</time>
      </trkpt>
      <trkpt lat="44.92509" lon="6.73199">
        <ele>1921.81</ele>
        <time>2017-11-30T09:15:50Z</time>
      </trkpt>
      <trkpt lat="44.92502" lon="6.7319">
        <ele>1923.25</ele>
        <time>2017-11-30T09:16:03Z</time>
      </trkpt>
      <trkpt lat="44.92495" lon="6.73179">
        <ele>1926.14</ele>
        <time>2017-11-30T09:16:17Z</time>
      </trkpt>
      <trkpt lat="44.9249" lon="6.73169">
        <ele>1926.14</ele>
        <time>2017-11-30T09:16:29Z</time>
      </trkpt>
      <trkpt lat="44.92484" lon="6.73161">
        <ele>1927.58</ele>
        <time>2017-11-30T09:16:42Z</time>
      </trkpt>
      <trkpt lat="44.92478" lon="6.73151">
        <ele>1929.5</ele>
        <time>2017-11-30T09:16:58Z</time>
      </trkpt>
      <trkpt lat="44.92471" lon="6.73142">
        <ele>1930.95</ele>
        <time>2017-11-30T09:17:13Z</time>
      </trkpt>
      <trkpt lat="44.92465" lon="6.73133">
        <ele>1932.87</ele>
        <time>2017-11-30T09:17:29Z</time>
      </trkpt>
      <trkpt lat="44.92457" lon="6.73124">
        <ele>1934.31</ele>
        <time>2017-11-30T09:17:45Z</time>
      </trkpt>
      <trkpt lat="44.9245" lon="6.73115">
        <ele>1935.75</ele>
        <time>2017-11-30T09:18:01Z</time>
      </trkpt>
      <trkpt lat="44.92442" lon="6.73108">
        <ele>1939.6</ele>
        <time>2017-11-30T09:18:18Z</time>
      </trkpt>
      <trkpt lat="44.92435" lon="6.73098">
        <ele>1940.08</ele>
        <time>2017-11-30T09:18:34Z</time>
      </trkpt>
      <trkpt lat="44.9243" lon="6.73092">
        <ele>1942</ele>
        <time>2017-11-30T09:18:49Z</time>
      </trkpt>
      <trkpt lat="44.92422" lon="6.73081">
        <ele>1943.92</ele>
        <time>2017-11-30T09:19:07Z</time>
      </trkpt>
      <trkpt lat="44.92414" lon="6.73074">
        <ele>1946.33</ele>
        <time>2017-11-30T09:19:24Z</time>
      </trkpt>
      <trkpt lat="44.92408" lon="6.73066">
        <ele>1948.73</ele>
        <time>2017-11-30T09:19:41Z</time>
      </trkpt>
      <trkpt lat="44.92399" lon="6.73059">
        <ele>1951.13</ele>
        <time>2017-11-30T09:19:59Z</time>
      </trkpt>
      <trkpt lat="44.92393" lon="6.73051">
        <ele>1952.09</ele>
        <time>2017-11-30T09:20:15Z</time>
      </trkpt>
      <trkpt lat="44.92385" lon="6.73041">
        <ele>1953.54</ele>
        <time>2017-11-30T09:20:32Z</time>
      </trkpt>
      <trkpt lat="44.92377" lon="6.73029">
        <ele>1955.46</ele>
        <time>2017-11-30T09:20:50Z</time>
      </trkpt>
      <trkpt lat="44.9237" lon="6.73022">
        <ele>1957.38</ele>
        <time>2017-11-30T09:21:07Z</time>
      </trkpt>
      <trkpt lat="44.92363" lon="6.73012">
        <ele>1959.3</ele>
        <time>2017-11-30T09:21:23Z</time>
      </trkpt>
      <trkpt lat="44.92356" lon="6.73004">
        <ele>1961.23</ele>
        <time>2017-11-30T09:21:38Z</time>
      </trkpt>
      <trkpt lat="44.92351" lon="6.72994">
        <ele>1963.15</ele>
        <time>2017-11-30T09:21:54Z</time>
      </trkpt>
      <trkpt lat="44.92344" lon="6.72985">
        <ele>1965.55</ele>
        <time>2017-11-30T09:22:13Z</time>
      </trkpt>
      <trkpt lat="44.9234" lon="6.72977">
        <ele>1967.96</ele>
        <time>2017-11-30T09:22:29Z</time>
      </trkpt>
      <trkpt lat="44.92335" lon="6.7297">
        <ele>1970.84</ele>
        <time>2017-11-30T09:22:47Z</time>
      </trkpt>
      <trkpt lat="44.92331" lon="6.72962">
        <ele>1973.72</ele>
        <time>2017-11-30T09:23:05Z</time>
      </trkpt>
      <trkpt lat="44.92328" lon="6.72952">
        <ele>1975.65</ele>
        <time>2017-11-30T09:23:22Z</time>
      </trkpt>
      <trkpt lat="44.92326" lon="6.72943">
        <ele>1978.05</ele>
        <time>2017-11-30T09:23:40Z</time>
      </trkpt>
      <trkpt lat="44.92323" lon="6.72936">
        <ele>1979.97</ele>
        <time>2017-11-30T09:23:54Z</time>
      </trkpt>
      <trkpt lat="44.9232" lon="6.72926">
        <ele>1982.38</ele>
        <time>2017-11-30T09:24:12Z</time>
      </trkpt>
      <trkpt lat="44.92316" lon="6.72918">
        <ele>1984.78</ele>
        <time>2017-11-30T09:24:28Z</time>
      </trkpt>
      <trkpt lat="44.92313" lon="6.72908">
        <ele>1986.22</ele>
        <time>2017-11-30T09:24:45Z</time>
      </trkpt>
      <trkpt lat="44.92309" lon="6.72898">
        <ele>1988.62</ele>
        <time>2017-11-30T09:25:02Z</time>
      </trkpt>
      <trkpt lat="44.92303" lon="6.72888">
        <ele>1990.55</ele>
        <time>2017-11-30T09:25:22Z</time>
      </trkpt>
      <trkpt lat="44.92298" lon="6.72879">
        <ele>1991.99</ele>
        <time>2017-11-30T09:25:35Z</time>
      </trkpt>
      <trkpt lat="44.92292" lon="6.72872">
        <ele>1993.91</ele>
        <time>2017-11-30T09:25:51Z</time>
      </trkpt>
      <trkpt lat="44.92285" lon="6.72863">
        <ele>1996.32</ele>
        <time>2017-11-30T09:26:05Z</time>
      </trkpt>
      <trkpt lat="44.92279" lon="6.72857">
        <ele>1997.28</ele>
        <time>2017-11-30T09:26:19Z</time>
      </trkpt>
      <trkpt lat="44.9227" lon="6.72849">
        <ele>1998.24</ele>
        <time>2017-11-30T09:26:33Z</time>
      </trkpt>
      <trkpt lat="44.9226" lon="6.72841">
        <ele>1998.72</ele>
        <time>2017-11-30T09:26:46Z</time>
      </trkpt>
      <trkpt lat="44.9225" lon="6.7283">
        <ele>1999.2</ele>
        <time>2017-11-30T09:27:02Z</time>
      </trkpt>
      <trkpt lat="44.92241" lon="6.72821">
        <ele>2000.16</ele>
        <time>2017-11-30T09:27:17Z</time>
      </trkpt>
      <trkpt lat="44.92233" lon="6.72812">
        <ele>2002.08</ele>
        <time>2017-11-30T09:27:32Z</time>
      </trkpt>
      <trkpt lat="44.92224" lon="6.72801">
        <ele>2003.52</ele>
        <time>2017-11-30T09:27:48Z</time>
      </trkpt>
      <trkpt lat="44.92215" lon="6.7279">
        <ele>2004.97</ele>
        <time>2017-11-30T09:28:03Z</time>
      </trkpt>
      <trkpt lat="44.92206" lon="6.72779">
        <ele>2005.93</ele>
        <time>2017-11-30T09:28:18Z</time>
      </trkpt>
      <trkpt lat="44.92199" lon="6.72769">
        <ele>2007.37</ele>
        <time>2017-11-30T09:28:32Z</time>
      </trkpt>
      <trkpt lat="44.92191" lon="6.72759">
        <ele>2008.33</ele>
        <time>2017-11-30T09:28:46Z</time>
      </trkpt>
      <trkpt lat="44.92185" lon="6.72752">
        <ele>2009.77</ele>
        <time>2017-11-30T09:28:59Z</time>
      </trkpt>
      <trkpt lat="44.92177" lon="6.72739">
        <ele>2012.18</ele>
        <time>2017-11-30T09:29:17Z</time>
      </trkpt>
      <trkpt lat="44.9217" lon="6.72729">
        <ele>2014.1</ele>
        <time>2017-11-30T09:29:31Z</time>
      </trkpt>
      <trkpt lat="44.92164" lon="6.72719">
        <ele>2015.54</ele>
        <time>2017-11-30T09:29:44Z</time>
      </trkpt>
      <trkpt lat="44.92157" lon="6.72707">
        <ele>2017.46</ele>
        <time>2017-11-30T09:30:00Z</time>
      </trkpt>
      <trkpt lat="44.9215" lon="6.72696">
        <ele>2018.91</ele>
        <time>2017-11-30T09:30:16Z</time>
      </trkpt>
      <trkpt lat="44.92143" lon="6.72684">
        <ele>2020.83</ele>
        <time>2017-11-30T09:30:34Z</time>
      </trkpt>
      <trkpt lat="44.92138" lon="6.72672">
        <ele>2022.75</ele>
        <time>2017-11-30T09:30:49Z</time>
      </trkpt>
      <trkpt lat="44.9213" lon="6.7266">
        <ele>2024.19</ele>
        <time>2017-11-30T09:31:05Z</time>
      </trkpt>
      <trkpt lat="44.92124" lon="6.72651">
        <ele>2025.15</ele>
        <time>2017-11-30T09:31:18Z</time>
      </trkpt>
      <trkpt lat="44.92115" lon="6.72643">
        <ele>2026.12</ele>
        <time>2017-11-30T09:31:34Z</time>
      </trkpt>
      <trkpt lat="44.92105" lon="6.72636">
        <ele>2026.6</ele>
        <time>2017-11-30T09:31:51Z</time>
      </trkpt>
      <trkpt lat="44.92095" lon="6.72632">
        <ele>2028.52</ele>
        <time>2017-11-30T09:32:07Z</time>
      </trkpt>
      <trkpt lat="44.92095" lon="6.72632">
        <ele>2028.52</ele>
        <time>2017-11-30T09:32:08Z</time>
      </trkpt>
      <trkpt lat="44.92094" lon="6.72632">
        <ele>2028.52</ele>
        <time>2017-11-30T09:32:09Z</time>
      </trkpt>
      <trkpt lat="44.92083" lon="6.7263">
        <ele>2029.48</ele>
        <time>2017-11-30T09:32:23Z</time>
      </trkpt>
      <trkpt lat="44.92075" lon="6.72628">
        <ele>2030.92</ele>
        <time>2017-11-30T09:32:36Z</time>
      </trkpt>
      <trkpt lat="44.92066" lon="6.72625">
        <ele>2033.33</ele>
        <time>2017-11-30T09:32:53Z</time>
      </trkpt>
      <trkpt lat="44.92059" lon="6.72626">
        <ele>2035.25</ele>
        <time>2017-11-30T09:33:09Z</time>
      </trkpt>
      <trkpt lat="44.9205" lon="6.72634">
        <ele>2037.17</ele>
        <time>2017-11-30T09:33:28Z</time>
      </trkpt>
      <trkpt lat="44.92045" lon="6.72642">
        <ele>2040.05</ele>
        <time>2017-11-30T09:33:46Z</time>
      </trkpt>
      <trkpt lat="44.92039" lon="6.72647">
        <ele>2041.98</ele>
        <time>2017-11-30T09:34:07Z</time>
      </trkpt>
      <trkpt lat="44.92034" lon="6.72655">
        <ele>2043.42</ele>
        <time>2017-11-30T09:34:21Z</time>
      </trkpt>
      <trkpt lat="44.92029" lon="6.7266">
        <ele>2046.3</ele>
        <time>2017-11-30T09:34:39Z</time>
      </trkpt>
      <trkpt lat="44.92024" lon="6.72665">
        <ele>2048.23</ele>
        <time>2017-11-30T09:34:56Z</time>
      </trkpt>
      <trkpt lat="44.92017" lon="6.72673">
        <ele>2049.67</ele>
        <time>2017-11-30T09:35:10Z</time>
      </trkpt>
      <trkpt lat="44.92011" lon="6.72678">
        <ele>2051.11</ele>
        <time>2017-11-30T09:35:23Z</time>
      </trkpt>
      <trkpt lat="44.92007" lon="6.72684">
        <ele>2053.03</ele>
        <time>2017-11-30T09:35:38Z</time>
      </trkpt>
      <trkpt lat="44.91998" lon="6.72692">
        <ele>2054.96</ele>
        <time>2017-11-30T09:35:58Z</time>
      </trkpt>
      <trkpt lat="44.91989" lon="6.72695">
        <ele>2056.88</ele>
        <time>2017-11-30T09:36:16Z</time>
      </trkpt>
      <trkpt lat="44.91982" lon="6.727">
        <ele>2058.32</ele>
        <time>2017-11-30T09:36:34Z</time>
      </trkpt>
      <trkpt lat="44.91975" lon="6.72703">
        <ele>2060.72</ele>
        <time>2017-11-30T09:36:51Z</time>
      </trkpt>
      <trkpt lat="44.91969" lon="6.72709">
        <ele>2063.61</ele>
        <time>2017-11-30T09:37:09Z</time>
      </trkpt>
      <trkpt lat="44.91963" lon="6.72712">
        <ele>2064.57</ele>
        <time>2017-11-30T09:37:22Z</time>
      </trkpt>
      <trkpt lat="44.91953" lon="6.7272">
        <ele>2065.53</ele>
        <time>2017-11-30T09:37:40Z</time>
      </trkpt>
      <trkpt lat="44.91946" lon="6.72724">
        <ele>2066.49</ele>
        <time>2017-11-30T09:37:53Z</time>
      </trkpt>
      <trkpt lat="44.91938" lon="6.72728">
        <ele>2067.45</ele>
        <time>2017-11-30T09:38:06Z</time>
      </trkpt>
      <trkpt lat="44.91931" lon="6.72732">
        <ele>2068.41</ele>
        <time>2017-11-30T09:38:20Z</time>
      </trkpt>
      <trkpt lat="44.91925" lon="6.72736">
        <ele>2069.86</ele>
        <time>2017-11-30T09:38:33Z</time>
      </trkpt>
      <trkpt lat="44.91914" lon="6.72739">
        <ele>2071.3</ele>
        <time>2017-11-30T09:38:48Z</time>
      </trkpt>
      <trkpt lat="44.91905" lon="6.72742">
        <ele>2072.74</ele>
        <time>2017-11-30T09:39:02Z</time>
      </trkpt>
      <trkpt lat="44.91894" lon="6.72744">
        <ele>2074.66</ele>
        <time>2017-11-30T09:39:18Z</time>
      </trkpt>
      <trkpt lat="44.91888" lon="6.72747">
        <ele>2076.1</ele>
        <time>2017-11-30T09:39:34Z</time>
      </trkpt>
      <trkpt lat="44.91882" lon="6.72753">
        <ele>2078.51</ele>
        <time>2017-11-30T09:39:47Z</time>
      </trkpt>
      <trkpt lat="44.91876" lon="6.72757">
        <ele>2080.43</ele>
        <time>2017-11-30T09:40:00Z</time>
      </trkpt>
      <trkpt lat="44.91871" lon="6.72763">
        <ele>2083.31</ele>
        <time>2017-11-30T09:40:19Z</time>
      </trkpt>
      <trkpt lat="44.91866" lon="6.72766">
        <ele>2085.24</ele>
        <time>2017-11-30T09:40:32Z</time>
      </trkpt>
      <trkpt lat="44.91861" lon="6.72773">
        <ele>2086.68</ele>
        <time>2017-11-30T09:40:45Z</time>
      </trkpt>
      <trkpt lat="44.9186" lon="6.72782">
        <ele>2088.6</ele>
        <time>2017-11-30T09:41:00Z</time>
      </trkpt>
      <trkpt lat="44.91855" lon="6.72788">
        <ele>2091</ele>
        <time>2017-11-30T09:41:16Z</time>
      </trkpt>
      <trkpt lat="44.91851" lon="6.72798">
        <ele>2092.93</ele>
        <time>2017-11-30T09:41:34Z</time>
      </trkpt>
      <trkpt lat="44.9185" lon="6.72807">
        <ele>2095.33</ele>
        <time>2017-11-30T09:41:52Z</time>
      </trkpt>
      <trkpt lat="44.91846" lon="6.72816">
        <ele>2097.25</ele>
        <time>2017-11-30T09:42:08Z</time>
      </trkpt>
      <trkpt lat="44.91844" lon="6.72822">
        <ele>2099.18</ele>
        <time>2017-11-30T09:42:25Z</time>
      </trkpt>
      <trkpt lat="44.91844" lon="6.72831">
        <ele>2102.06</ele>
        <time>2017-11-30T09:42:43Z</time>
      </trkpt>
      <trkpt lat="44.9184" lon="6.7284">
        <ele>2104.94</ele>
        <time>2017-11-30T09:43:03Z</time>
      </trkpt>
      <trkpt lat="44.91837" lon="6.72851">
        <ele>2106.87</ele>
        <time>2017-11-30T09:43:21Z</time>
      </trkpt>
      <trkpt lat="44.91835" lon="6.7286">
        <ele>2108.79</ele>
        <time>2017-11-30T09:43:38Z</time>
      </trkpt>
      <trkpt lat="44.91832" lon="6.72871">
        <ele>2111.19</ele>
        <time>2017-11-30T09:43:56Z</time>
      </trkpt>
      <trkpt lat="44.91829" lon="6.72878">
        <ele>2113.6</ele>
        <time>2017-11-30T09:44:13Z</time>
      </trkpt>
      <trkpt lat="44.91825" lon="6.72886">
        <ele>2115.52</ele>
        <time>2017-11-30T09:44:29Z</time>
      </trkpt>
      <trkpt lat="44.91821" lon="6.7289">
        <ele>2117.44</ele>
        <time>2017-11-30T09:44:44Z</time>
      </trkpt>
      <trkpt lat="44.91816" lon="6.729">
        <ele>2119.84</ele>
        <time>2017-11-30T09:45:01Z</time>
      </trkpt>
      <trkpt lat="44.91811" lon="6.72903">
        <ele>2121.77</ele>
        <time>2017-11-30T09:45:17Z</time>
      </trkpt>
      <trkpt lat="44.91805" lon="6.72907">
        <ele>2124.17</ele>
        <time>2017-11-30T09:45:31Z</time>
      </trkpt>
      <trkpt lat="44.91799" lon="6.72911">
        <ele>2126.09</ele>
        <time>2017-11-30T09:45:46Z</time>
      </trkpt>
      <trkpt lat="44.91796" lon="6.72923">
        <ele>2128.5</ele>
        <time>2017-11-30T09:46:03Z</time>
      </trkpt>
      <trkpt lat="44.91793" lon="6.72935">
        <ele>2131.38</ele>
        <time>2017-11-30T09:46:23Z</time>
      </trkpt>
      <trkpt lat="44.91789" lon="6.72952">
        <ele>2133.78</ele>
        <time>2017-11-30T09:46:44Z</time>
      </trkpt>
      <trkpt lat="44.91787" lon="6.72964">
        <ele>2136.19</ele>
        <time>2017-11-30T09:47:07Z</time>
      </trkpt>
      <trkpt lat="44.91784" lon="6.72979">
        <ele>2139.07</ele>
        <time>2017-11-30T09:47:29Z</time>
      </trkpt>
      <trkpt lat="44.9178" lon="6.72994">
        <ele>2141.47</ele>
        <time>2017-11-30T09:47:48Z</time>
      </trkpt>
      <trkpt lat="44.9178" lon="6.73003">
        <ele>2143.4</ele>
        <time>2017-11-30T09:48:04Z</time>
      </trkpt>
      <trkpt lat="44.91778" lon="6.73016">
        <ele>2145.32</ele>
        <time>2017-11-30T09:48:20Z</time>
      </trkpt>
      <trkpt lat="44.91773" lon="6.73026">
        <ele>2147.24</ele>
        <time>2017-11-30T09:48:38Z</time>
      </trkpt>
      <trkpt lat="44.91767" lon="6.73034">
        <ele>2149.16</ele>
        <time>2017-11-30T09:48:53Z</time>
      </trkpt>
      <trkpt lat="44.91766" lon="6.73036">
        <ele>2149.16</ele>
        <time>2017-11-30T09:48:55Z</time>
      </trkpt>
      <trkpt lat="44.91757" lon="6.73047">
        <ele>2149.65</ele>
        <time>2017-11-30T09:49:11Z</time>
      </trkpt>
      <trkpt lat="44.91752" lon="6.73055">
        <ele>2151.09</ele>
        <time>2017-11-30T09:49:25Z</time>
      </trkpt>
      <trkpt lat="44.91753" lon="6.73056">
        <ele>2151.09</ele>
        <time>2017-11-30T09:49:38Z</time>
      </trkpt>
      <trkpt lat="44.91754" lon="6.73054">
        <ele>2148.2</ele>
        <time>2017-11-30T09:49:59Z</time>
      </trkpt>
      <trkpt lat="44.91754" lon="6.73052">
        <ele>2149.16</ele>
        <time>2017-11-30T09:50:28Z</time>
      </trkpt>
      <trkpt lat="44.91752" lon="6.7305">
        <ele>2148.68</ele>
        <time>2017-11-30T09:51:01Z</time>
      </trkpt>
      <trkpt lat="44.91752" lon="6.73053">
        <ele>2148.68</ele>
        <time>2017-11-30T09:51:32Z</time>
      </trkpt>
      <trkpt lat="44.91753" lon="6.73053">
        <ele>2148.68</ele>
        <time>2017-11-30T09:51:52Z</time>
      </trkpt>
      <trkpt lat="44.91752" lon="6.73054">
        <ele>2148.68</ele>
        <time>2017-11-30T09:52:19Z</time>
      </trkpt>
      <trkpt lat="44.91754" lon="6.73053">
        <ele>2148.2</ele>
        <time>2017-11-30T09:52:58Z</time>
      </trkpt>
      <trkpt lat="44.91751" lon="6.73051">
        <ele>2148.2</ele>
        <time>2017-11-30T09:53:34Z</time>
      </trkpt>
      <trkpt lat="44.91751" lon="6.73051">
        <ele>2148.2</ele>
        <time>2017-11-30T09:54:13Z</time>
      </trkpt>
      <trkpt lat="44.9175" lon="6.73051">
        <ele>2148.2</ele>
        <time>2017-11-30T09:54:49Z</time>
      </trkpt>
      <trkpt lat="44.91752" lon="6.73052">
        <ele>2148.68</ele>
        <time>2017-11-30T09:55:22Z</time>
      </trkpt>
      <trkpt lat="44.91752" lon="6.73051">
        <ele>2148.68</ele>
        <time>2017-11-30T09:56:11Z</time>
      </trkpt>
      <trkpt lat="44.91752" lon="6.73052">
        <ele>2150.13</ele>
        <time>2017-11-30T09:56:30Z</time>
      </trkpt>
      <trkpt lat="44.91754" lon="6.73056">
        <ele>2150.13</ele>
        <time>2017-11-30T09:56:46Z</time>
      </trkpt>
      <trkpt lat="44.91757" lon="6.73055">
        <ele>2149.65</ele>
        <time>2017-11-30T09:57:00Z</time>
      </trkpt>
      <trkpt lat="44.91757" lon="6.73054">
        <ele>2149.16</ele>
        <time>2017-11-30T09:57:22Z</time>
      </trkpt>
      <trkpt lat="44.91753" lon="6.73057">
        <ele>2149.65</ele>
        <time>2017-11-30T09:57:39Z</time>
      </trkpt>
      <trkpt lat="44.91743" lon="6.73058">
        <ele>2150.13</ele>
        <time>2017-11-30T09:57:53Z</time>
      </trkpt>
      <trkpt lat="44.91732" lon="6.73059">
        <ele>2151.09</ele>
        <time>2017-11-30T09:58:07Z</time>
      </trkpt>
      <trkpt lat="44.91722" lon="6.73059">
        <ele>2151.57</ele>
        <time>2017-11-30T09:58:17Z</time>
      </trkpt>
      <trkpt lat="44.91709" lon="6.73059">
        <ele>2152.05</ele>
        <time>2017-11-30T09:58:33Z</time>
      </trkpt>
      <trkpt lat="44.91699" lon="6.7306">
        <ele>2152.53</ele>
        <time>2017-11-30T09:58:46Z</time>
      </trkpt>
      <trkpt lat="44.91689" lon="6.7306">
        <ele>2153.49</ele>
        <time>2017-11-30T09:58:59Z</time>
      </trkpt>
      <trkpt lat="44.91678" lon="6.73058">
        <ele>2152.53</ele>
        <time>2017-11-30T09:59:13Z</time>
      </trkpt>
      <trkpt lat="44.91675" lon="6.73058">
        <ele>2153.97</ele>
        <time>2017-11-30T09:59:16Z</time>
      </trkpt>
      <trkpt lat="44.91664" lon="6.73058">
        <ele>2154.45</ele>
        <time>2017-11-30T09:59:29Z</time>
      </trkpt>
      <trkpt lat="44.91654" lon="6.73062">
        <ele>2154.45</ele>
        <time>2017-11-30T09:59:43Z</time>
      </trkpt>
      <trkpt lat="44.91642" lon="6.73061">
        <ele>2154.93</ele>
        <time>2017-11-30T09:59:55Z</time>
      </trkpt>
      <trkpt lat="44.91631" lon="6.73062">
        <ele>2155.89</ele>
        <time>2017-11-30T10:00:07Z</time>
      </trkpt>
      <trkpt lat="44.9162" lon="6.73062">
        <ele>2156.86</ele>
        <time>2017-11-30T10:00:20Z</time>
      </trkpt>
      <trkpt lat="44.9161" lon="6.73061">
        <ele>2157.34</ele>
        <time>2017-11-30T10:00:31Z</time>
      </trkpt>
      <trkpt lat="44.91603" lon="6.7306">
        <ele>2158.3</ele>
        <time>2017-11-30T10:00:39Z</time>
      </trkpt>
      <trkpt lat="44.91592" lon="6.7306">
        <ele>2159.26</ele>
        <time>2017-11-30T10:00:52Z</time>
      </trkpt>
      <trkpt lat="44.91589" lon="6.7306">
        <ele>2159.74</ele>
        <time>2017-11-30T10:00:55Z</time>
      </trkpt>
      <trkpt lat="44.91579" lon="6.73059">
        <ele>2161.18</ele>
        <time>2017-11-30T10:01:08Z</time>
      </trkpt>
      <trkpt lat="44.91569" lon="6.73057">
        <ele>2162.14</ele>
        <time>2017-11-30T10:01:21Z</time>
      </trkpt>
      <trkpt lat="44.91558" lon="6.73054">
        <ele>2163.58</ele>
        <time>2017-11-30T10:01:36Z</time>
      </trkpt>
      <trkpt lat="44.91547" lon="6.7305">
        <ele>2165.51</ele>
        <time>2017-11-30T10:01:54Z</time>
      </trkpt>
      <trkpt lat="44.91535" lon="6.73047">
        <ele>2166.95</ele>
        <time>2017-11-30T10:02:11Z</time>
      </trkpt>
      <trkpt lat="44.91523" lon="6.73044">
        <ele>2167.43</ele>
        <time>2017-11-30T10:02:26Z</time>
      </trkpt>
      <trkpt lat="44.9151" lon="6.7305">
        <ele>2167.43</ele>
        <time>2017-11-30T10:02:42Z</time>
      </trkpt>
      <trkpt lat="44.91497" lon="6.73057">
        <ele>2167.91</ele>
        <time>2017-11-30T10:02:58Z</time>
      </trkpt>
      <trkpt lat="44.91486" lon="6.73062">
        <ele>2169.83</ele>
        <time>2017-11-30T10:03:15Z</time>
      </trkpt>
      <trkpt lat="44.91479" lon="6.73065">
        <ele>2171.76</ele>
        <time>2017-11-30T10:03:30Z</time>
      </trkpt>
      <trkpt lat="44.91472" lon="6.73069">
        <ele>2174.16</ele>
        <time>2017-11-30T10:03:48Z</time>
      </trkpt>
      <trkpt lat="44.91463" lon="6.73074">
        <ele>2176.08</ele>
        <time>2017-11-30T10:04:07Z</time>
      </trkpt>
      <trkpt lat="44.91455" lon="6.73079">
        <ele>2177.52</ele>
        <time>2017-11-30T10:04:21Z</time>
      </trkpt>
      <trkpt lat="44.91446" lon="6.73085">
        <ele>2178.97</ele>
        <time>2017-11-30T10:04:40Z</time>
      </trkpt>
      <trkpt lat="44.91438" lon="6.73093">
        <ele>2180.41</ele>
        <time>2017-11-30T10:04:55Z</time>
      </trkpt>
      <trkpt lat="44.91431" lon="6.73103">
        <ele>2181.37</ele>
        <time>2017-11-30T10:05:08Z</time>
      </trkpt>
      <trkpt lat="44.91429" lon="6.73119">
        <ele>2182.81</ele>
        <time>2017-11-30T10:05:23Z</time>
      </trkpt>
      <trkpt lat="44.91428" lon="6.73135">
        <ele>2184.25</ele>
        <time>2017-11-30T10:05:38Z</time>
      </trkpt>
      <trkpt lat="44.91427" lon="6.7315">
        <ele>2185.21</ele>
        <time>2017-11-30T10:05:52Z</time>
      </trkpt>
      <trkpt lat="44.91421" lon="6.73158">
        <ele>2186.18</ele>
        <time>2017-11-30T10:06:05Z</time>
      </trkpt>
      <trkpt lat="44.91413" lon="6.73169">
        <ele>2187.14</ele>
        <time>2017-11-30T10:06:20Z</time>
      </trkpt>
      <trkpt lat="44.91406" lon="6.73176">
        <ele>2188.1</ele>
        <time>2017-11-30T10:06:32Z</time>
      </trkpt>
      <trkpt lat="44.91399" lon="6.73185">
        <ele>2189.06</ele>
        <time>2017-11-30T10:06:46Z</time>
      </trkpt>
      <trkpt lat="44.91391" lon="6.73192">
        <ele>2190.98</ele>
        <time>2017-11-30T10:07:00Z</time>
      </trkpt>
      <trkpt lat="44.91382" lon="6.73199">
        <ele>2192.9</ele>
        <time>2017-11-30T10:07:16Z</time>
      </trkpt>
      <trkpt lat="44.91375" lon="6.73207">
        <ele>2194.35</ele>
        <time>2017-11-30T10:07:30Z</time>
      </trkpt>
      <trkpt lat="44.91368" lon="6.73215">
        <ele>2195.79</ele>
        <time>2017-11-30T10:07:45Z</time>
      </trkpt>
      <trkpt lat="44.91363" lon="6.73222">
        <ele>2197.71</ele>
        <time>2017-11-30T10:07:59Z</time>
      </trkpt>
      <trkpt lat="44.91356" lon="6.73233">
        <ele>2199.15</ele>
        <time>2017-11-30T10:08:14Z</time>
      </trkpt>
      <trkpt lat="44.91355" lon="6.73235">
        <ele>2199.63</ele>
        <time>2017-11-30T10:08:17Z</time>
      </trkpt>
      <trkpt lat="44.91347" lon="6.73245">
        <ele>2200.59</ele>
        <time>2017-11-30T10:08:31Z</time>
      </trkpt>
      <trkpt lat="44.91342" lon="6.73255">
        <ele>2201.56</ele>
        <time>2017-11-30T10:08:44Z</time>
      </trkpt>
      <trkpt lat="44.91336" lon="6.73264">
        <ele>2202.52</ele>
        <time>2017-11-30T10:08:59Z</time>
      </trkpt>
      <trkpt lat="44.9133" lon="6.73271">
        <ele>2204.92</ele>
        <time>2017-11-30T10:09:16Z</time>
      </trkpt>
      <trkpt lat="44.91324" lon="6.73282">
        <ele>2206.84</ele>
        <time>2017-11-30T10:09:34Z</time>
      </trkpt>
      <trkpt lat="44.91319" lon="6.73292">
        <ele>2208.29</ele>
        <time>2017-11-30T10:09:51Z</time>
      </trkpt>
      <trkpt lat="44.91315" lon="6.73298">
        <ele>2209.73</ele>
        <time>2017-11-30T10:10:03Z</time>
      </trkpt>
      <trkpt lat="44.91314" lon="6.733">
        <ele>2210.21</ele>
        <time>2017-11-30T10:10:06Z</time>
      </trkpt>
      <trkpt lat="44.91308" lon="6.7331">
        <ele>2211.17</ele>
        <time>2017-11-30T10:10:19Z</time>
      </trkpt>
      <trkpt lat="44.91302" lon="6.73318">
        <ele>2212.13</ele>
        <time>2017-11-30T10:10:34Z</time>
      </trkpt>
      <trkpt lat="44.91296" lon="6.7333">
        <ele>2214.05</ele>
        <time>2017-11-30T10:10:53Z</time>
      </trkpt>
      <trkpt lat="44.91291" lon="6.7334">
        <ele>2215.98</ele>
        <time>2017-11-30T10:11:09Z</time>
      </trkpt>
      <trkpt lat="44.91285" lon="6.73347">
        <ele>2218.38</ele>
        <time>2017-11-30T10:11:25Z</time>
      </trkpt>
      <trkpt lat="44.91277" lon="6.73356">
        <ele>2219.82</ele>
        <time>2017-11-30T10:11:43Z</time>
      </trkpt>
      <trkpt lat="44.91272" lon="6.73364">
        <ele>2221.26</ele>
        <time>2017-11-30T10:11:59Z</time>
      </trkpt>
      <trkpt lat="44.91265" lon="6.73372">
        <ele>2222.71</ele>
        <time>2017-11-30T10:12:13Z</time>
      </trkpt>
      <trkpt lat="44.91259" lon="6.7338">
        <ele>2224.63</ele>
        <time>2017-11-30T10:12:29Z</time>
      </trkpt>
      <trkpt lat="44.91253" lon="6.73385">
        <ele>2226.07</ele>
        <time>2017-11-30T10:12:44Z</time>
      </trkpt>
      <trkpt lat="44.91247" lon="6.73395">
        <ele>2227.99</ele>
        <time>2017-11-30T10:13:03Z</time>
      </trkpt>
      <trkpt lat="44.91242" lon="6.73403">
        <ele>2229.92</ele>
        <time>2017-11-30T10:13:21Z</time>
      </trkpt>
      <trkpt lat="44.91236" lon="6.73409">
        <ele>2231.84</ele>
        <time>2017-11-30T10:13:35Z</time>
      </trkpt>
      <trkpt lat="44.91233" lon="6.73414">
        <ele>2233.28</ele>
        <time>2017-11-30T10:13:51Z</time>
      </trkpt>
      <trkpt lat="44.91228" lon="6.73419">
        <ele>2235.2</ele>
        <time>2017-11-30T10:14:08Z</time>
      </trkpt>
      <trkpt lat="44.91223" lon="6.73425">
        <ele>2236.64</ele>
        <time>2017-11-30T10:14:22Z</time>
      </trkpt>
      <trkpt lat="44.91221" lon="6.7343">
        <ele>2238.57</ele>
        <time>2017-11-30T10:14:39Z</time>
      </trkpt>
      <trkpt lat="44.91217" lon="6.73433">
        <ele>2239.53</ele>
        <time>2017-11-30T10:14:53Z</time>
      </trkpt>
      <trkpt lat="44.91213" lon="6.73437">
        <ele>2241.45</ele>
        <time>2017-11-30T10:15:07Z</time>
      </trkpt>
      <trkpt lat="44.91206" lon="6.73441">
        <ele>2242.89</ele>
        <time>2017-11-30T10:15:20Z</time>
      </trkpt>
      <trkpt lat="44.91204" lon="6.73445">
        <ele>2244.33</ele>
        <time>2017-11-30T10:15:33Z</time>
      </trkpt>
      <trkpt lat="44.912" lon="6.73452">
        <ele>2246.26</ele>
        <time>2017-11-30T10:15:49Z</time>
      </trkpt>
      <trkpt lat="44.91196" lon="6.73454">
        <ele>2248.18</ele>
        <time>2017-11-30T10:16:05Z</time>
      </trkpt>
      <trkpt lat="44.91192" lon="6.73461">
        <ele>2250.58</ele>
        <time>2017-11-30T10:16:22Z</time>
      </trkpt>
      <trkpt lat="44.9119" lon="6.73466">
        <ele>2252.03</ele>
        <time>2017-11-30T10:16:36Z</time>
      </trkpt>
      <trkpt lat="44.91186" lon="6.73472">
        <ele>2253.95</ele>
        <time>2017-11-30T10:16:51Z</time>
      </trkpt>
      <trkpt lat="44.91182" lon="6.73479">
        <ele>2255.87</ele>
        <time>2017-11-30T10:17:08Z</time>
      </trkpt>
      <trkpt lat="44.9118" lon="6.73484">
        <ele>2257.31</ele>
        <time>2017-11-30T10:17:23Z</time>
      </trkpt>
      <trkpt lat="44.91176" lon="6.73488">
        <ele>2259.72</ele>
        <time>2017-11-30T10:17:38Z</time>
      </trkpt>
      <trkpt lat="44.91172" lon="6.73492">
        <ele>2261.64</ele>
        <time>2017-11-30T10:17:53Z</time>
      </trkpt>
      <trkpt lat="44.9117" lon="6.73499">
        <ele>2262.6</ele>
        <time>2017-11-30T10:18:10Z</time>
      </trkpt>
      <trkpt lat="44.91167" lon="6.73504">
        <ele>2265.48</ele>
        <time>2017-11-30T10:18:27Z</time>
      </trkpt>
      <trkpt lat="44.91165" lon="6.73512">
        <ele>2269.81</ele>
        <time>2017-11-30T10:18:42Z</time>
      </trkpt>
      <trkpt lat="44.91162" lon="6.73518">
        <ele>2269.81</ele>
        <time>2017-11-30T10:18:57Z</time>
      </trkpt>
      <trkpt lat="44.91159" lon="6.73522">
        <ele>2271.25</ele>
        <time>2017-11-30T10:19:13Z</time>
      </trkpt>
      <trkpt lat="44.91154" lon="6.73528">
        <ele>2273.17</ele>
        <time>2017-11-30T10:19:29Z</time>
      </trkpt>
      <trkpt lat="44.9115" lon="6.73533">
        <ele>2274.62</ele>
        <time>2017-11-30T10:19:44Z</time>
      </trkpt>
      <trkpt lat="44.91148" lon="6.73538">
        <ele>2276.06</ele>
        <time>2017-11-30T10:19:59Z</time>
      </trkpt>
      <trkpt lat="44.91146" lon="6.73541">
        <ele>2276.54</ele>
        <time>2017-11-30T10:20:14Z</time>
      </trkpt>
      <trkpt lat="44.91146" lon="6.73539">
        <ele>2276.54</ele>
        <time>2017-11-30T10:20:38Z</time>
      </trkpt>
      <trkpt lat="44.91142" lon="6.73543">
        <ele>2277.5</ele>
        <time>2017-11-30T10:20:59Z</time>
      </trkpt>
      <trkpt lat="44.91133" lon="6.73545">
        <ele>2280.38</ele>
        <time>2017-11-30T10:21:18Z</time>
      </trkpt>
      <trkpt lat="44.91124" lon="6.73547">
        <ele>2282.31</ele>
        <time>2017-11-30T10:21:35Z</time>
      </trkpt>
      <trkpt lat="44.91118" lon="6.73551">
        <ele>2283.75</ele>
        <time>2017-11-30T10:21:49Z</time>
      </trkpt>
      <trkpt lat="44.91113" lon="6.73555">
        <ele>2286.63</ele>
        <time>2017-11-30T10:22:04Z</time>
      </trkpt>
      <trkpt lat="44.91106" lon="6.73559">
        <ele>2288.08</ele>
        <time>2017-11-30T10:22:20Z</time>
      </trkpt>
      <trkpt lat="44.911" lon="6.73562">
        <ele>2290</ele>
        <time>2017-11-30T10:22:36Z</time>
      </trkpt>
      <trkpt lat="44.91094" lon="6.73565">
        <ele>2291.44</ele>
        <time>2017-11-30T10:22:53Z</time>
      </trkpt>
      <trkpt lat="44.91087" lon="6.7357">
        <ele>2293.36</ele>
        <time>2017-11-30T10:23:09Z</time>
      </trkpt>
      <trkpt lat="44.91079" lon="6.7357">
        <ele>2294.8</ele>
        <time>2017-11-30T10:23:25Z</time>
      </trkpt>
      <trkpt lat="44.9107" lon="6.73573">
        <ele>2296.73</ele>
        <time>2017-11-30T10:23:43Z</time>
      </trkpt>
      <trkpt lat="44.91059" lon="6.73574">
        <ele>2297.69</ele>
        <time>2017-11-30T10:23:58Z</time>
      </trkpt>
      <trkpt lat="44.91048" lon="6.73575">
        <ele>2299.13</ele>
        <time>2017-11-30T10:24:16Z</time>
      </trkpt>
      <trkpt lat="44.91036" lon="6.73577">
        <ele>2300.57</ele>
        <time>2017-11-30T10:24:35Z</time>
      </trkpt>
      <trkpt lat="44.91026" lon="6.73579">
        <ele>2300.57</ele>
        <time>2017-11-30T10:24:50Z</time>
      </trkpt>
      <trkpt lat="44.91014" lon="6.73582">
        <ele>2302.01</ele>
        <time>2017-11-30T10:25:07Z</time>
      </trkpt>
      <trkpt lat="44.91005" lon="6.73586">
        <ele>2303.46</ele>
        <time>2017-11-30T10:25:21Z</time>
      </trkpt>
      <trkpt lat="44.90994" lon="6.73588">
        <ele>2304.9</ele>
        <time>2017-11-30T10:25:39Z</time>
      </trkpt>
      <trkpt lat="44.90982" lon="6.73591">
        <ele>2307.3</ele>
        <time>2017-11-30T10:25:58Z</time>
      </trkpt>
      <trkpt lat="44.90974" lon="6.73594">
        <ele>2309.7</ele>
        <time>2017-11-30T10:26:15Z</time>
      </trkpt>
      <trkpt lat="44.90967" lon="6.73596">
        <ele>2311.15</ele>
        <time>2017-11-30T10:26:30Z</time>
      </trkpt>
      <trkpt lat="44.9096" lon="6.73599">
        <ele>2313.07</ele>
        <time>2017-11-30T10:26:46Z</time>
      </trkpt>
      <trkpt lat="44.90953" lon="6.73601">
        <ele>2314.03</ele>
        <time>2017-11-30T10:26:59Z</time>
      </trkpt>
      <trkpt lat="44.90945" lon="6.73603">
        <ele>2315.95</ele>
        <time>2017-11-30T10:27:13Z</time>
      </trkpt>
      <trkpt lat="44.90938" lon="6.73604">
        <ele>2317.88</ele>
        <time>2017-11-30T10:27:30Z</time>
      </trkpt>
      <trkpt lat="44.90929" lon="6.73606">
        <ele>2320.28</ele>
        <time>2017-11-30T10:27:51Z</time>
      </trkpt>
      <trkpt lat="44.90923" lon="6.73607">
        <ele>2321.72</ele>
        <time>2017-11-30T10:28:07Z</time>
      </trkpt>
      <trkpt lat="44.90918" lon="6.73608">
        <ele>2323.16</ele>
        <time>2017-11-30T10:28:18Z</time>
      </trkpt>
      <trkpt lat="44.9091" lon="6.7361">
        <ele>2325.09</ele>
        <time>2017-11-30T10:28:34Z</time>
      </trkpt>
      <trkpt lat="44.90904" lon="6.73613">
        <ele>2326.53</ele>
        <time>2017-11-30T10:28:50Z</time>
      </trkpt>
      <trkpt lat="44.90897" lon="6.73616">
        <ele>2328.45</ele>
        <time>2017-11-30T10:29:06Z</time>
      </trkpt>
      <trkpt lat="44.90891" lon="6.7362">
        <ele>2331.33</ele>
        <time>2017-11-30T10:29:27Z</time>
      </trkpt>
      <trkpt lat="44.90884" lon="6.73623">
        <ele>2333.74</ele>
        <time>2017-11-30T10:29:44Z</time>
      </trkpt>
      <trkpt lat="44.90879" lon="6.73626">
        <ele>2335.66</ele>
        <time>2017-11-30T10:30:01Z</time>
      </trkpt>
      <trkpt lat="44.90875" lon="6.73627">
        <ele>2337.58</ele>
        <time>2017-11-30T10:30:16Z</time>
      </trkpt>
      <trkpt lat="44.90871" lon="6.7363">
        <ele>2339.99</ele>
        <time>2017-11-30T10:30:33Z</time>
      </trkpt>
      <trkpt lat="44.90866" lon="6.73633">
        <ele>2341.91</ele>
        <time>2017-11-30T10:30:48Z</time>
      </trkpt>
      <trkpt lat="44.90862" lon="6.73638">
        <ele>2344.31</ele>
        <time>2017-11-30T10:31:05Z</time>
      </trkpt>
      <trkpt lat="44.90859" lon="6.73642">
        <ele>2346.23</ele>
        <time>2017-11-30T10:31:19Z</time>
      </trkpt>
      <trkpt lat="44.90855" lon="6.73648">
        <ele>2348.64</ele>
        <time>2017-11-30T10:31:37Z</time>
      </trkpt>
      <trkpt lat="44.90851" lon="6.73656">
        <ele>2350.56</ele>
        <time>2017-11-30T10:31:53Z</time>
      </trkpt>
      <trkpt lat="44.90847" lon="6.73666">
        <ele>2352.96</ele>
        <time>2017-11-30T10:32:10Z</time>
      </trkpt>
      <trkpt lat="44.90844" lon="6.73672">
        <ele>2354.89</ele>
        <time>2017-11-30T10:32:25Z</time>
      </trkpt>
      <trkpt lat="44.90837" lon="6.73679">
        <ele>2356.33</ele>
        <time>2017-11-30T10:32:42Z</time>
      </trkpt>
      <trkpt lat="44.90831" lon="6.73692">
        <ele>2358.25</ele>
        <time>2017-11-30T10:33:00Z</time>
      </trkpt>
      <trkpt lat="44.90829" lon="6.737">
        <ele>2358.73</ele>
        <time>2017-11-30T10:33:14Z</time>
      </trkpt>
      <trkpt lat="44.90825" lon="6.73713">
        <ele>2361.14</ele>
        <time>2017-11-30T10:33:33Z</time>
      </trkpt>
      <trkpt lat="44.90823" lon="6.73722">
        <ele>2363.54</ele>
        <time>2017-11-30T10:33:49Z</time>
      </trkpt>
      <trkpt lat="44.90819" lon="6.73729">
        <ele>2364.98</ele>
        <time>2017-11-30T10:34:05Z</time>
      </trkpt>
      <trkpt lat="44.90815" lon="6.73738">
        <ele>2367.38</ele>
        <time>2017-11-30T10:34:23Z</time>
      </trkpt>
      <trkpt lat="44.90813" lon="6.73742">
        <ele>2369.31</ele>
        <time>2017-11-30T10:34:39Z</time>
      </trkpt>
      <trkpt lat="44.9081" lon="6.73749">
        <ele>2371.71</ele>
        <time>2017-11-30T10:34:55Z</time>
      </trkpt>
      <trkpt lat="44.90805" lon="6.73755">
        <ele>2373.63</ele>
        <time>2017-11-30T10:35:12Z</time>
      </trkpt>
      <trkpt lat="44.90801" lon="6.73764">
        <ele>2375.55</ele>
        <time>2017-11-30T10:35:29Z</time>
      </trkpt>
      <trkpt lat="44.90797" lon="6.73769">
        <ele>2377.48</ele>
        <time>2017-11-30T10:35:45Z</time>
      </trkpt>
      <trkpt lat="44.90792" lon="6.73775">
        <ele>2379.88</ele>
        <time>2017-11-30T10:36:04Z</time>
      </trkpt>
      <trkpt lat="44.9079" lon="6.73779">
        <ele>2381.32</ele>
        <time>2017-11-30T10:36:19Z</time>
      </trkpt>
      <trkpt lat="44.90785" lon="6.73784">
        <ele>2384.21</ele>
        <time>2017-11-30T10:36:35Z</time>
      </trkpt>
      <trkpt lat="44.90783" lon="6.73787">
        <ele>2385.65</ele>
        <time>2017-11-30T10:36:49Z</time>
      </trkpt>
      <trkpt lat="44.90779" lon="6.73791">
        <ele>2387.09</ele>
        <time>2017-11-30T10:37:04Z</time>
      </trkpt>
      <trkpt lat="44.90776" lon="6.73797">
        <ele>2389.49</ele>
        <time>2017-11-30T10:37:20Z</time>
      </trkpt>
      <trkpt lat="44.90772" lon="6.73801">
        <ele>2391.42</ele>
        <time>2017-11-30T10:37:36Z</time>
      </trkpt>
      <trkpt lat="44.90768" lon="6.73808">
        <ele>2393.34</ele>
        <time>2017-11-30T10:37:50Z</time>
      </trkpt>
      <trkpt lat="44.90764" lon="6.73811">
        <ele>2395.74</ele>
        <time>2017-11-30T10:38:05Z</time>
      </trkpt>
      <trkpt lat="44.90758" lon="6.73814">
        <ele>2397.67</ele>
        <time>2017-11-30T10:38:20Z</time>
      </trkpt>
      <trkpt lat="44.90754" lon="6.73817">
        <ele>2399.59</ele>
        <time>2017-11-30T10:38:34Z</time>
      </trkpt>
      <trkpt lat="44.90746" lon="6.73819">
        <ele>2401.03</ele>
        <time>2017-11-30T10:38:49Z</time>
      </trkpt>
      <trkpt lat="44.90741" lon="6.7382">
        <ele>2401.51</ele>
        <time>2017-11-30T10:39:03Z</time>
      </trkpt>
      <trkpt lat="44.90736" lon="6.73825">
        <ele>2401.99</ele>
        <time>2017-11-30T10:39:17Z</time>
      </trkpt>
      <trkpt lat="44.90728" lon="6.73828">
        <ele>2403.43</ele>
        <time>2017-11-30T10:39:31Z</time>
      </trkpt>
      <trkpt lat="44.90718" lon="6.73832">
        <ele>2403.91</ele>
        <time>2017-11-30T10:39:45Z</time>
      </trkpt>
      <trkpt lat="44.90709" lon="6.73835">
        <ele>2404.88</ele>
        <time>2017-11-30T10:40:00Z</time>
      </trkpt>
      <trkpt lat="44.90701" lon="6.73838">
        <ele>2406.8</ele>
        <time>2017-11-30T10:40:15Z</time>
      </trkpt>
      <trkpt lat="44.90693" lon="6.73842">
        <ele>2408.24</ele>
        <time>2017-11-30T10:40:30Z</time>
      </trkpt>
      <trkpt lat="44.90685" lon="6.73847">
        <ele>2411.6</ele>
        <time>2017-11-30T10:40:46Z</time>
      </trkpt>
      <trkpt lat="44.90677" lon="6.73852">
        <ele>2412.09</ele>
        <time>2017-11-30T10:41:00Z</time>
      </trkpt>
      <trkpt lat="44.9067" lon="6.73858">
        <ele>2414.01</ele>
        <time>2017-11-30T10:41:17Z</time>
      </trkpt>
      <trkpt lat="44.90665" lon="6.73863">
        <ele>2416.89</ele>
        <time>2017-11-30T10:41:37Z</time>
      </trkpt>
      <trkpt lat="44.90661" lon="6.73872">
        <ele>2418.81</ele>
        <time>2017-11-30T10:42:01Z</time>
      </trkpt>
      <trkpt lat="44.90658" lon="6.7388">
        <ele>2420.74</ele>
        <time>2017-11-30T10:42:17Z</time>
      </trkpt>
      <trkpt lat="44.90652" lon="6.73886">
        <ele>2422.66</ele>
        <time>2017-11-30T10:42:31Z</time>
      </trkpt>
      <trkpt lat="44.90649" lon="6.73893">
        <ele>2424.1</ele>
        <time>2017-11-30T10:42:48Z</time>
      </trkpt>
      <trkpt lat="44.90646" lon="6.73899">
        <ele>2425.54</ele>
        <time>2017-11-30T10:43:04Z</time>
      </trkpt>
      <trkpt lat="44.90643" lon="6.73905">
        <ele>2427.47</ele>
        <time>2017-11-30T10:43:20Z</time>
      </trkpt>
      <trkpt lat="44.9064" lon="6.7391">
        <ele>2429.87</ele>
        <time>2017-11-30T10:43:36Z</time>
      </trkpt>
      <trkpt lat="44.90638" lon="6.73914">
        <ele>2431.31</ele>
        <time>2017-11-30T10:43:51Z</time>
      </trkpt>
      <trkpt lat="44.90636" lon="6.73919">
        <ele>2433.23</ele>
        <time>2017-11-30T10:44:08Z</time>
      </trkpt>
      <trkpt lat="44.90632" lon="6.73926">
        <ele>2436.12</ele>
        <time>2017-11-30T10:44:25Z</time>
      </trkpt>
      <trkpt lat="44.90629" lon="6.73929">
        <ele>2438.52</ele>
        <time>2017-11-30T10:44:40Z</time>
      </trkpt>
      <trkpt lat="44.90628" lon="6.73931">
        <ele>2441.41</ele>
        <time>2017-11-30T10:44:48Z</time>
      </trkpt>
      <trkpt lat="44.90626" lon="6.73935">
        <ele>2441.41</ele>
        <time>2017-11-30T10:45:02Z</time>
      </trkpt>
      <trkpt lat="44.90623" lon="6.73941">
        <ele>2443.33</ele>
        <time>2017-11-30T10:45:17Z</time>
      </trkpt>
      <trkpt lat="44.90621" lon="6.73947">
        <ele>2445.73</ele>
        <time>2017-11-30T10:45:33Z</time>
      </trkpt>
      <trkpt lat="44.90619" lon="6.73953">
        <ele>2447.65</ele>
        <time>2017-11-30T10:45:48Z</time>
      </trkpt>
      <trkpt lat="44.90615" lon="6.7396">
        <ele>2450.06</ele>
        <time>2017-11-30T10:46:03Z</time>
      </trkpt>
      <trkpt lat="44.90614" lon="6.73964">
        <ele>2452.46</ele>
        <time>2017-11-30T10:46:17Z</time>
      </trkpt>
      <trkpt lat="44.9061" lon="6.73968">
        <ele>2453.42</ele>
        <time>2017-11-30T10:46:31Z</time>
      </trkpt>
      <trkpt lat="44.90606" lon="6.73975">
        <ele>2454.86</ele>
        <time>2017-11-30T10:46:46Z</time>
      </trkpt>
      <trkpt lat="44.90605" lon="6.73977">
        <ele>2456.31</ele>
        <time>2017-11-30T10:46:50Z</time>
      </trkpt>
      <trkpt lat="44.90598" lon="6.73986">
        <ele>2457.27</ele>
        <time>2017-11-30T10:47:08Z</time>
      </trkpt>
      <trkpt lat="44.90592" lon="6.73993">
        <ele>2458.71</ele>
        <time>2017-11-30T10:47:22Z</time>
      </trkpt>
      <trkpt lat="44.90584" lon="6.74001">
        <ele>2460.15</ele>
        <time>2017-11-30T10:47:37Z</time>
      </trkpt>
      <trkpt lat="44.9058" lon="6.74008">
        <ele>2461.11</ele>
        <time>2017-11-30T10:47:50Z</time>
      </trkpt>
      <trkpt lat="44.90575" lon="6.74019">
        <ele>2461.59</ele>
        <time>2017-11-30T10:48:07Z</time>
      </trkpt>
      <trkpt lat="44.9057" lon="6.7403">
        <ele>2463.04</ele>
        <time>2017-11-30T10:48:23Z</time>
      </trkpt>
      <trkpt lat="44.90563" lon="6.74041">
        <ele>2464</ele>
        <time>2017-11-30T10:48:39Z</time>
      </trkpt>
      <trkpt lat="44.9056" lon="6.74049">
        <ele>2467.36</ele>
        <time>2017-11-30T10:48:50Z</time>
      </trkpt>
      <trkpt lat="44.90556" lon="6.74059">
        <ele>2468.32</ele>
        <time>2017-11-30T10:49:07Z</time>
      </trkpt>
      <trkpt lat="44.90553" lon="6.74068">
        <ele>2471.21</ele>
        <time>2017-11-30T10:49:21Z</time>
      </trkpt>
      <trkpt lat="44.90549" lon="6.74078">
        <ele>2473.13</ele>
        <time>2017-11-30T10:49:37Z</time>
      </trkpt>
      <trkpt lat="44.90544" lon="6.74087">
        <ele>2474.09</ele>
        <time>2017-11-30T10:49:51Z</time>
      </trkpt>
      <trkpt lat="44.90541" lon="6.74097">
        <ele>2475.53</ele>
        <time>2017-11-30T10:50:05Z</time>
      </trkpt>
      <trkpt lat="44.90538" lon="6.74111">
        <ele>2477.45</ele>
        <time>2017-11-30T10:50:21Z</time>
      </trkpt>
      <trkpt lat="44.90535" lon="6.74124">
        <ele>2478.9</ele>
        <time>2017-11-30T10:50:37Z</time>
      </trkpt>
      <trkpt lat="44.90533" lon="6.74138">
        <ele>2479.86</ele>
        <time>2017-11-30T10:50:52Z</time>
      </trkpt>
      <trkpt lat="44.90531" lon="6.7415">
        <ele>2482.26</ele>
        <time>2017-11-30T10:51:06Z</time>
      </trkpt>
      <trkpt lat="44.90529" lon="6.74164">
        <ele>2482.74</ele>
        <time>2017-11-30T10:51:20Z</time>
      </trkpt>
      <trkpt lat="44.90528" lon="6.74175">
        <ele>2483.22</ele>
        <time>2017-11-30T10:51:33Z</time>
      </trkpt>
      <trkpt lat="44.90529" lon="6.74188">
        <ele>2483.7</ele>
        <time>2017-11-30T10:51:47Z</time>
      </trkpt>
      <trkpt lat="44.90532" lon="6.74201">
        <ele>2484.66</ele>
        <time>2017-11-30T10:52:01Z</time>
      </trkpt>
      <trkpt lat="44.90536" lon="6.74215">
        <ele>2484.66</ele>
        <time>2017-11-30T10:52:15Z</time>
      </trkpt>
      <trkpt lat="44.90541" lon="6.74228">
        <ele>2485.15</ele>
        <time>2017-11-30T10:52:28Z</time>
      </trkpt>
      <trkpt lat="44.90546" lon="6.74243">
        <ele>2485.15</ele>
        <time>2017-11-30T10:52:42Z</time>
      </trkpt>
      <trkpt lat="44.90551" lon="6.74261">
        <ele>2485.63</ele>
        <time>2017-11-30T10:52:57Z</time>
      </trkpt>
      <trkpt lat="44.90556" lon="6.74278">
        <ele>2485.63</ele>
        <time>2017-11-30T10:53:12Z</time>
      </trkpt>
      <trkpt lat="44.90559" lon="6.74291">
        <ele>2486.59</ele>
        <time>2017-11-30T10:53:25Z</time>
      </trkpt>
      <trkpt lat="44.90562" lon="6.74306">
        <ele>2488.03</ele>
        <time>2017-11-30T10:53:38Z</time>
      </trkpt>
      <trkpt lat="44.90563" lon="6.7431">
        <ele>2488.03</ele>
        <time>2017-11-30T10:53:50Z</time>
      </trkpt>
      <trkpt lat="44.90562" lon="6.74307">
        <ele>2487.07</ele>
        <time>2017-11-30T10:54:10Z</time>
      </trkpt>
      <trkpt lat="44.90561" lon="6.74309">
        <ele>2486.11</ele>
        <time>2017-11-30T10:54:37Z</time>
      </trkpt>
      <trkpt lat="44.90561" lon="6.74309">
        <ele>2486.59</ele>
        <time>2017-11-30T10:55:06Z</time>
      </trkpt>
      <trkpt lat="44.90562" lon="6.74308">
        <ele>2486.59</ele>
        <time>2017-11-30T10:55:44Z</time>
      </trkpt>
      <trkpt lat="44.90562" lon="6.74309">
        <ele>2486.11</ele>
        <time>2017-11-30T10:56:17Z</time>
      </trkpt>
      <trkpt lat="44.90562" lon="6.74308">
        <ele>2485.63</ele>
        <time>2017-11-30T10:56:51Z</time>
      </trkpt>
      <trkpt lat="44.90563" lon="6.74309">
        <ele>2487.07</ele>
        <time>2017-11-30T10:57:10Z</time>
      </trkpt>
      <trkpt lat="44.90563" lon="6.74312">
        <ele>2487.07</ele>
        <time>2017-11-30T10:57:26Z</time>
      </trkpt>
      <trkpt lat="44.90565" lon="6.74322">
        <ele>2488.51</ele>
        <time>2017-11-30T10:57:40Z</time>
      </trkpt>
      <trkpt lat="44.90566" lon="6.74332">
        <ele>2490.43</ele>
        <time>2017-11-30T10:57:55Z</time>
      </trkpt>
      <trkpt lat="44.90564" lon="6.74339">
        <ele>2491.87</ele>
        <time>2017-11-30T10:58:08Z</time>
      </trkpt>
      <trkpt lat="44.90562" lon="6.74352">
        <ele>2492.36</ele>
        <time>2017-11-30T10:58:23Z</time>
      </trkpt>
      <trkpt lat="44.90565" lon="6.74367">
        <ele>2492.84</ele>
        <time>2017-11-30T10:58:38Z</time>
      </trkpt>
      <trkpt lat="44.90567" lon="6.7438">
        <ele>2493.32</ele>
        <time>2017-11-30T10:58:53Z</time>
      </trkpt>
      <trkpt lat="44.9057" lon="6.74395">
        <ele>2493.8</ele>
        <time>2017-11-30T10:59:09Z</time>
      </trkpt>
      <trkpt lat="44.90574" lon="6.74412">
        <ele>2494.76</ele>
        <time>2017-11-30T10:59:27Z</time>
      </trkpt>
      <trkpt lat="44.90578" lon="6.74424">
        <ele>2496.2</ele>
        <time>2017-11-30T10:59:42Z</time>
      </trkpt>
      <trkpt lat="44.9058" lon="6.74432">
        <ele>2497.16</ele>
        <time>2017-11-30T10:59:57Z</time>
      </trkpt>
      <trkpt lat="44.90579" lon="6.74442">
        <ele>2499.57</ele>
        <time>2017-11-30T11:00:14Z</time>
      </trkpt>
      <trkpt lat="44.90578" lon="6.7445">
        <ele>2501.01</ele>
        <time>2017-11-30T11:00:30Z</time>
      </trkpt>
      <trkpt lat="44.90577" lon="6.74455">
        <ele>2501.97</ele>
        <time>2017-11-30T11:00:44Z</time>
      </trkpt>
      <trkpt lat="44.90576" lon="6.74459">
        <ele>2505.33</ele>
        <time>2017-11-30T11:00:57Z</time>
      </trkpt>
      <trkpt lat="44.90573" lon="6.74465">
        <ele>2504.85</ele>
        <time>2017-11-30T11:01:11Z</time>
      </trkpt>
      <trkpt lat="44.90571" lon="6.74475">
        <ele>2506.29</ele>
        <time>2017-11-30T11:01:27Z</time>
      </trkpt>
      <trkpt lat="44.9057" lon="6.74483">
        <ele>2507.74</ele>
        <time>2017-11-30T11:01:45Z</time>
      </trkpt>
      <trkpt lat="44.90568" lon="6.74492">
        <ele>2509.18</ele>
        <time>2017-11-30T11:02:00Z</time>
      </trkpt>
      <trkpt lat="44.90568" lon="6.74501">
        <ele>2511.1</ele>
        <time>2017-11-30T11:02:17Z</time>
      </trkpt>
      <trkpt lat="44.9057" lon="6.74508">
        <ele>2513.02</ele>
        <time>2017-11-30T11:02:32Z</time>
      </trkpt>
      <trkpt lat="44.90572" lon="6.74514">
        <ele>2513.98</ele>
        <time>2017-11-30T11:02:46Z</time>
      </trkpt>
      <trkpt lat="44.90576" lon="6.74517">
        <ele>2516.87</ele>
        <time>2017-11-30T11:02:58Z</time>
      </trkpt>
      <trkpt lat="44.90579" lon="6.74525">
        <ele>2516.39</ele>
        <time>2017-11-30T11:03:13Z</time>
      </trkpt>
      <trkpt lat="44.90581" lon="6.74532">
        <ele>2518.31</ele>
        <time>2017-11-30T11:03:29Z</time>
      </trkpt>
      <trkpt lat="44.90587" lon="6.74535">
        <ele>2519.75</ele>
        <time>2017-11-30T11:03:44Z</time>
      </trkpt>
      <trkpt lat="44.90593" lon="6.74537">
        <ele>2521.19</ele>
        <time>2017-11-30T11:03:59Z</time>
      </trkpt>
      <trkpt lat="44.90597" lon="6.74541">
        <ele>2522.64</ele>
        <time>2017-11-30T11:04:15Z</time>
      </trkpt>
      <trkpt lat="44.90602" lon="6.74548">
        <ele>2524.56</ele>
        <time>2017-11-30T11:04:28Z</time>
      </trkpt>
      <trkpt lat="44.90606" lon="6.74557">
        <ele>2525.04</ele>
        <time>2017-11-30T11:04:44Z</time>
      </trkpt>
      <trkpt lat="44.90611" lon="6.74566">
        <ele>2527.44</ele>
        <time>2017-11-30T11:04:59Z</time>
      </trkpt>
      <trkpt lat="44.90615" lon="6.74575">
        <ele>2526</ele>
        <time>2017-11-30T11:05:13Z</time>
      </trkpt>
      <trkpt lat="44.9062" lon="6.74588">
        <ele>2527.44</ele>
        <time>2017-11-30T11:05:30Z</time>
      </trkpt>
      <trkpt lat="44.90627" lon="6.74601">
        <ele>2527.44</ele>
        <time>2017-11-30T11:05:45Z</time>
      </trkpt>
      <trkpt lat="44.90631" lon="6.74615">
        <ele>2527.92</ele>
        <time>2017-11-30T11:05:59Z</time>
      </trkpt>
      <trkpt lat="44.90634" lon="6.74627">
        <ele>2529.37</ele>
        <time>2017-11-30T11:06:14Z</time>
      </trkpt>
      <trkpt lat="44.90636" lon="6.74639">
        <ele>2531.77</ele>
        <time>2017-11-30T11:06:30Z</time>
      </trkpt>
      <trkpt lat="44.90638" lon="6.7465">
        <ele>2532.73</ele>
        <time>2017-11-30T11:06:46Z</time>
      </trkpt>
      <trkpt lat="44.9064" lon="6.7466">
        <ele>2536.1</ele>
        <time>2017-11-30T11:07:00Z</time>
      </trkpt>
      <trkpt lat="44.90646" lon="6.7467">
        <ele>2536.58</ele>
        <time>2017-11-30T11:07:16Z</time>
      </trkpt>
      <trkpt lat="44.90653" lon="6.74688">
        <ele>2535.61</ele>
        <time>2017-11-30T11:07:33Z</time>
      </trkpt>
      <trkpt lat="44.90657" lon="6.747">
        <ele>2537.06</ele>
        <time>2017-11-30T11:07:52Z</time>
      </trkpt>
      <trkpt lat="44.90663" lon="6.74714">
        <ele>2538.5</ele>
        <time>2017-11-30T11:08:10Z</time>
      </trkpt>
      <trkpt lat="44.90668" lon="6.74725">
        <ele>2540.42</ele>
        <time>2017-11-30T11:08:26Z</time>
      </trkpt>
      <trkpt lat="44.90671" lon="6.74738">
        <ele>2539.94</ele>
        <time>2017-11-30T11:08:39Z</time>
      </trkpt>
      <trkpt lat="44.90675" lon="6.74754">
        <ele>2539.94</ele>
        <time>2017-11-30T11:08:56Z</time>
      </trkpt>
      <trkpt lat="44.90679" lon="6.74767">
        <ele>2540.9</ele>
        <time>2017-11-30T11:09:11Z</time>
      </trkpt>
      <trkpt lat="44.90681" lon="6.74777">
        <ele>2542.34</ele>
        <time>2017-11-30T11:09:25Z</time>
      </trkpt>
      <trkpt lat="44.90683" lon="6.74786">
        <ele>2544.27</ele>
        <time>2017-11-30T11:09:40Z</time>
      </trkpt>
      <trkpt lat="44.90685" lon="6.748">
        <ele>2545.23</ele>
        <time>2017-11-30T11:09:57Z</time>
      </trkpt>
      <trkpt lat="44.90687" lon="6.74809">
        <ele>2547.63</ele>
        <time>2017-11-30T11:10:14Z</time>
      </trkpt>
      <trkpt lat="44.90687" lon="6.7482">
        <ele>2549.55</ele>
        <time>2017-11-30T11:10:33Z</time>
      </trkpt>
      <trkpt lat="44.9069" lon="6.74825">
        <ele>2551.48</ele>
        <time>2017-11-30T11:10:51Z</time>
      </trkpt>
      <trkpt lat="44.9069" lon="6.74834">
        <ele>2552.44</ele>
        <time>2017-11-30T11:11:07Z</time>
      </trkpt>
      <trkpt lat="44.9069" lon="6.74842">
        <ele>2554.36</ele>
        <time>2017-11-30T11:11:23Z</time>
      </trkpt>
      <trkpt lat="44.9069" lon="6.74851">
        <ele>2555.32</ele>
        <time>2017-11-30T11:11:39Z</time>
      </trkpt>
      <trkpt lat="44.90689" lon="6.74858">
        <ele>2558.21</ele>
        <time>2017-11-30T11:11:57Z</time>
      </trkpt>
      <trkpt lat="44.90685" lon="6.74859">
        <ele>2559.65</ele>
        <time>2017-11-30T11:12:13Z</time>
      </trkpt>
      <trkpt lat="44.9068" lon="6.7486">
        <ele>2561.09</ele>
        <time>2017-11-30T11:12:29Z</time>
      </trkpt>
      <trkpt lat="44.90675" lon="6.74861">
        <ele>2562.53</ele>
        <time>2017-11-30T11:12:44Z</time>
      </trkpt>
      <trkpt lat="44.90675" lon="6.74867">
        <ele>2564.45</ele>
        <time>2017-11-30T11:12:58Z</time>
      </trkpt>
      <trkpt lat="44.90676" lon="6.74874">
        <ele>2565.42</ele>
        <time>2017-11-30T11:13:14Z</time>
      </trkpt>
      <trkpt lat="44.90677" lon="6.7488">
        <ele>2566.86</ele>
        <time>2017-11-30T11:13:30Z</time>
      </trkpt>
      <trkpt lat="44.90673" lon="6.74883">
        <ele>2569.74</ele>
        <time>2017-11-30T11:13:46Z</time>
      </trkpt>
      <trkpt lat="44.90671" lon="6.74889">
        <ele>2570.22</ele>
        <time>2017-11-30T11:14:01Z</time>
      </trkpt>
      <trkpt lat="44.90673" lon="6.74894">
        <ele>2572.14</ele>
        <time>2017-11-30T11:14:15Z</time>
      </trkpt>
      <trkpt lat="44.90671" lon="6.74897">
        <ele>2573.11</ele>
        <time>2017-11-30T11:14:28Z</time>
      </trkpt>
      <trkpt lat="44.90666" lon="6.74899">
        <ele>2575.03</ele>
        <time>2017-11-30T11:14:44Z</time>
      </trkpt>
      <trkpt lat="44.90665" lon="6.74905">
        <ele>2576.95</ele>
        <time>2017-11-30T11:14:58Z</time>
      </trkpt>
      <trkpt lat="44.90665" lon="6.74911">
        <ele>2578.39</ele>
        <time>2017-11-30T11:15:13Z</time>
      </trkpt>
      <trkpt lat="44.90663" lon="6.74917">
        <ele>2579.84</ele>
        <time>2017-11-30T11:15:29Z</time>
      </trkpt>
      <trkpt lat="44.90664" lon="6.74926">
        <ele>2580.8</ele>
        <time>2017-11-30T11:15:44Z</time>
      </trkpt>
      <trkpt lat="44.90664" lon="6.74934">
        <ele>2582.24</ele>
        <time>2017-11-30T11:16:00Z</time>
      </trkpt>
      <trkpt lat="44.90664" lon="6.74945">
        <ele>2583.68</ele>
        <time>2017-11-30T11:16:17Z</time>
      </trkpt>
      <trkpt lat="44.90664" lon="6.74953">
        <ele>2585.12</ele>
        <time>2017-11-30T11:16:32Z</time>
      </trkpt>
      <trkpt lat="44.90666" lon="6.74963">
        <ele>2587.53</ele>
        <time>2017-11-30T11:16:49Z</time>
      </trkpt>
      <trkpt lat="44.90668" lon="6.74972">
        <ele>2589.93</ele>
        <time>2017-11-30T11:17:07Z</time>
      </trkpt>
      <trkpt lat="44.90672" lon="6.74979">
        <ele>2590.89</ele>
        <time>2017-11-30T11:17:20Z</time>
      </trkpt>
      <trkpt lat="44.90674" lon="6.74983">
        <ele>2590.89</ele>
        <time>2017-11-30T11:17:38Z</time>
      </trkpt>
      <trkpt lat="44.90675" lon="6.74993">
        <ele>2591.37</ele>
        <time>2017-11-30T11:17:52Z</time>
      </trkpt>
      <trkpt lat="44.9067" lon="6.75001">
        <ele>2591.37</ele>
        <time>2017-11-30T11:18:04Z</time>
      </trkpt>
      <trkpt lat="44.90667" lon="6.75007">
        <ele>2592.81</ele>
        <time>2017-11-30T11:18:16Z</time>
      </trkpt>
      <trkpt lat="44.9066" lon="6.75011">
        <ele>2594.74</ele>
        <time>2017-11-30T11:18:38Z</time>
      </trkpt>
      <trkpt lat="44.90655" lon="6.75009">
        <ele>2594.25</ele>
        <time>2017-11-30T11:18:53Z</time>
      </trkpt>
      <trkpt lat="44.90649" lon="6.75008">
        <ele>2595.22</ele>
        <time>2017-11-30T11:19:07Z</time>
      </trkpt>
      <trkpt lat="44.90645" lon="6.75008">
        <ele>2596.18</ele>
        <time>2017-11-30T11:19:22Z</time>
      </trkpt>
      <trkpt lat="44.90641" lon="6.75007">
        <ele>2597.14</ele>
        <time>2017-11-30T11:19:37Z</time>
      </trkpt>
      <trkpt lat="44.9064" lon="6.75006">
        <ele>2597.14</ele>
        <time>2017-11-30T11:19:49Z</time>
      </trkpt>
      <trkpt lat="44.90636" lon="6.75007">
        <ele>2598.58</ele>
        <time>2017-11-30T11:20:05Z</time>
      </trkpt>
      <trkpt lat="44.90632" lon="6.75006">
        <ele>2598.58</ele>
        <time>2017-11-30T11:20:21Z</time>
      </trkpt>
      <trkpt lat="44.90628" lon="6.75004">
        <ele>2600.02</ele>
        <time>2017-11-30T11:20:35Z</time>
      </trkpt>
      <trkpt lat="44.9063" lon="6.75005">
        <ele>2599.54</ele>
        <time>2017-11-30T11:20:57Z</time>
      </trkpt>
      <trkpt lat="44.90629" lon="6.75004">
        <ele>2599.06</ele>
        <time>2017-11-30T11:21:14Z</time>
      </trkpt>
      <trkpt lat="44.90629" lon="6.75004">
        <ele>2599.54</ele>
        <time>2017-11-30T11:21:27Z</time>
      </trkpt>
      <trkpt lat="44.90631" lon="6.75008">
        <ele>2599.54</ele>
        <time>2017-11-30T11:21:44Z</time>
      </trkpt>
      <trkpt lat="44.9063" lon="6.75006">
        <ele>2598.58</ele>
        <time>2017-11-30T11:22:01Z</time>
      </trkpt>
      <trkpt lat="44.9063" lon="6.75007">
        <ele>2599.06</ele>
        <time>2017-11-30T11:22:34Z</time>
      </trkpt>
      <trkpt lat="44.90632" lon="6.75009">
        <ele>2598.58</ele>
        <time>2017-11-30T11:23:07Z</time>
      </trkpt>
      <trkpt lat="44.9063" lon="6.75007">
        <ele>2598.58</ele>
        <time>2017-11-30T11:23:38Z</time>
      </trkpt>
      <trkpt lat="44.90626" lon="6.75008">
        <ele>2599.06</ele>
        <time>2017-11-30T11:24:21Z</time>
      </trkpt>
      <trkpt lat="44.90626" lon="6.75006">
        <ele>2599.54</ele>
        <time>2017-11-30T11:24:59Z</time>
      </trkpt>
      <trkpt lat="44.90626" lon="6.75007">
        <ele>2600.02</ele>
        <time>2017-11-30T11:25:36Z</time>
      </trkpt>
      <trkpt lat="44.90628" lon="6.75007">
        <ele>2600.02</ele>
        <time>2017-11-30T11:26:12Z</time>
      </trkpt>
      <trkpt lat="44.90629" lon="6.75008">
        <ele>2599.54</ele>
        <time>2017-11-30T11:26:47Z</time>
      </trkpt>
      <trkpt lat="44.90627" lon="6.75009">
        <ele>2600.98</ele>
        <time>2017-11-30T11:27:14Z</time>
      </trkpt>
      <trkpt lat="44.90627" lon="6.75008">
        <ele>2600.5</ele>
        <time>2017-11-30T11:27:40Z</time>
      </trkpt>
      <trkpt lat="44.90632" lon="6.75007">
        <ele>2600.02</ele>
        <time>2017-11-30T11:28:08Z</time>
      </trkpt>
      <trkpt lat="44.90632" lon="6.75004">
        <ele>2600.98</ele>
        <time>2017-11-30T11:28:38Z</time>
      </trkpt>
      <trkpt lat="44.90633" lon="6.75006">
        <ele>2600.98</ele>
        <time>2017-11-30T11:29:11Z</time>
      </trkpt>
      <trkpt lat="44.90633" lon="6.75006">
        <ele>2600.98</ele>
        <time>2017-11-30T11:29:42Z</time>
      </trkpt>
      <trkpt lat="44.90633" lon="6.75006">
        <ele>2600.5</ele>
        <time>2017-11-30T11:30:13Z</time>
      </trkpt>
      <trkpt lat="44.90634" lon="6.75003">
        <ele>2601.46</ele>
        <time>2017-11-30T11:30:37Z</time>
      </trkpt>
      <trkpt lat="44.90635" lon="6.75001">
        <ele>2600.98</ele>
        <time>2017-11-30T11:31:14Z</time>
      </trkpt>
      <trkpt lat="44.90636" lon="6.75002">
        <ele>2600.98</ele>
        <time>2017-11-30T11:31:52Z</time>
      </trkpt>
      <trkpt lat="44.90634" lon="6.75007">
        <ele>2600.98</ele>
        <time>2017-11-30T11:32:22Z</time>
      </trkpt>
      <trkpt lat="44.90632" lon="6.75008">
        <ele>2601.95</ele>
        <time>2017-11-30T11:32:56Z</time>
      </trkpt>
      <trkpt lat="44.90633" lon="6.75009">
        <ele>2601.46</ele>
        <time>2017-11-30T11:33:28Z</time>
      </trkpt>
      <trkpt lat="44.90631" lon="6.75009">
        <ele>2601.46</ele>
        <time>2017-11-30T11:34:06Z</time>
      </trkpt>
      <trkpt lat="44.90629" lon="6.75008">
        <ele>2603.39</ele>
        <time>2017-11-30T11:34:26Z</time>
      </trkpt>
      <trkpt lat="44.90628" lon="6.75007">
        <ele>2603.39</ele>
        <time>2017-11-30T11:34:43Z</time>
      </trkpt>
      <trkpt lat="44.90625" lon="6.75004">
        <ele>2604.35</ele>
        <time>2017-11-30T11:34:57Z</time>
      </trkpt>
      <trkpt lat="44.90618" lon="6.75003">
        <ele>2605.31</ele>
        <time>2017-11-30T11:35:14Z</time>
      </trkpt>
      <trkpt lat="44.90614" lon="6.75002">
        <ele>2606.27</ele>
        <time>2017-11-30T11:35:27Z</time>
      </trkpt>
      <trkpt lat="44.9061" lon="6.75003">
        <ele>2607.23</ele>
        <time>2017-11-30T11:35:38Z</time>
      </trkpt>
      <trkpt lat="44.90606" lon="6.75003">
        <ele>2608.19</ele>
        <time>2017-11-30T11:35:53Z</time>
      </trkpt>
      <trkpt lat="44.90602" lon="6.75005">
        <ele>2610.6</ele>
        <time>2017-11-30T11:36:08Z</time>
      </trkpt>
      <trkpt lat="44.90599" lon="6.75007">
        <ele>2611.08</ele>
        <time>2017-11-30T11:36:21Z</time>
      </trkpt>
      <trkpt lat="44.90595" lon="6.75008">
        <ele>2613</ele>
        <time>2017-11-30T11:36:35Z</time>
      </trkpt>
      <trkpt lat="44.90594" lon="6.75013">
        <ele>2613.48</ele>
        <time>2017-11-30T11:36:52Z</time>
      </trkpt>
      <trkpt lat="44.90594" lon="6.75016">
        <ele>2614.44</ele>
        <time>2017-11-30T11:37:07Z</time>
      </trkpt>
      <trkpt lat="44.90595" lon="6.7502">
        <ele>2614.92</ele>
        <time>2017-11-30T11:37:25Z</time>
      </trkpt>
      <trkpt lat="44.90595" lon="6.75023">
        <ele>2616.85</ele>
        <time>2017-11-30T11:37:38Z</time>
      </trkpt>
      <trkpt lat="44.90596" lon="6.75026">
        <ele>2617.81</ele>
        <time>2017-11-30T11:37:50Z</time>
      </trkpt>
      <trkpt lat="44.90596" lon="6.7503">
        <ele>2618.77</ele>
        <time>2017-11-30T11:38:03Z</time>
      </trkpt>
      <trkpt lat="44.906" lon="6.75031">
        <ele>2620.21</ele>
        <time>2017-11-30T11:38:17Z</time>
      </trkpt>
      <trkpt lat="44.90599" lon="6.75034">
        <ele>2621.17</ele>
        <time>2017-11-30T11:38:29Z</time>
      </trkpt>
      <trkpt lat="44.906" lon="6.75035">
        <ele>2622.13</ele>
        <time>2017-11-30T11:38:44Z</time>
      </trkpt>
      <trkpt lat="44.906" lon="6.75039">
        <ele>2624.06</ele>
        <time>2017-11-30T11:39:00Z</time>
      </trkpt>
      <trkpt lat="44.90603" lon="6.75041">
        <ele>2626.46</ele>
        <time>2017-11-30T11:39:16Z</time>
      </trkpt>
      <trkpt lat="44.90604" lon="6.75043">
        <ele>2626.94</ele>
        <time>2017-11-30T11:39:31Z</time>
      </trkpt>
      <trkpt lat="44.90603" lon="6.75044">
        <ele>2628.86</ele>
        <time>2017-11-30T11:39:46Z</time>
      </trkpt>
      <trkpt lat="44.90604" lon="6.75047">
        <ele>2629.82</ele>
        <time>2017-11-30T11:40:00Z</time>
      </trkpt>
      <trkpt lat="44.90604" lon="6.7505">
        <ele>2630.3</ele>
        <time>2017-11-30T11:40:14Z</time>
      </trkpt>
      <trkpt lat="44.90602" lon="6.75054">
        <ele>2632.71</ele>
        <time>2017-11-30T11:40:27Z</time>
      </trkpt>
      <trkpt lat="44.90603" lon="6.75056">
        <ele>2633.19</ele>
        <time>2017-11-30T11:40:42Z</time>
      </trkpt>
      <trkpt lat="44.90602" lon="6.7506">
        <ele>2634.15</ele>
        <time>2017-11-30T11:40:56Z</time>
      </trkpt>
      <trkpt lat="44.90601" lon="6.75061">
        <ele>2635.59</ele>
        <time>2017-11-30T11:41:02Z</time>
      </trkpt>
      <trkpt lat="44.90599" lon="6.75064">
        <ele>2639.92</ele>
        <time>2017-11-30T11:41:10Z</time>
      </trkpt>
      <trkpt lat="44.90599" lon="6.75065">
        <ele>2637.51</ele>
        <time>2017-11-30T11:41:11Z</time>
      </trkpt>
      <trkpt lat="44.90598" lon="6.75073">
        <ele>2637.03</ele>
        <time>2017-11-30T11:41:28Z</time>
      </trkpt>
      <trkpt lat="44.906" lon="6.75081">
        <ele>2637.99</ele>
        <time>2017-11-30T11:41:44Z</time>
      </trkpt>
      <trkpt lat="44.90598" lon="6.75087">
        <ele>2636.55</ele>
        <time>2017-11-30T11:41:55Z</time>
      </trkpt>
      <trkpt lat="44.90598" lon="6.75085">
        <ele>2636.55</ele>
        <time>2017-11-30T11:42:12Z</time>
      </trkpt>
      <trkpt lat="44.90597" lon="6.75085">
        <ele>2636.07</ele>
        <time>2017-11-30T11:42:35Z</time>
      </trkpt>
      <trkpt lat="44.90598" lon="6.75085">
        <ele>2637.51</ele>
        <time>2017-11-30T11:43:11Z</time>
      </trkpt>
      <trkpt lat="44.90597" lon="6.75085">
        <ele>2636.07</ele>
        <time>2017-11-30T11:43:48Z</time>
      </trkpt>
      <trkpt lat="44.90598" lon="6.75086">
        <ele>2636.55</ele>
        <time>2017-11-30T11:44:11Z</time>
      </trkpt>
      <trkpt lat="44.90597" lon="6.75088">
        <ele>2637.99</ele>
        <time>2017-11-30T11:44:25Z</time>
      </trkpt>
      <trkpt lat="44.90596" lon="6.75088">
        <ele>2637.03</ele>
        <time>2017-11-30T11:44:32Z</time>
      </trkpt>
      <trkpt lat="44.90595" lon="6.75093">
        <ele>2639.44</ele>
        <time>2017-11-30T11:44:49Z</time>
      </trkpt>
      <trkpt lat="44.90591" lon="6.75095">
        <ele>2639.44</ele>
        <time>2017-11-30T11:45:01Z</time>
      </trkpt>
      <trkpt lat="44.90587" lon="6.75096">
        <ele>2639.92</ele>
        <time>2017-11-30T11:45:10Z</time>
      </trkpt>
      <trkpt lat="44.90584" lon="6.75095">
        <ele>2641.36</ele>
        <time>2017-11-30T11:45:21Z</time>
      </trkpt>
      <trkpt lat="44.90583" lon="6.75098">
        <ele>2641.36</ele>
        <time>2017-11-30T11:45:40Z</time>
      </trkpt>
      <trkpt lat="44.90582" lon="6.75102">
        <ele>2642.8</ele>
        <time>2017-11-30T11:45:52Z</time>
      </trkpt>
      <trkpt lat="44.90582" lon="6.75105">
        <ele>2643.76</ele>
        <time>2017-11-30T11:46:07Z</time>
      </trkpt>
      <trkpt lat="44.9058" lon="6.75106">
        <ele>2644.72</ele>
        <time>2017-11-30T11:46:30Z</time>
      </trkpt>
      <trkpt lat="44.90579" lon="6.75121">
        <ele>2644.24</ele>
        <time>2017-11-30T11:46:47Z</time>
      </trkpt>
      <trkpt lat="44.90577" lon="6.75126">
        <ele>2645.69</ele>
        <time>2017-11-30T11:46:59Z</time>
      </trkpt>
      <trkpt lat="44.90578" lon="6.75129">
        <ele>2645.21</ele>
        <time>2017-11-30T11:47:17Z</time>
      </trkpt>
      <trkpt lat="44.90575" lon="6.7513">
        <ele>2646.17</ele>
        <time>2017-11-30T11:47:31Z</time>
      </trkpt>
      <trkpt lat="44.90575" lon="6.75133">
        <ele>2650.01</ele>
        <time>2017-11-30T11:47:40Z</time>
      </trkpt>
      <trkpt lat="44.90572" lon="6.75137">
        <ele>2649.05</ele>
        <time>2017-11-30T11:47:51Z</time>
      </trkpt>
      <trkpt lat="44.90567" lon="6.75141">
        <ele>2650.49</ele>
        <time>2017-11-30T11:48:06Z</time>
      </trkpt>
      <trkpt lat="44.90562" lon="6.75145">
        <ele>2652.42</ele>
        <time>2017-11-30T11:48:26Z</time>
      </trkpt>
      <trkpt lat="44.9056" lon="6.75149">
        <ele>2651.93</ele>
        <time>2017-11-30T11:48:43Z</time>
      </trkpt>
      <trkpt lat="44.90558" lon="6.75157">
        <ele>2652.42</ele>
        <time>2017-11-30T11:48:57Z</time>
      </trkpt>
      <trkpt lat="44.90557" lon="6.75165">
        <ele>2650.49</ele>
        <time>2017-11-30T11:49:13Z</time>
      </trkpt>
      <trkpt lat="44.90556" lon="6.75172">
        <ele>2651.45</ele>
        <time>2017-11-30T11:49:24Z</time>
      </trkpt>
      <trkpt lat="44.90556" lon="6.75183">
        <ele>2650.49</ele>
        <time>2017-11-30T11:49:38Z</time>
      </trkpt>
      <trkpt lat="44.90554" lon="6.75192">
        <ele>2648.57</ele>
        <time>2017-11-30T11:49:54Z</time>
      </trkpt>
      <trkpt lat="44.90554" lon="6.752">
        <ele>2649.53</ele>
        <time>2017-11-30T11:50:09Z</time>
      </trkpt>
      <trkpt lat="44.90551" lon="6.75208">
        <ele>2652.42</ele>
        <time>2017-11-30T11:50:22Z</time>
      </trkpt>
      <trkpt lat="44.90553" lon="6.75212">
        <ele>2653.86</ele>
        <time>2017-11-30T11:50:38Z</time>
      </trkpt>
      <trkpt lat="44.90553" lon="6.75215">
        <ele>2653.38</ele>
        <time>2017-11-30T11:50:54Z</time>
      </trkpt>
      <trkpt lat="44.90553" lon="6.75217">
        <ele>2653.86</ele>
        <time>2017-11-30T11:51:10Z</time>
      </trkpt>
      <trkpt lat="44.90555" lon="6.75221">
        <ele>2654.34</ele>
        <time>2017-11-30T11:51:24Z</time>
      </trkpt>
      <trkpt lat="44.90558" lon="6.75225">
        <ele>2655.3</ele>
        <time>2017-11-30T11:51:39Z</time>
      </trkpt>
      <trkpt lat="44.90558" lon="6.75228">
        <ele>2654.82</ele>
        <time>2017-11-30T11:51:52Z</time>
      </trkpt>
      <trkpt lat="44.90558" lon="6.75226">
        <ele>2654.34</ele>
        <time>2017-11-30T11:52:18Z</time>
      </trkpt>
      <trkpt lat="44.90559" lon="6.75228">
        <ele>2654.82</ele>
        <time>2017-11-30T11:52:34Z</time>
      </trkpt>
      <trkpt lat="44.90559" lon="6.75229">
        <ele>2654.82</ele>
        <time>2017-11-30T11:53:00Z</time>
      </trkpt>
      <trkpt lat="44.90558" lon="6.75229">
        <ele>2654.82</ele>
        <time>2017-11-30T11:53:18Z</time>
      </trkpt>
      <trkpt lat="44.90559" lon="6.75228">
        <ele>2654.82</ele>
        <time>2017-11-30T11:53:37Z</time>
      </trkpt>
      <trkpt lat="44.90558" lon="6.75229">
        <ele>2654.82</ele>
        <time>2017-11-30T11:53:56Z</time>
      </trkpt>
      <trkpt lat="44.90558" lon="6.75228">
        <ele>2654.34</ele>
        <time>2017-11-30T11:54:12Z</time>
      </trkpt>
      <trkpt lat="44.90559" lon="6.75229">
        <ele>2654.34</ele>
        <time>2017-11-30T11:54:34Z</time>
      </trkpt>
      <trkpt lat="44.90559" lon="6.75229">
        <ele>2654.34</ele>
        <time>2017-11-30T11:54:55Z</time>
      </trkpt>
      <trkpt lat="44.90558" lon="6.75229">
        <ele>2654.34</ele>
        <time>2017-11-30T11:55:26Z</time>
      </trkpt>
      <trkpt lat="44.90558" lon="6.75228">
        <ele>2653.86</ele>
        <time>2017-11-30T11:55:44Z</time>
      </trkpt>
      <trkpt lat="44.90559" lon="6.75229">
        <ele>2653.38</ele>
        <time>2017-11-30T11:56:04Z</time>
      </trkpt>
      <trkpt lat="44.9056" lon="6.75229">
        <ele>2652.9</ele>
        <time>2017-11-30T11:56:25Z</time>
      </trkpt>
      <trkpt lat="44.90558" lon="6.75225">
        <ele>2651.93</ele>
        <time>2017-11-30T11:56:41Z</time>
      </trkpt>
      <trkpt lat="44.90558" lon="6.75226">
        <ele>2651.93</ele>
        <time>2017-11-30T11:57:04Z</time>
      </trkpt>
      <trkpt lat="44.90558" lon="6.75225">
        <ele>2651.45</ele>
        <time>2017-11-30T11:57:22Z</time>
      </trkpt>
      <trkpt lat="44.90559" lon="6.75224">
        <ele>2651.45</ele>
        <time>2017-11-30T11:57:53Z</time>
      </trkpt>
      <trkpt lat="44.90557" lon="6.75225">
        <ele>2651.93</ele>
        <time>2017-11-30T11:58:08Z</time>
      </trkpt>
      <trkpt lat="44.90556" lon="6.75224">
        <ele>2650.97</ele>
        <time>2017-11-30T11:58:31Z</time>
      </trkpt>
      <trkpt lat="44.90553" lon="6.75221">
        <ele>2649.53</ele>
        <time>2017-11-30T11:58:39Z</time>
      </trkpt>
      <trkpt lat="44.90553" lon="6.75218">
        <ele>2649.53</ele>
        <time>2017-11-30T11:58:56Z</time>
      </trkpt>
      <trkpt lat="44.9055" lon="6.75215">
        <ele>2648.09</ele>
        <time>2017-11-30T11:59:09Z</time>
      </trkpt>
      <trkpt lat="44.9055" lon="6.75209">
        <ele>2646.65</ele>
        <time>2017-11-30T11:59:23Z</time>
      </trkpt>
      <trkpt lat="44.9055" lon="6.75203">
        <ele>2645.21</ele>
        <time>2017-11-30T11:59:40Z</time>
      </trkpt>
      <trkpt lat="44.90552" lon="6.75192">
        <ele>2642.8</ele>
        <time>2017-11-30T11:59:53Z</time>
      </trkpt>
      <trkpt lat="44.90552" lon="6.7519">
        <ele>2643.28</ele>
        <time>2017-11-30T11:59:55Z</time>
      </trkpt>
      <trkpt lat="44.90555" lon="6.75181">
        <ele>2644.72</ele>
        <time>2017-11-30T12:00:09Z</time>
      </trkpt>
      <trkpt lat="44.90555" lon="6.75172">
        <ele>2644.72</ele>
        <time>2017-11-30T12:00:24Z</time>
      </trkpt>
      <trkpt lat="44.90557" lon="6.75158">
        <ele>2644.72</ele>
        <time>2017-11-30T12:00:40Z</time>
      </trkpt>
      <trkpt lat="44.9056" lon="6.75152">
        <ele>2645.69</ele>
        <time>2017-11-30T12:00:56Z</time>
      </trkpt>
      <trkpt lat="44.90561" lon="6.75146">
        <ele>2645.69</ele>
        <time>2017-11-30T12:01:11Z</time>
      </trkpt>
      <trkpt lat="44.90561" lon="6.75144">
        <ele>2646.17</ele>
        <time>2017-11-30T12:01:29Z</time>
      </trkpt>
      <trkpt lat="44.90564" lon="6.75142">
        <ele>2645.69</ele>
        <time>2017-11-30T12:01:49Z</time>
      </trkpt>
      <trkpt lat="44.90568" lon="6.7514">
        <ele>2644.24</ele>
        <time>2017-11-30T12:02:04Z</time>
      </trkpt>
      <trkpt lat="44.90571" lon="6.75137">
        <ele>2642.8</ele>
        <time>2017-11-30T12:02:18Z</time>
      </trkpt>
      <trkpt lat="44.90572" lon="6.75134">
        <ele>2644.72</ele>
        <time>2017-11-30T12:02:34Z</time>
      </trkpt>
      <trkpt lat="44.90573" lon="6.75132">
        <ele>2639.92</ele>
        <time>2017-11-30T12:02:43Z</time>
      </trkpt>
      <trkpt lat="44.90576" lon="6.75125">
        <ele>2638.96</ele>
        <time>2017-11-30T12:02:53Z</time>
      </trkpt>
      <trkpt lat="44.90578" lon="6.75117">
        <ele>2637.99</ele>
        <time>2017-11-30T12:03:06Z</time>
      </trkpt>
      <trkpt lat="44.90579" lon="6.75114">
        <ele>2637.99</ele>
        <time>2017-11-30T12:03:17Z</time>
      </trkpt>
      <trkpt lat="44.9058" lon="6.75116">
        <ele>2637.51</ele>
        <time>2017-11-30T12:03:26Z</time>
      </trkpt>
      <trkpt lat="44.90581" lon="6.75117">
        <ele>2637.51</ele>
        <time>2017-11-30T12:03:48Z</time>
      </trkpt>
      <trkpt lat="44.90582" lon="6.75114">
        <ele>2637.51</ele>
        <time>2017-11-30T12:04:18Z</time>
      </trkpt>
      <trkpt lat="44.9058" lon="6.75112">
        <ele>2638.48</ele>
        <time>2017-11-30T12:04:35Z</time>
      </trkpt>
      <trkpt lat="44.90579" lon="6.75106">
        <ele>2638.48</ele>
        <time>2017-11-30T12:04:50Z</time>
      </trkpt>
      <trkpt lat="44.90581" lon="6.75099">
        <ele>2636.55</ele>
        <time>2017-11-30T12:05:05Z</time>
      </trkpt>
      <trkpt lat="44.90587" lon="6.75096">
        <ele>2634.15</ele>
        <time>2017-11-30T12:05:20Z</time>
      </trkpt>
      <trkpt lat="44.90595" lon="6.75094">
        <ele>2635.11</ele>
        <time>2017-11-30T12:05:33Z</time>
      </trkpt>
      <trkpt lat="44.90595" lon="6.75093">
        <ele>2634.15</ele>
        <time>2017-11-30T12:05:38Z</time>
      </trkpt>
      <trkpt lat="44.90595" lon="6.75091">
        <ele>2632.23</ele>
        <time>2017-11-30T12:05:43Z</time>
      </trkpt>
      <trkpt lat="44.90596" lon="6.75089">
        <ele>2633.67</ele>
        <time>2017-11-30T12:05:45Z</time>
      </trkpt>
      <trkpt lat="44.90597" lon="6.75088">
        <ele>2632.23</ele>
        <time>2017-11-30T12:05:48Z</time>
      </trkpt>
      <trkpt lat="44.90597" lon="6.75076">
        <ele>2633.67</ele>
        <time>2017-11-30T12:06:02Z</time>
      </trkpt>
      <trkpt lat="44.90598" lon="6.75066">
        <ele>2632.71</ele>
        <time>2017-11-30T12:06:15Z</time>
      </trkpt>
      <trkpt lat="44.90598" lon="6.75064">
        <ele>2629.82</ele>
        <time>2017-11-30T12:06:18Z</time>
      </trkpt>
      <trkpt lat="44.90598" lon="6.75063">
        <ele>2630.3</ele>
        <time>2017-11-30T12:06:19Z</time>
      </trkpt>
      <trkpt lat="44.90601" lon="6.75061">
        <ele>2630.3</ele>
        <time>2017-11-30T12:06:38Z</time>
      </trkpt>
      <trkpt lat="44.90605" lon="6.75053">
        <ele>2628.38</ele>
        <time>2017-11-30T12:06:52Z</time>
      </trkpt>
      <trkpt lat="44.90603" lon="6.75049">
        <ele>2625.98</ele>
        <time>2017-11-30T12:07:02Z</time>
      </trkpt>
      <trkpt lat="44.90603" lon="6.75047">
        <ele>2626.46</ele>
        <time>2017-11-30T12:07:14Z</time>
      </trkpt>
      <trkpt lat="44.90602" lon="6.75046">
        <ele>2625.5</ele>
        <time>2017-11-30T12:07:23Z</time>
      </trkpt>
      <trkpt lat="44.90603" lon="6.75047">
        <ele>2629.34</ele>
        <time>2017-11-30T12:07:25Z</time>
      </trkpt>
      <trkpt lat="44.90603" lon="6.75046">
        <ele>2625.5</ele>
        <time>2017-11-30T12:07:28Z</time>
      </trkpt>
      <trkpt lat="44.90603" lon="6.75045">
        <ele>2624.54</ele>
        <time>2017-11-30T12:07:30Z</time>
      </trkpt>
      <trkpt lat="44.906" lon="6.75042">
        <ele>2620.69</ele>
        <time>2017-11-30T12:07:39Z</time>
      </trkpt>
      <trkpt lat="44.90601" lon="6.7504">
        <ele>2619.73</ele>
        <time>2017-11-30T12:07:44Z</time>
      </trkpt>
      <trkpt lat="44.90599" lon="6.75035">
        <ele>2616.37</ele>
        <time>2017-11-30T12:07:52Z</time>
      </trkpt>
      <trkpt lat="44.90599" lon="6.75032">
        <ele>2615.88</ele>
        <time>2017-11-30T12:07:57Z</time>
      </trkpt>
      <trkpt lat="44.90597" lon="6.75025">
        <ele>2612.04</ele>
        <time>2017-11-30T12:08:09Z</time>
      </trkpt>
      <trkpt lat="44.90597" lon="6.75024">
        <ele>2612.04</ele>
        <time>2017-11-30T12:08:10Z</time>
      </trkpt>
      <trkpt lat="44.90594" lon="6.75017">
        <ele>2608.67</ele>
        <time>2017-11-30T12:08:22Z</time>
      </trkpt>
      <trkpt lat="44.90593" lon="6.75012">
        <ele>2606.75</ele>
        <time>2017-11-30T12:08:34Z</time>
      </trkpt>
      <trkpt lat="44.90594" lon="6.75008">
        <ele>2606.27</ele>
        <time>2017-11-30T12:08:47Z</time>
      </trkpt>
      <trkpt lat="44.90594" lon="6.75011">
        <ele>2605.79</ele>
        <time>2017-11-30T12:09:05Z</time>
      </trkpt>
      <trkpt lat="44.90592" lon="6.75011">
        <ele>2606.27</ele>
        <time>2017-11-30T12:09:35Z</time>
      </trkpt>
      <trkpt lat="44.90592" lon="6.75011">
        <ele>2606.75</ele>
        <time>2017-11-30T12:09:54Z</time>
      </trkpt>
      <trkpt lat="44.906" lon="6.75006">
        <ele>2604.83</ele>
        <time>2017-11-30T12:10:08Z</time>
      </trkpt>
      <trkpt lat="44.90602" lon="6.75003">
        <ele>2603.39</ele>
        <time>2017-11-30T12:10:14Z</time>
      </trkpt>
      <trkpt lat="44.9061" lon="6.75002">
        <ele>2600.02</ele>
        <time>2017-11-30T12:10:25Z</time>
      </trkpt>
      <trkpt lat="44.90617" lon="6.75003">
        <ele>2598.58</ele>
        <time>2017-11-30T12:10:39Z</time>
      </trkpt>
      <trkpt lat="44.90621" lon="6.75004">
        <ele>2597.14</ele>
        <time>2017-11-30T12:10:51Z</time>
      </trkpt>
      <trkpt lat="44.90627" lon="6.75005">
        <ele>2596.66</ele>
        <time>2017-11-30T12:11:04Z</time>
      </trkpt>
      <trkpt lat="44.90628" lon="6.75007">
        <ele>2595.7</ele>
        <time>2017-11-30T12:11:16Z</time>
      </trkpt>
      <trkpt lat="44.90627" lon="6.75008">
        <ele>2595.22</ele>
        <time>2017-11-30T12:11:36Z</time>
      </trkpt>
      <trkpt lat="44.90626" lon="6.75007">
        <ele>2595.22</ele>
        <time>2017-11-30T12:11:57Z</time>
      </trkpt>
      <trkpt lat="44.90627" lon="6.75007">
        <ele>2595.7</ele>
        <time>2017-11-30T12:12:13Z</time>
      </trkpt>
      <trkpt lat="44.90628" lon="6.75008">
        <ele>2594.25</ele>
        <time>2017-11-30T12:12:28Z</time>
      </trkpt>
      <trkpt lat="44.90628" lon="6.75007">
        <ele>2595.22</ele>
        <time>2017-11-30T12:13:08Z</time>
      </trkpt>
      <trkpt lat="44.90629" lon="6.75007">
        <ele>2594.74</ele>
        <time>2017-11-30T12:13:41Z</time>
      </trkpt>
      <trkpt lat="44.90629" lon="6.75009">
        <ele>2596.18</ele>
        <time>2017-11-30T12:14:10Z</time>
      </trkpt>
      <trkpt lat="44.90627" lon="6.75007">
        <ele>2593.77</ele>
        <time>2017-11-30T12:14:26Z</time>
      </trkpt>
      <trkpt lat="44.90627" lon="6.75005">
        <ele>2596.18</ele>
        <time>2017-11-30T12:14:44Z</time>
      </trkpt>
      <trkpt lat="44.90627" lon="6.75006">
        <ele>2595.7</ele>
        <time>2017-11-30T12:15:03Z</time>
      </trkpt>
      <trkpt lat="44.90626" lon="6.75007">
        <ele>2595.22</ele>
        <time>2017-11-30T12:15:26Z</time>
      </trkpt>
      <trkpt lat="44.90626" lon="6.75006">
        <ele>2593.77</ele>
        <time>2017-11-30T12:15:51Z</time>
      </trkpt>
      <trkpt lat="44.90627" lon="6.75007">
        <ele>2595.7</ele>
        <time>2017-11-30T12:16:06Z</time>
      </trkpt>
      <trkpt lat="44.90628" lon="6.75007">
        <ele>2596.18</ele>
        <time>2017-11-30T12:16:25Z</time>
      </trkpt>
      <trkpt lat="44.90628" lon="6.75008">
        <ele>2595.7</ele>
        <time>2017-11-30T12:16:44Z</time>
      </trkpt>
      <trkpt lat="44.90627" lon="6.75006">
        <ele>2595.7</ele>
        <time>2017-11-30T12:17:13Z</time>
      </trkpt>
      <trkpt lat="44.90629" lon="6.75008">
        <ele>2596.66</ele>
        <time>2017-11-30T12:17:37Z</time>
      </trkpt>
      <trkpt lat="44.90629" lon="6.75007">
        <ele>2596.18</ele>
        <time>2017-11-30T12:17:56Z</time>
      </trkpt>
      <trkpt lat="44.9063" lon="6.75003">
        <ele>2595.7</ele>
        <time>2017-11-30T12:18:23Z</time>
      </trkpt>
      <trkpt lat="44.90636" lon="6.75005">
        <ele>2594.25</ele>
        <time>2017-11-30T12:18:28Z</time>
      </trkpt>
      <trkpt lat="44.90636" lon="6.75007">
        <ele>2594.25</ele>
        <time>2017-11-30T12:18:54Z</time>
      </trkpt>
      <trkpt lat="44.90635" lon="6.75006">
        <ele>2594.74</ele>
        <time>2017-11-30T12:19:12Z</time>
      </trkpt>
      <trkpt lat="44.90634" lon="6.75009">
        <ele>2593.77</ele>
        <time>2017-11-30T12:19:48Z</time>
      </trkpt>
      <trkpt lat="44.90634" lon="6.75009">
        <ele>2594.25</ele>
        <time>2017-11-30T12:20:10Z</time>
      </trkpt>
      <trkpt lat="44.90634" lon="6.75007">
        <ele>2594.25</ele>
        <time>2017-11-30T12:20:27Z</time>
      </trkpt>
      <trkpt lat="44.90633" lon="6.75008">
        <ele>2593.29</ele>
        <time>2017-11-30T12:20:55Z</time>
      </trkpt>
      <trkpt lat="44.90632" lon="6.7501">
        <ele>2594.74</ele>
        <time>2017-11-30T12:21:20Z</time>
      </trkpt>
      <trkpt lat="44.90634" lon="6.75008">
        <ele>2594.74</ele>
        <time>2017-11-30T12:21:48Z</time>
      </trkpt>
      <trkpt lat="44.90636" lon="6.75005">
        <ele>2594.25</ele>
        <time>2017-11-30T12:22:08Z</time>
      </trkpt>
      <trkpt lat="44.90638" lon="6.75006">
        <ele>2594.25</ele>
        <time>2017-11-30T12:22:27Z</time>
      </trkpt>
      <trkpt lat="44.90655" lon="6.75007">
        <ele>2590.89</ele>
        <time>2017-11-30T12:22:32Z</time>
      </trkpt>
      <trkpt lat="44.90664" lon="6.75008">
        <ele>2590.41</ele>
        <time>2017-11-30T12:22:34Z</time>
      </trkpt>
      <trkpt lat="44.9067" lon="6.75006">
        <ele>2589.93</ele>
        <time>2017-11-30T12:22:36Z</time>
      </trkpt>
      <trkpt lat="44.9067" lon="6.75003">
        <ele>2589.45</ele>
        <time>2017-11-30T12:22:37Z</time>
      </trkpt>
      <trkpt lat="44.90667" lon="6.75">
        <ele>2588.01</ele>
        <time>2017-11-30T12:22:38Z</time>
      </trkpt>
      <trkpt lat="44.90665" lon="6.74997">
        <ele>2588.49</ele>
        <time>2017-11-30T12:22:39Z</time>
      </trkpt>
      <trkpt lat="44.90665" lon="6.74993">
        <ele>2586.56</ele>
        <time>2017-11-30T12:22:40Z</time>
      </trkpt>
      <trkpt lat="44.90668" lon="6.74989">
        <ele>2586.56</ele>
        <time>2017-11-30T12:22:41Z</time>
      </trkpt>
      <trkpt lat="44.9067" lon="6.74985">
        <ele>2585.6</ele>
        <time>2017-11-30T12:22:42Z</time>
      </trkpt>
      <trkpt lat="44.90672" lon="6.74982">
        <ele>2586.08</ele>
        <time>2017-11-30T12:22:43Z</time>
      </trkpt>
      <trkpt lat="44.90674" lon="6.74981">
        <ele>2586.56</ele>
        <time>2017-11-30T12:22:44Z</time>
      </trkpt>
      <trkpt lat="44.90676" lon="6.74981">
        <ele>2586.56</ele>
        <time>2017-11-30T12:22:55Z</time>
      </trkpt>
      <trkpt lat="44.90676" lon="6.7498">
        <ele>2587.04</ele>
        <time>2017-11-30T12:23:15Z</time>
      </trkpt>
      <trkpt lat="44.90676" lon="6.7498">
        <ele>2586.56</ele>
        <time>2017-11-30T12:23:39Z</time>
      </trkpt>
      <trkpt lat="44.90676" lon="6.74981">
        <ele>2586.56</ele>
        <time>2017-11-30T12:23:54Z</time>
      </trkpt>
      <trkpt lat="44.90673" lon="6.74981">
        <ele>2587.04</ele>
        <time>2017-11-30T12:24:14Z</time>
      </trkpt>
      <trkpt lat="44.90675" lon="6.74982">
        <ele>2587.04</ele>
        <time>2017-11-30T12:24:42Z</time>
      </trkpt>
      <trkpt lat="44.90674" lon="6.74982">
        <ele>2586.56</ele>
        <time>2017-11-30T12:25:06Z</time>
      </trkpt>
      <trkpt lat="44.90674" lon="6.74983">
        <ele>2587.53</ele>
        <time>2017-11-30T12:25:08Z</time>
      </trkpt>
      <trkpt lat="44.90674" lon="6.74983">
        <ele>2587.04</ele>
        <time>2017-11-30T12:25:30Z</time>
      </trkpt>
      <trkpt lat="44.90674" lon="6.74982">
        <ele>2587.04</ele>
        <time>2017-11-30T12:25:46Z</time>
      </trkpt>
      <trkpt lat="44.90675" lon="6.74981">
        <ele>2587.04</ele>
        <time>2017-11-30T12:26:06Z</time>
      </trkpt>
      <trkpt lat="44.90673" lon="6.74979">
        <ele>2586.56</ele>
        <time>2017-11-30T12:26:24Z</time>
      </trkpt>
      <trkpt lat="44.90671" lon="6.74979">
        <ele>2586.56</ele>
        <time>2017-11-30T12:26:26Z</time>
      </trkpt>
      <trkpt lat="44.90669" lon="6.74979">
        <ele>2586.56</ele>
        <time>2017-11-30T12:26:27Z</time>
      </trkpt>
      <trkpt lat="44.90661" lon="6.74975">
        <ele>2583.2</ele>
        <time>2017-11-30T12:26:30Z</time>
      </trkpt>
      <trkpt lat="44.90658" lon="6.74972">
        <ele>2583.2</ele>
        <time>2017-11-30T12:26:31Z</time>
      </trkpt>
      <trkpt lat="44.90657" lon="6.74967">
        <ele>2581.76</ele>
        <time>2017-11-30T12:26:32Z</time>
      </trkpt>
      <trkpt lat="44.90656" lon="6.74963">
        <ele>2579.35</ele>
        <time>2017-11-30T12:26:33Z</time>
      </trkpt>
      <trkpt lat="44.90654" lon="6.74959">
        <ele>2579.84</ele>
        <time>2017-11-30T12:26:34Z</time>
      </trkpt>
      <trkpt lat="44.90652" lon="6.74955">
        <ele>2580.32</ele>
        <time>2017-11-30T12:26:35Z</time>
      </trkpt>
      <trkpt lat="44.90653" lon="6.74951">
        <ele>2579.84</ele>
        <time>2017-11-30T12:26:36Z</time>
      </trkpt>
      <trkpt lat="44.90655" lon="6.74948">
        <ele>2580.32</ele>
        <time>2017-11-30T12:26:37Z</time>
      </trkpt>
      <trkpt lat="44.90658" lon="6.74951">
        <ele>2580.32</ele>
        <time>2017-11-30T12:26:48Z</time>
      </trkpt>
      <trkpt lat="44.90658" lon="6.74949">
        <ele>2579.84</ele>
        <time>2017-11-30T12:27:09Z</time>
      </trkpt>
      <trkpt lat="44.90659" lon="6.74948">
        <ele>2580.8</ele>
        <time>2017-11-30T12:27:22Z</time>
      </trkpt>
      <trkpt lat="44.90659" lon="6.74947">
        <ele>2580.8</ele>
        <time>2017-11-30T12:27:23Z</time>
      </trkpt>
      <trkpt lat="44.90659" lon="6.74944">
        <ele>2577.43</ele>
        <time>2017-11-30T12:27:24Z</time>
      </trkpt>
      <trkpt lat="44.90659" lon="6.74939">
        <ele>2574.07</ele>
        <time>2017-11-30T12:27:25Z</time>
      </trkpt>
      <trkpt lat="44.90658" lon="6.74933">
        <ele>2576.95</ele>
        <time>2017-11-30T12:27:26Z</time>
      </trkpt>
      <trkpt lat="44.90659" lon="6.74927">
        <ele>2574.07</ele>
        <time>2017-11-30T12:27:27Z</time>
      </trkpt>
      <trkpt lat="44.90665" lon="6.74911">
        <ele>2574.55</ele>
        <time>2017-11-30T12:27:32Z</time>
      </trkpt>
      <trkpt lat="44.90668" lon="6.74902">
        <ele>2569.74</ele>
        <time>2017-11-30T12:27:38Z</time>
      </trkpt>
      <trkpt lat="44.90669" lon="6.74887">
        <ele>2563.97</ele>
        <time>2017-11-30T12:27:43Z</time>
      </trkpt>
      <trkpt lat="44.90669" lon="6.74883">
        <ele>2563.97</ele>
        <time>2017-11-30T12:27:44Z</time>
      </trkpt>
      <trkpt lat="44.90675" lon="6.74875">
        <ele>2559.65</ele>
        <time>2017-11-30T12:27:47Z</time>
      </trkpt>
      <trkpt lat="44.90676" lon="6.74872">
        <ele>2555.8</ele>
        <time>2017-11-30T12:27:48Z</time>
      </trkpt>
      <trkpt lat="44.90675" lon="6.74863">
        <ele>2555.32</ele>
        <time>2017-11-30T12:27:50Z</time>
      </trkpt>
      <trkpt lat="44.90678" lon="6.74855">
        <ele>2548.59</ele>
        <time>2017-11-30T12:27:52Z</time>
      </trkpt>
      <trkpt lat="44.90685" lon="6.74836">
        <ele>2545.23</ele>
        <time>2017-11-30T12:27:57Z</time>
      </trkpt>
      <trkpt lat="44.90688" lon="6.74822">
        <ele>2540.9</ele>
        <time>2017-11-30T12:28:01Z</time>
      </trkpt>
      <trkpt lat="44.90692" lon="6.7481">
        <ele>2537.06</ele>
        <time>2017-11-30T12:28:04Z</time>
      </trkpt>
      <trkpt lat="44.90687" lon="6.74787">
        <ele>2533.21</ele>
        <time>2017-11-30T12:28:08Z</time>
      </trkpt>
      <trkpt lat="44.90687" lon="6.74771">
        <ele>2531.29</ele>
        <time>2017-11-30T12:28:10Z</time>
      </trkpt>
      <trkpt lat="44.90685" lon="6.74762">
        <ele>2529.85</ele>
        <time>2017-11-30T12:28:11Z</time>
      </trkpt>
      <trkpt lat="44.90682" lon="6.74742">
        <ele>2528.89</ele>
        <time>2017-11-30T12:28:13Z</time>
      </trkpt>
      <trkpt lat="44.90675" lon="6.74719">
        <ele>2530.81</ele>
        <time>2017-11-30T12:28:18Z</time>
      </trkpt>
      <trkpt lat="44.90674" lon="6.74717">
        <ele>2533.21</ele>
        <time>2017-11-30T12:28:20Z</time>
      </trkpt>
      <trkpt lat="44.90673" lon="6.74715">
        <ele>2532.25</ele>
        <time>2017-11-30T12:28:36Z</time>
      </trkpt>
      <trkpt lat="44.90665" lon="6.74701">
        <ele>2530.33</ele>
        <time>2017-11-30T12:28:48Z</time>
      </trkpt>
      <trkpt lat="44.90658" lon="6.74668">
        <ele>2526.48</ele>
        <time>2017-11-30T12:28:58Z</time>
      </trkpt>
      <trkpt lat="44.90654" lon="6.74654">
        <ele>2523.6</ele>
        <time>2017-11-30T12:29:01Z</time>
      </trkpt>
      <trkpt lat="44.90651" lon="6.74641">
        <ele>2529.37</ele>
        <time>2017-11-30T12:29:04Z</time>
      </trkpt>
      <trkpt lat="44.9065" lon="6.74636">
        <ele>2530.33</ele>
        <time>2017-11-30T12:29:05Z</time>
      </trkpt>
      <trkpt lat="44.90643" lon="6.74616">
        <ele>2518.79</ele>
        <time>2017-11-30T12:29:08Z</time>
      </trkpt>
      <trkpt lat="44.90637" lon="6.74602">
        <ele>2519.27</ele>
        <time>2017-11-30T12:29:10Z</time>
      </trkpt>
      <trkpt lat="44.90626" lon="6.74564">
        <ele>2516.39</ele>
        <time>2017-11-30T12:29:16Z</time>
      </trkpt>
      <trkpt lat="44.90624" lon="6.74559">
        <ele>2516.39</ele>
        <time>2017-11-30T12:29:17Z</time>
      </trkpt>
      <trkpt lat="44.90618" lon="6.7454">
        <ele>2512.54</ele>
        <time>2017-11-30T12:29:21Z</time>
      </trkpt>
      <trkpt lat="44.90614" lon="6.74524">
        <ele>2513.98</ele>
        <time>2017-11-30T12:29:24Z</time>
      </trkpt>
      <trkpt lat="44.90614" lon="6.74513">
        <ele>2511.58</ele>
        <time>2017-11-30T12:29:26Z</time>
      </trkpt>
      <trkpt lat="44.90613" lon="6.74507">
        <ele>2508.22</ele>
        <time>2017-11-30T12:29:27Z</time>
      </trkpt>
      <trkpt lat="44.90608" lon="6.74485">
        <ele>2503.41</ele>
        <time>2017-11-30T12:29:31Z</time>
      </trkpt>
      <trkpt lat="44.90606" lon="6.7448">
        <ele>2504.37</ele>
        <time>2017-11-30T12:29:32Z</time>
      </trkpt>
      <trkpt lat="44.90603" lon="6.74477">
        <ele>2500.53</ele>
        <time>2017-11-30T12:29:33Z</time>
      </trkpt>
      <trkpt lat="44.90602" lon="6.74472">
        <ele>2500.53</ele>
        <time>2017-11-30T12:29:34Z</time>
      </trkpt>
      <trkpt lat="44.90599" lon="6.74456">
        <ele>2496.2</ele>
        <time>2017-11-30T12:29:38Z</time>
      </trkpt>
      <trkpt lat="44.90599" lon="6.74451">
        <ele>2497.16</ele>
        <time>2017-11-30T12:29:39Z</time>
      </trkpt>
      <trkpt lat="44.90597" lon="6.74446">
        <ele>2494.28</ele>
        <time>2017-11-30T12:29:40Z</time>
      </trkpt>
      <trkpt lat="44.90595" lon="6.74442">
        <ele>2490.43</ele>
        <time>2017-11-30T12:29:41Z</time>
      </trkpt>
      <trkpt lat="44.90594" lon="6.7443">
        <ele>2486.11</ele>
        <time>2017-11-30T12:29:43Z</time>
      </trkpt>
      <trkpt lat="44.90592" lon="6.74425">
        <ele>2485.63</ele>
        <time>2017-11-30T12:29:44Z</time>
      </trkpt>
      <trkpt lat="44.90589" lon="6.74419">
        <ele>2484.18</ele>
        <time>2017-11-30T12:29:45Z</time>
      </trkpt>
      <trkpt lat="44.90584" lon="6.74403">
        <ele>2476.97</ele>
        <time>2017-11-30T12:29:47Z</time>
      </trkpt>
      <trkpt lat="44.90574" lon="6.74375">
        <ele>2474.57</ele>
        <time>2017-11-30T12:29:51Z</time>
      </trkpt>
      <trkpt lat="44.90573" lon="6.74369">
        <ele>2474.57</ele>
        <time>2017-11-30T12:29:52Z</time>
      </trkpt>
      <trkpt lat="44.90568" lon="6.74354">
        <ele>2475.53</ele>
        <time>2017-11-30T12:29:55Z</time>
      </trkpt>
      <trkpt lat="44.90558" lon="6.74333">
        <ele>2473.61</ele>
        <time>2017-11-30T12:29:59Z</time>
      </trkpt>
      <trkpt lat="44.90554" lon="6.74318">
        <ele>2469.76</ele>
        <time>2017-11-30T12:30:01Z</time>
      </trkpt>
      <trkpt lat="44.90554" lon="6.74309">
        <ele>2468.32</ele>
        <time>2017-11-30T12:30:02Z</time>
      </trkpt>
      <trkpt lat="44.90545" lon="6.74273">
        <ele>2466.4</ele>
        <time>2017-11-30T12:30:06Z</time>
      </trkpt>
      <trkpt lat="44.90538" lon="6.7425">
        <ele>2464.48</ele>
        <time>2017-11-30T12:30:09Z</time>
      </trkpt>
      <trkpt lat="44.9053" lon="6.74216">
        <ele>2469.76</ele>
        <time>2017-11-30T12:30:16Z</time>
      </trkpt>
      <trkpt lat="44.90529" lon="6.74213">
        <ele>2466.88</ele>
        <time>2017-11-30T12:30:17Z</time>
      </trkpt>
      <trkpt lat="44.90525" lon="6.74185">
        <ele>2464</ele>
        <time>2017-11-30T12:30:24Z</time>
      </trkpt>
      <trkpt lat="44.90527" lon="6.74154">
        <ele>2462.07</ele>
        <time>2017-11-30T12:30:31Z</time>
      </trkpt>
      <trkpt lat="44.90524" lon="6.74151">
        <ele>2464</ele>
        <time>2017-11-30T12:30:34Z</time>
      </trkpt>
      <trkpt lat="44.90524" lon="6.74153">
        <ele>2462.55</ele>
        <time>2017-11-30T12:30:52Z</time>
      </trkpt>
      <trkpt lat="44.90524" lon="6.74152">
        <ele>2463.04</ele>
        <time>2017-11-30T12:30:55Z</time>
      </trkpt>
      <trkpt lat="44.90524" lon="6.74146">
        <ele>2461.59</ele>
        <time>2017-11-30T12:30:58Z</time>
      </trkpt>
      <trkpt lat="44.90525" lon="6.74143">
        <ele>2461.11</ele>
        <time>2017-11-30T12:30:59Z</time>
      </trkpt>
      <trkpt lat="44.90528" lon="6.74131">
        <ele>2460.63</ele>
        <time>2017-11-30T12:31:02Z</time>
      </trkpt>
      <trkpt lat="44.90535" lon="6.74118">
        <ele>2457.75</ele>
        <time>2017-11-30T12:31:06Z</time>
      </trkpt>
      <trkpt lat="44.90542" lon="6.74091">
        <ele>2456.79</ele>
        <time>2017-11-30T12:31:12Z</time>
      </trkpt>
      <trkpt lat="44.90549" lon="6.74073">
        <ele>2452.94</ele>
        <time>2017-11-30T12:31:16Z</time>
      </trkpt>
      <trkpt lat="44.90557" lon="6.74047">
        <ele>2449.1</ele>
        <time>2017-11-30T12:31:21Z</time>
      </trkpt>
      <trkpt lat="44.90567" lon="6.74028">
        <ele>2445.25</ele>
        <time>2017-11-30T12:31:25Z</time>
      </trkpt>
      <trkpt lat="44.90574" lon="6.74016">
        <ele>2440.92</ele>
        <time>2017-11-30T12:31:28Z</time>
      </trkpt>
      <trkpt lat="44.90579" lon="6.7399">
        <ele>2439.96</ele>
        <time>2017-11-30T12:31:34Z</time>
      </trkpt>
      <trkpt lat="44.90579" lon="6.73986">
        <ele>2440.44</ele>
        <time>2017-11-30T12:31:35Z</time>
      </trkpt>
      <trkpt lat="44.90593" lon="6.73975">
        <ele>2435.64</ele>
        <time>2017-11-30T12:31:40Z</time>
      </trkpt>
      <trkpt lat="44.90595" lon="6.73972">
        <ele>2439.96</ele>
        <time>2017-11-30T12:31:41Z</time>
      </trkpt>
      <trkpt lat="44.90596" lon="6.73967">
        <ele>2435.16</ele>
        <time>2017-11-30T12:31:42Z</time>
      </trkpt>
      <trkpt lat="44.90604" lon="6.73956">
        <ele>2433.23</ele>
        <time>2017-11-30T12:31:45Z</time>
      </trkpt>
      <trkpt lat="44.90612" lon="6.73936">
        <ele>2426.02</ele>
        <time>2017-11-30T12:31:49Z</time>
      </trkpt>
      <trkpt lat="44.90615" lon="6.73928">
        <ele>2424.1</ele>
        <time>2017-11-30T12:31:51Z</time>
      </trkpt>
      <trkpt lat="44.90621" lon="6.7392">
        <ele>2422.18</ele>
        <time>2017-11-30T12:31:53Z</time>
      </trkpt>
      <trkpt lat="44.90629" lon="6.73913">
        <ele>2419.78</ele>
        <time>2017-11-30T12:31:55Z</time>
      </trkpt>
      <trkpt lat="44.90634" lon="6.7391">
        <ele>2416.89</ele>
        <time>2017-11-30T12:31:56Z</time>
      </trkpt>
      <trkpt lat="44.90644" lon="6.73902">
        <ele>2413.05</ele>
        <time>2017-11-30T12:31:59Z</time>
      </trkpt>
      <trkpt lat="44.90647" lon="6.73899">
        <ele>2411.6</ele>
        <time>2017-11-30T12:32:00Z</time>
      </trkpt>
      <trkpt lat="44.90653" lon="6.73892">
        <ele>2409.68</ele>
        <time>2017-11-30T12:32:02Z</time>
      </trkpt>
      <trkpt lat="44.9066" lon="6.73885">
        <ele>2405.36</ele>
        <time>2017-11-30T12:32:04Z</time>
      </trkpt>
      <trkpt lat="44.90681" lon="6.73866">
        <ele>2400.55</ele>
        <time>2017-11-30T12:32:10Z</time>
      </trkpt>
      <trkpt lat="44.90689" lon="6.7386">
        <ele>2396.7</ele>
        <time>2017-11-30T12:32:12Z</time>
      </trkpt>
      <trkpt lat="44.90694" lon="6.73855">
        <ele>2397.67</ele>
        <time>2017-11-30T12:32:13Z</time>
      </trkpt>
      <trkpt lat="44.90703" lon="6.73848">
        <ele>2392.86</ele>
        <time>2017-11-30T12:32:15Z</time>
      </trkpt>
      <trkpt lat="44.90714" lon="6.73843">
        <ele>2392.38</ele>
        <time>2017-11-30T12:32:17Z</time>
      </trkpt>
      <trkpt lat="44.90719" lon="6.73839">
        <ele>2389.01</ele>
        <time>2017-11-30T12:32:18Z</time>
      </trkpt>
      <trkpt lat="44.90738" lon="6.73828">
        <ele>2385.17</ele>
        <time>2017-11-30T12:32:23Z</time>
      </trkpt>
      <trkpt lat="44.90747" lon="6.73805">
        <ele>2383.25</ele>
        <time>2017-11-30T12:32:32Z</time>
      </trkpt>
      <trkpt lat="44.90741" lon="6.73809">
        <ele>2383.73</ele>
        <time>2017-11-30T12:32:51Z</time>
      </trkpt>
      <trkpt lat="44.90739" lon="6.7381">
        <ele>2384.21</ele>
        <time>2017-11-30T12:33:10Z</time>
      </trkpt>
      <trkpt lat="44.90741" lon="6.7381">
        <ele>2384.21</ele>
        <time>2017-11-30T12:33:14Z</time>
      </trkpt>
      <trkpt lat="44.90746" lon="6.73803">
        <ele>2381.32</ele>
        <time>2017-11-30T12:33:17Z</time>
      </trkpt>
      <trkpt lat="44.90749" lon="6.738">
        <ele>2381.8</ele>
        <time>2017-11-30T12:33:18Z</time>
      </trkpt>
      <trkpt lat="44.90759" lon="6.73792">
        <ele>2377.96</ele>
        <time>2017-11-30T12:33:21Z</time>
      </trkpt>
      <trkpt lat="44.90763" lon="6.73789">
        <ele>2378.92</ele>
        <time>2017-11-30T12:33:22Z</time>
      </trkpt>
      <trkpt lat="44.90777" lon="6.73774">
        <ele>2370.75</ele>
        <time>2017-11-30T12:33:26Z</time>
      </trkpt>
      <trkpt lat="44.90779" lon="6.73771">
        <ele>2371.23</ele>
        <time>2017-11-30T12:33:27Z</time>
      </trkpt>
      <trkpt lat="44.90784" lon="6.73764">
        <ele>2368.83</ele>
        <time>2017-11-30T12:33:28Z</time>
      </trkpt>
      <trkpt lat="44.90796" lon="6.73753">
        <ele>2362.1</ele>
        <time>2017-11-30T12:33:31Z</time>
      </trkpt>
      <trkpt lat="44.90806" lon="6.73745">
        <ele>2359.69</ele>
        <time>2017-11-30T12:33:33Z</time>
      </trkpt>
      <trkpt lat="44.90816" lon="6.73741">
        <ele>2354.89</ele>
        <time>2017-11-30T12:33:35Z</time>
      </trkpt>
      <trkpt lat="44.9082" lon="6.73738">
        <ele>2354.41</ele>
        <time>2017-11-30T12:33:36Z</time>
      </trkpt>
      <trkpt lat="44.90827" lon="6.73728">
        <ele>2352.96</ele>
        <time>2017-11-30T12:33:38Z</time>
      </trkpt>
      <trkpt lat="44.90834" lon="6.73718">
        <ele>2347.2</ele>
        <time>2017-11-30T12:33:40Z</time>
      </trkpt>
      <trkpt lat="44.90839" lon="6.73713">
        <ele>2346.72</ele>
        <time>2017-11-30T12:33:41Z</time>
      </trkpt>
      <trkpt lat="44.90842" lon="6.73706">
        <ele>2344.79</ele>
        <time>2017-11-30T12:33:42Z</time>
      </trkpt>
      <trkpt lat="44.90854" lon="6.73687">
        <ele>2340.95</ele>
        <time>2017-11-30T12:33:45Z</time>
      </trkpt>
      <trkpt lat="44.90858" lon="6.73679">
        <ele>2340.95</ele>
        <time>2017-11-30T12:33:46Z</time>
      </trkpt>
      <trkpt lat="44.90863" lon="6.73665">
        <ele>2340.95</ele>
        <time>2017-11-30T12:33:48Z</time>
      </trkpt>
      <trkpt lat="44.9087" lon="6.73657">
        <ele>2336.14</ele>
        <time>2017-11-30T12:33:51Z</time>
      </trkpt>
      <trkpt lat="44.90874" lon="6.73654">
        <ele>2336.14</ele>
        <time>2017-11-30T12:33:52Z</time>
      </trkpt>
      <trkpt lat="44.90879" lon="6.7365">
        <ele>2332.78</ele>
        <time>2017-11-30T12:33:54Z</time>
      </trkpt>
      <trkpt lat="44.9089" lon="6.73637">
        <ele>2327.49</ele>
        <time>2017-11-30T12:33:58Z</time>
      </trkpt>
      <trkpt lat="44.90898" lon="6.73634">
        <ele>2323.64</ele>
        <time>2017-11-30T12:34:00Z</time>
      </trkpt>
      <trkpt lat="44.90905" lon="6.73624">
        <ele>2320.76</ele>
        <time>2017-11-30T12:34:02Z</time>
      </trkpt>
      <trkpt lat="44.9091" lon="6.73623">
        <ele>2317.88</ele>
        <time>2017-11-30T12:34:03Z</time>
      </trkpt>
      <trkpt lat="44.90914" lon="6.73623">
        <ele>2315.47</ele>
        <time>2017-11-30T12:34:04Z</time>
      </trkpt>
      <trkpt lat="44.9093" lon="6.7361">
        <ele>2309.7</ele>
        <time>2017-11-30T12:34:08Z</time>
      </trkpt>
      <trkpt lat="44.90939" lon="6.73606">
        <ele>2309.22</ele>
        <time>2017-11-30T12:34:10Z</time>
      </trkpt>
      <trkpt lat="44.90947" lon="6.73603">
        <ele>2305.38</ele>
        <time>2017-11-30T12:34:12Z</time>
      </trkpt>
      <trkpt lat="44.90956" lon="6.73602">
        <ele>2303.46</ele>
        <time>2017-11-30T12:34:14Z</time>
      </trkpt>
      <trkpt lat="44.90965" lon="6.73594">
        <ele>2300.57</ele>
        <time>2017-11-30T12:34:16Z</time>
      </trkpt>
      <trkpt lat="44.90975" lon="6.73589">
        <ele>2299.61</ele>
        <time>2017-11-30T12:34:18Z</time>
      </trkpt>
      <trkpt lat="44.90984" lon="6.73584">
        <ele>2296.25</ele>
        <time>2017-11-30T12:34:20Z</time>
      </trkpt>
      <trkpt lat="44.90989" lon="6.73583">
        <ele>2294.32</ele>
        <time>2017-11-30T12:34:21Z</time>
      </trkpt>
      <trkpt lat="44.91009" lon="6.73579">
        <ele>2290.48</ele>
        <time>2017-11-30T12:34:24Z</time>
      </trkpt>
      <trkpt lat="44.91016" lon="6.73578">
        <ele>2290.96</ele>
        <time>2017-11-30T12:34:25Z</time>
      </trkpt>
      <trkpt lat="44.91029" lon="6.73576">
        <ele>2288.56</ele>
        <time>2017-11-30T12:34:27Z</time>
      </trkpt>
      <trkpt lat="44.91035" lon="6.73573">
        <ele>2286.15</ele>
        <time>2017-11-30T12:34:28Z</time>
      </trkpt>
      <trkpt lat="44.91056" lon="6.73568">
        <ele>2284.23</ele>
        <time>2017-11-30T12:34:32Z</time>
      </trkpt>
      <trkpt lat="44.9106" lon="6.73566">
        <ele>2285.19</ele>
        <time>2017-11-30T12:34:33Z</time>
      </trkpt>
      <trkpt lat="44.91079" lon="6.73565">
        <ele>2282.79</ele>
        <time>2017-11-30T12:34:43Z</time>
      </trkpt>
      <trkpt lat="44.91073" lon="6.73571">
        <ele>2282.79</ele>
        <time>2017-11-30T12:35:05Z</time>
      </trkpt>
      <trkpt lat="44.91073" lon="6.73569">
        <ele>2283.27</ele>
        <time>2017-11-30T12:35:12Z</time>
      </trkpt>
      <trkpt lat="44.91078" lon="6.73559">
        <ele>2281.35</ele>
        <time>2017-11-30T12:35:16Z</time>
      </trkpt>
      <trkpt lat="44.91086" lon="6.73552">
        <ele>2280.87</ele>
        <time>2017-11-30T12:35:18Z</time>
      </trkpt>
      <trkpt lat="44.91096" lon="6.7355">
        <ele>2277.5</ele>
        <time>2017-11-30T12:35:20Z</time>
      </trkpt>
      <trkpt lat="44.91101" lon="6.73546">
        <ele>2277.5</ele>
        <time>2017-11-30T12:35:21Z</time>
      </trkpt>
      <trkpt lat="44.91109" lon="6.73536">
        <ele>2273.66</ele>
        <time>2017-11-30T12:35:23Z</time>
      </trkpt>
      <trkpt lat="44.91122" lon="6.73528">
        <ele>2269.33</ele>
        <time>2017-11-30T12:35:26Z</time>
      </trkpt>
      <trkpt lat="44.91124" lon="6.73522">
        <ele>2270.29</ele>
        <time>2017-11-30T12:35:27Z</time>
      </trkpt>
      <trkpt lat="44.91133" lon="6.73513">
        <ele>2265.96</ele>
        <time>2017-11-30T12:35:30Z</time>
      </trkpt>
      <trkpt lat="44.91136" lon="6.73511">
        <ele>2265.96</ele>
        <time>2017-11-30T12:35:31Z</time>
      </trkpt>
      <trkpt lat="44.91132" lon="6.73505">
        <ele>2265</ele>
        <time>2017-11-30T12:35:34Z</time>
      </trkpt>
      <trkpt lat="44.91129" lon="6.73499">
        <ele>2264.04</ele>
        <time>2017-11-30T12:35:36Z</time>
      </trkpt>
      <trkpt lat="44.91134" lon="6.73496">
        <ele>2262.6</ele>
        <time>2017-11-30T12:35:39Z</time>
      </trkpt>
      <trkpt lat="44.9114" lon="6.73487">
        <ele>2258.75</ele>
        <time>2017-11-30T12:35:42Z</time>
      </trkpt>
      <trkpt lat="44.91146" lon="6.73483">
        <ele>2254.43</ele>
        <time>2017-11-30T12:35:44Z</time>
      </trkpt>
      <trkpt lat="44.91153" lon="6.73474">
        <ele>2250.58</ele>
        <time>2017-11-30T12:35:47Z</time>
      </trkpt>
      <trkpt lat="44.91162" lon="6.73463">
        <ele>2246.26</ele>
        <time>2017-11-30T12:35:51Z</time>
      </trkpt>
      <trkpt lat="44.91167" lon="6.73461">
        <ele>2244.82</ele>
        <time>2017-11-30T12:35:53Z</time>
      </trkpt>
      <trkpt lat="44.91172" lon="6.73456">
        <ele>2242.41</ele>
        <time>2017-11-30T12:35:55Z</time>
      </trkpt>
      <trkpt lat="44.91183" lon="6.73441">
        <ele>2235.68</ele>
        <time>2017-11-30T12:36:00Z</time>
      </trkpt>
      <trkpt lat="44.91189" lon="6.73429">
        <ele>2232.32</ele>
        <time>2017-11-30T12:36:03Z</time>
      </trkpt>
      <trkpt lat="44.91195" lon="6.73425">
        <ele>2228.47</ele>
        <time>2017-11-30T12:36:05Z</time>
      </trkpt>
      <trkpt lat="44.91202" lon="6.73416">
        <ele>2225.59</ele>
        <time>2017-11-30T12:36:08Z</time>
      </trkpt>
      <trkpt lat="44.91208" lon="6.7341">
        <ele>2222.22</ele>
        <time>2017-11-30T12:36:10Z</time>
      </trkpt>
      <trkpt lat="44.91218" lon="6.73394">
        <ele>2217.9</ele>
        <time>2017-11-30T12:36:14Z</time>
      </trkpt>
      <trkpt lat="44.91224" lon="6.7339">
        <ele>2217.42</ele>
        <time>2017-11-30T12:36:16Z</time>
      </trkpt>
      <trkpt lat="44.91233" lon="6.73381">
        <ele>2213.57</ele>
        <time>2017-11-30T12:36:18Z</time>
      </trkpt>
      <trkpt lat="44.91238" lon="6.73376">
        <ele>2212.61</ele>
        <time>2017-11-30T12:36:19Z</time>
      </trkpt>
      <trkpt lat="44.91259" lon="6.73354">
        <ele>2206.84</ele>
        <time>2017-11-30T12:36:23Z</time>
      </trkpt>
      <trkpt lat="44.91268" lon="6.73344">
        <ele>2204.92</ele>
        <time>2017-11-30T12:36:25Z</time>
      </trkpt>
      <trkpt lat="44.91276" lon="6.73333">
        <ele>2202.04</ele>
        <time>2017-11-30T12:36:27Z</time>
      </trkpt>
      <trkpt lat="44.91289" lon="6.73318">
        <ele>2201.08</ele>
        <time>2017-11-30T12:36:30Z</time>
      </trkpt>
      <trkpt lat="44.91304" lon="6.73299">
        <ele>2195.31</ele>
        <time>2017-11-30T12:36:34Z</time>
      </trkpt>
      <trkpt lat="44.91312" lon="6.7329">
        <ele>2196.27</ele>
        <time>2017-11-30T12:36:42Z</time>
      </trkpt>
      <trkpt lat="44.91309" lon="6.73288">
        <ele>2196.75</ele>
        <time>2017-11-30T12:37:01Z</time>
      </trkpt>
      <trkpt lat="44.9131" lon="6.7329">
        <ele>2197.23</ele>
        <time>2017-11-30T12:37:20Z</time>
      </trkpt>
      <trkpt lat="44.91311" lon="6.7329">
        <ele>2196.27</ele>
        <time>2017-11-30T12:37:31Z</time>
      </trkpt>
      <trkpt lat="44.91319" lon="6.73281">
        <ele>2192.9</ele>
        <time>2017-11-30T12:37:35Z</time>
      </trkpt>
      <trkpt lat="44.91325" lon="6.73272">
        <ele>2191.46</ele>
        <time>2017-11-30T12:37:37Z</time>
      </trkpt>
      <trkpt lat="44.91333" lon="6.7326">
        <ele>2188.1</ele>
        <time>2017-11-30T12:37:39Z</time>
      </trkpt>
      <trkpt lat="44.91346" lon="6.73243">
        <ele>2188.1</ele>
        <time>2017-11-30T12:37:42Z</time>
      </trkpt>
      <trkpt lat="44.91366" lon="6.73217">
        <ele>2182.81</ele>
        <time>2017-11-30T12:37:47Z</time>
      </trkpt>
      <trkpt lat="44.91369" lon="6.73213">
        <ele>2182.33</ele>
        <time>2017-11-30T12:37:48Z</time>
      </trkpt>
      <trkpt lat="44.91397" lon="6.73185">
        <ele>2178</ele>
        <time>2017-11-30T12:37:54Z</time>
      </trkpt>
      <trkpt lat="44.91412" lon="6.73172">
        <ele>2174.64</ele>
        <time>2017-11-30T12:37:57Z</time>
      </trkpt>
      <trkpt lat="44.91428" lon="6.73148">
        <ele>2172.24</ele>
        <time>2017-11-30T12:38:01Z</time>
      </trkpt>
      <trkpt lat="44.91434" lon="6.73124">
        <ele>2169.35</ele>
        <time>2017-11-30T12:38:05Z</time>
      </trkpt>
      <trkpt lat="44.91434" lon="6.73106">
        <ele>2168.39</ele>
        <time>2017-11-30T12:38:08Z</time>
      </trkpt>
      <trkpt lat="44.91444" lon="6.73083">
        <ele>2165.03</ele>
        <time>2017-11-30T12:38:12Z</time>
      </trkpt>
      <trkpt lat="44.91451" lon="6.73076">
        <ele>2164.06</ele>
        <time>2017-11-30T12:38:14Z</time>
      </trkpt>
      <trkpt lat="44.91458" lon="6.7307">
        <ele>2162.14</ele>
        <time>2017-11-30T12:38:16Z</time>
      </trkpt>
      <trkpt lat="44.91474" lon="6.7306">
        <ele>2159.26</ele>
        <time>2017-11-30T12:38:20Z</time>
      </trkpt>
      <trkpt lat="44.91483" lon="6.73054">
        <ele>2155.89</ele>
        <time>2017-11-30T12:38:22Z</time>
      </trkpt>
      <trkpt lat="44.91501" lon="6.73046">
        <ele>2153.97</ele>
        <time>2017-11-30T12:38:25Z</time>
      </trkpt>
      <trkpt lat="44.91519" lon="6.73038">
        <ele>2152.05</ele>
        <time>2017-11-30T12:38:28Z</time>
      </trkpt>
      <trkpt lat="44.91524" lon="6.73035">
        <ele>2152.05</ele>
        <time>2017-11-30T12:38:29Z</time>
      </trkpt>
      <trkpt lat="44.91542" lon="6.73032">
        <ele>2153.01</ele>
        <time>2017-11-30T12:38:39Z</time>
      </trkpt>
      <trkpt lat="44.91545" lon="6.73031">
        <ele>2153.49</ele>
        <time>2017-11-30T12:39:03Z</time>
      </trkpt>
      <trkpt lat="44.9155" lon="6.73033">
        <ele>2153.49</ele>
        <time>2017-11-30T12:39:27Z</time>
      </trkpt>
      <trkpt lat="44.91547" lon="6.73031">
        <ele>2153.49</ele>
        <time>2017-11-30T12:39:51Z</time>
      </trkpt>
      <trkpt lat="44.91547" lon="6.73034">
        <ele>2153.97</ele>
        <time>2017-11-30T12:40:12Z</time>
      </trkpt>
      <trkpt lat="44.91547" lon="6.73035">
        <ele>2153.97</ele>
        <time>2017-11-30T12:40:13Z</time>
      </trkpt>
      <trkpt lat="44.91556" lon="6.73042">
        <ele>2152.53</ele>
        <time>2017-11-30T12:40:19Z</time>
      </trkpt>
      <trkpt lat="44.91563" lon="6.73041">
        <ele>2151.09</ele>
        <time>2017-11-30T12:40:21Z</time>
      </trkpt>
      <trkpt lat="44.91565" lon="6.73045">
        <ele>2150.13</ele>
        <time>2017-11-30T12:40:23Z</time>
      </trkpt>
      <trkpt lat="44.9158" lon="6.7305">
        <ele>2147.24</ele>
        <time>2017-11-30T12:40:32Z</time>
      </trkpt>
      <trkpt lat="44.9158" lon="6.73052">
        <ele>2147.24</ele>
        <time>2017-11-30T12:40:49Z</time>
      </trkpt>
      <trkpt lat="44.91587" lon="6.73057">
        <ele>2144.84</ele>
        <time>2017-11-30T12:40:52Z</time>
      </trkpt>
      <trkpt lat="44.91618" lon="6.73057">
        <ele>2141.95</ele>
        <time>2017-11-30T12:40:58Z</time>
      </trkpt>
      <trkpt lat="44.91632" lon="6.73056">
        <ele>2140.03</ele>
        <time>2017-11-30T12:41:01Z</time>
      </trkpt>
      <trkpt lat="44.91656" lon="6.73057">
        <ele>2138.11</ele>
        <time>2017-11-30T12:41:06Z</time>
      </trkpt>
      <trkpt lat="44.91704" lon="6.73054">
        <ele>2135.71</ele>
        <time>2017-11-30T12:41:18Z</time>
      </trkpt>
      <trkpt lat="44.91722" lon="6.73058">
        <ele>2134.26</ele>
        <time>2017-11-30T12:41:22Z</time>
      </trkpt>
      <trkpt lat="44.91739" lon="6.73056">
        <ele>2132.34</ele>
        <time>2017-11-30T12:41:26Z</time>
      </trkpt>
      <trkpt lat="44.91743" lon="6.73054">
        <ele>2132.34</ele>
        <time>2017-11-30T12:41:27Z</time>
      </trkpt>
      <trkpt lat="44.91754" lon="6.73048">
        <ele>2131.86</ele>
        <time>2017-11-30T12:41:37Z</time>
      </trkpt>
      <trkpt lat="44.91755" lon="6.73048">
        <ele>2132.34</ele>
        <time>2017-11-30T12:41:56Z</time>
      </trkpt>
      <trkpt lat="44.91757" lon="6.73048">
        <ele>2131.86</ele>
        <time>2017-11-30T12:42:07Z</time>
      </trkpt>
      <trkpt lat="44.91768" lon="6.73045">
        <ele>2128.98</ele>
        <time>2017-11-30T12:42:15Z</time>
      </trkpt>
      <trkpt lat="44.91772" lon="6.73054">
        <ele>2125.61</ele>
        <time>2017-11-30T12:42:18Z</time>
      </trkpt>
      <trkpt lat="44.91774" lon="6.73055">
        <ele>2125.61</ele>
        <time>2017-11-30T12:42:19Z</time>
      </trkpt>
      <trkpt lat="44.91784" lon="6.73063">
        <ele>2120.81</ele>
        <time>2017-11-30T12:42:22Z</time>
      </trkpt>
      <trkpt lat="44.91791" lon="6.73063">
        <ele>2119.84</ele>
        <time>2017-11-30T12:42:24Z</time>
      </trkpt>
      <trkpt lat="44.91803" lon="6.73069">
        <ele>2114.08</ele>
        <time>2017-11-30T12:42:27Z</time>
      </trkpt>
      <trkpt lat="44.91816" lon="6.73071">
        <ele>2110.23</ele>
        <time>2017-11-30T12:42:30Z</time>
      </trkpt>
      <trkpt lat="44.91825" lon="6.73079">
        <ele>2105.91</ele>
        <time>2017-11-30T12:42:32Z</time>
      </trkpt>
      <trkpt lat="44.91831" lon="6.73083">
        <ele>2104.94</ele>
        <time>2017-11-30T12:42:33Z</time>
      </trkpt>
      <trkpt lat="44.91851" lon="6.73099">
        <ele>2101.1</ele>
        <time>2017-11-30T12:42:37Z</time>
      </trkpt>
      <trkpt lat="44.91872" lon="6.73117">
        <ele>2095.81</ele>
        <time>2017-11-30T12:42:42Z</time>
      </trkpt>
      <trkpt lat="44.91877" lon="6.73121">
        <ele>2095.81</ele>
        <time>2017-11-30T12:42:43Z</time>
      </trkpt>
      <trkpt lat="44.91881" lon="6.73125">
        <ele>2095.33</ele>
        <time>2017-11-30T12:42:44Z</time>
      </trkpt>
      <trkpt lat="44.91896" lon="6.73138">
        <ele>2091</ele>
        <time>2017-11-30T12:42:47Z</time>
      </trkpt>
      <trkpt lat="44.91917" lon="6.73139">
        <ele>2087.16</ele>
        <time>2017-11-30T12:42:51Z</time>
      </trkpt>
      <trkpt lat="44.91941" lon="6.73136">
        <ele>2085.24</ele>
        <time>2017-11-30T12:42:57Z</time>
      </trkpt>
      <trkpt lat="44.91949" lon="6.7314">
        <ele>2083.31</ele>
        <time>2017-11-30T12:43:01Z</time>
      </trkpt>
      <trkpt lat="44.91952" lon="6.73135">
        <ele>2082.35</ele>
        <time>2017-11-30T12:43:03Z</time>
      </trkpt>
      <trkpt lat="44.91957" lon="6.73133">
        <ele>2080.91</ele>
        <time>2017-11-30T12:43:14Z</time>
      </trkpt>
      <trkpt lat="44.91956" lon="6.73134">
        <ele>2080.43</ele>
        <time>2017-11-30T12:43:31Z</time>
      </trkpt>
      <trkpt lat="44.91958" lon="6.7314">
        <ele>2079.47</ele>
        <time>2017-11-30T12:43:34Z</time>
      </trkpt>
      <trkpt lat="44.9197" lon="6.73139">
        <ele>2077.07</ele>
        <time>2017-11-30T12:43:38Z</time>
      </trkpt>
      <trkpt lat="44.91978" lon="6.73144">
        <ele>2073.22</ele>
        <time>2017-11-30T12:43:41Z</time>
      </trkpt>
      <trkpt lat="44.91981" lon="6.73145">
        <ele>2072.74</ele>
        <time>2017-11-30T12:43:42Z</time>
      </trkpt>
      <trkpt lat="44.9199" lon="6.73153">
        <ele>2067.93</ele>
        <time>2017-11-30T12:43:47Z</time>
      </trkpt>
      <trkpt lat="44.9199" lon="6.73153">
        <ele>2067.45</ele>
        <time>2017-11-30T12:43:49Z</time>
      </trkpt>
      <trkpt lat="44.9198" lon="6.73153">
        <ele>2067.93</ele>
        <time>2017-11-30T12:44:08Z</time>
      </trkpt>
      <trkpt lat="44.9198" lon="6.73153">
        <ele>2067.45</ele>
        <time>2017-11-30T12:44:15Z</time>
      </trkpt>
      <trkpt lat="44.91991" lon="6.73156">
        <ele>2063.61</ele>
        <time>2017-11-30T12:44:20Z</time>
      </trkpt>
      <trkpt lat="44.91999" lon="6.73155">
        <ele>2059.28</ele>
        <time>2017-11-30T12:44:23Z</time>
      </trkpt>
      <trkpt lat="44.92002" lon="6.73155">
        <ele>2059.76</ele>
        <time>2017-11-30T12:44:24Z</time>
      </trkpt>
      <trkpt lat="44.92006" lon="6.73161">
        <ele>2055.92</ele>
        <time>2017-11-30T12:44:26Z</time>
      </trkpt>
      <trkpt lat="44.92009" lon="6.73161">
        <ele>2054.47</ele>
        <time>2017-11-30T12:44:27Z</time>
      </trkpt>
      <trkpt lat="44.92019" lon="6.73165">
        <ele>2049.19</ele>
        <time>2017-11-30T12:44:31Z</time>
      </trkpt>
      <trkpt lat="44.92026" lon="6.73163">
        <ele>2045.82</ele>
        <time>2017-11-30T12:44:34Z</time>
      </trkpt>
      <trkpt lat="44.92038" lon="6.73161">
        <ele>2041.98</ele>
        <time>2017-11-30T12:44:37Z</time>
      </trkpt>
      <trkpt lat="44.92044" lon="6.73161">
        <ele>2038.61</ele>
        <time>2017-11-30T12:44:39Z</time>
      </trkpt>
      <trkpt lat="44.92051" lon="6.73156">
        <ele>2036.69</ele>
        <time>2017-11-30T12:44:42Z</time>
      </trkpt>
      <trkpt lat="44.92058" lon="6.73161">
        <ele>2033.81</ele>
        <time>2017-11-30T12:44:44Z</time>
      </trkpt>
      <trkpt lat="44.92071" lon="6.73168">
        <ele>2027.08</ele>
        <time>2017-11-30T12:44:48Z</time>
      </trkpt>
      <trkpt lat="44.92074" lon="6.73175">
        <ele>2024.19</ele>
        <time>2017-11-30T12:44:50Z</time>
      </trkpt>
      <trkpt lat="44.9208" lon="6.73172">
        <ele>2021.79</ele>
        <time>2017-11-30T12:44:52Z</time>
      </trkpt>
      <trkpt lat="44.9209" lon="6.73177">
        <ele>2016.02</ele>
        <time>2017-11-30T12:44:56Z</time>
      </trkpt>
      <trkpt lat="44.92092" lon="6.73185">
        <ele>2012.18</ele>
        <time>2017-11-30T12:44:58Z</time>
      </trkpt>
      <trkpt lat="44.92101" lon="6.73184">
        <ele>2008.81</ele>
        <time>2017-11-30T12:45:01Z</time>
      </trkpt>
      <trkpt lat="44.92108" lon="6.73189">
        <ele>2004.97</ele>
        <time>2017-11-30T12:45:04Z</time>
      </trkpt>
      <trkpt lat="44.92118" lon="6.73188">
        <ele>2001.12</ele>
        <time>2017-11-30T12:45:07Z</time>
      </trkpt>
      <trkpt lat="44.92122" lon="6.73194">
        <ele>1997.76</ele>
        <time>2017-11-30T12:45:09Z</time>
      </trkpt>
      <trkpt lat="44.92127" lon="6.73193">
        <ele>1995.35</ele>
        <time>2017-11-30T12:45:11Z</time>
      </trkpt>
      <trkpt lat="44.92138" lon="6.73195">
        <ele>1990.07</ele>
        <time>2017-11-30T12:45:15Z</time>
      </trkpt>
      <trkpt lat="44.92141" lon="6.732">
        <ele>1986.7</ele>
        <time>2017-11-30T12:45:17Z</time>
      </trkpt>
      <trkpt lat="44.92149" lon="6.73198">
        <ele>1984.78</ele>
        <time>2017-11-30T12:45:20Z</time>
      </trkpt>
      <trkpt lat="44.92154" lon="6.73202">
        <ele>1981.9</ele>
        <time>2017-11-30T12:45:22Z</time>
      </trkpt>
      <trkpt lat="44.92157" lon="6.73207">
        <ele>1978.05</ele>
        <time>2017-11-30T12:45:24Z</time>
      </trkpt>
      <trkpt lat="44.92161" lon="6.73206">
        <ele>1975.65</ele>
        <time>2017-11-30T12:45:30Z</time>
      </trkpt>
      <trkpt lat="44.92172" lon="6.73208">
        <ele>1971.8</ele>
        <time>2017-11-30T12:45:35Z</time>
      </trkpt>
      <trkpt lat="44.92179" lon="6.73209">
        <ele>1968.44</ele>
        <time>2017-11-30T12:45:37Z</time>
      </trkpt>
      <trkpt lat="44.9219" lon="6.73213">
        <ele>1964.11</ele>
        <time>2017-11-30T12:45:40Z</time>
      </trkpt>
      <trkpt lat="44.92199" lon="6.73215">
        <ele>1959.3</ele>
        <time>2017-11-30T12:45:43Z</time>
      </trkpt>
      <trkpt lat="44.92212" lon="6.73212">
        <ele>1954.5</ele>
        <time>2017-11-30T12:45:47Z</time>
      </trkpt>
      <trkpt lat="44.92221" lon="6.73213">
        <ele>1951.13</ele>
        <time>2017-11-30T12:45:50Z</time>
      </trkpt>
      <trkpt lat="44.92222" lon="6.73211">
        <ele>1951.13</ele>
        <time>2017-11-30T12:45:51Z</time>
      </trkpt>
      <trkpt lat="44.92222" lon="6.7321">
        <ele>1951.13</ele>
        <time>2017-11-30T12:46:02Z</time>
      </trkpt>
      <trkpt lat="44.92222" lon="6.73211">
        <ele>1950.65</ele>
        <time>2017-11-30T12:46:22Z</time>
      </trkpt>
      <trkpt lat="44.92226" lon="6.73211">
        <ele>1951.61</ele>
        <time>2017-11-30T12:46:35Z</time>
      </trkpt>
      <trkpt lat="44.92234" lon="6.73216">
        <ele>1946.81</ele>
        <time>2017-11-30T12:46:39Z</time>
      </trkpt>
      <trkpt lat="44.9224" lon="6.73218">
        <ele>1945.85</ele>
        <time>2017-11-30T12:46:41Z</time>
      </trkpt>
      <trkpt lat="44.92248" lon="6.73217">
        <ele>1942</ele>
        <time>2017-11-30T12:46:43Z</time>
      </trkpt>
      <trkpt lat="44.92254" lon="6.73222">
        <ele>1939.12</ele>
        <time>2017-11-30T12:46:45Z</time>
      </trkpt>
      <trkpt lat="44.92262" lon="6.7322">
        <ele>1935.75</ele>
        <time>2017-11-30T12:46:47Z</time>
      </trkpt>
      <trkpt lat="44.92271" lon="6.73226">
        <ele>1931.43</ele>
        <time>2017-11-30T12:46:49Z</time>
      </trkpt>
      <trkpt lat="44.92275" lon="6.73228">
        <ele>1930.46</ele>
        <time>2017-11-30T12:46:50Z</time>
      </trkpt>
      <trkpt lat="44.92295" lon="6.73234">
        <ele>1927.58</ele>
        <time>2017-11-30T12:46:55Z</time>
      </trkpt>
      <trkpt lat="44.92306" lon="6.73236">
        <ele>1924.22</ele>
        <time>2017-11-30T12:46:57Z</time>
      </trkpt>
      <trkpt lat="44.92336" lon="6.73242">
        <ele>1922.29</ele>
        <time>2017-11-30T12:47:03Z</time>
      </trkpt>
      <trkpt lat="44.9235" lon="6.73238">
        <ele>1921.81</ele>
        <time>2017-11-30T12:47:06Z</time>
      </trkpt>
      <trkpt lat="44.9237" lon="6.7324">
        <ele>1916.53</ele>
        <time>2017-11-30T12:47:10Z</time>
      </trkpt>
      <trkpt lat="44.92379" lon="6.73242">
        <ele>1913.64</ele>
        <time>2017-11-30T12:47:12Z</time>
      </trkpt>
      <trkpt lat="44.92388" lon="6.73241">
        <ele>1909.8</ele>
        <time>2017-11-30T12:47:14Z</time>
      </trkpt>
      <trkpt lat="44.92398" lon="6.73248">
        <ele>1906.91</ele>
        <time>2017-11-30T12:47:16Z</time>
      </trkpt>
      <trkpt lat="44.92407" lon="6.7325">
        <ele>1905.47</ele>
        <time>2017-11-30T12:47:18Z</time>
      </trkpt>
      <trkpt lat="44.92424" lon="6.73248">
        <ele>1901.63</ele>
        <time>2017-11-30T12:47:22Z</time>
      </trkpt>
      <trkpt lat="44.92444" lon="6.73248">
        <ele>1900.66</ele>
        <time>2017-11-30T12:47:27Z</time>
      </trkpt>
      <trkpt lat="44.92461" lon="6.73251">
        <ele>1899.22</ele>
        <time>2017-11-30T12:47:31Z</time>
      </trkpt>
      <trkpt lat="44.92493" lon="6.73255">
        <ele>1894.9</ele>
        <time>2017-11-30T12:47:38Z</time>
      </trkpt>
      <trkpt lat="44.92498" lon="6.73255">
        <ele>1895.38</ele>
        <time>2017-11-30T12:47:39Z</time>
      </trkpt>
      <trkpt lat="44.92528" lon="6.7326">
        <ele>1893.93</ele>
        <time>2017-11-30T12:47:47Z</time>
      </trkpt>
      <trkpt lat="44.92531" lon="6.73258">
        <ele>1893.93</ele>
        <time>2017-11-30T12:48:03Z</time>
      </trkpt>
      <trkpt lat="44.9253" lon="6.73258">
        <ele>1893.93</ele>
        <time>2017-11-30T12:48:26Z</time>
      </trkpt>
      <trkpt lat="44.92529" lon="6.73258">
        <ele>1893.45</ele>
        <time>2017-11-30T12:48:57Z</time>
      </trkpt>
      <trkpt lat="44.92529" lon="6.73259">
        <ele>1892.97</ele>
        <time>2017-11-30T12:49:19Z</time>
      </trkpt>
      <trkpt lat="44.92531" lon="6.73259">
        <ele>1893.45</ele>
        <time>2017-11-30T12:49:38Z</time>
      </trkpt>
      <trkpt lat="44.9255" lon="6.73266">
        <ele>1892.01</ele>
        <time>2017-11-30T12:49:46Z</time>
      </trkpt>
      <trkpt lat="44.92555" lon="6.73273">
        <ele>1891.05</ele>
        <time>2017-11-30T12:49:48Z</time>
      </trkpt>
      <trkpt lat="44.92571" lon="6.73285">
        <ele>1889.13</ele>
        <time>2017-11-30T12:49:52Z</time>
      </trkpt>
      <trkpt lat="44.92581" lon="6.73298">
        <ele>1886.72</ele>
        <time>2017-11-30T12:49:55Z</time>
      </trkpt>
      <trkpt lat="44.926" lon="6.73317">
        <ele>1882.88</ele>
        <time>2017-11-30T12:50:00Z</time>
      </trkpt>
      <trkpt lat="44.92603" lon="6.73322">
        <ele>1883.84</ele>
        <time>2017-11-30T12:50:01Z</time>
      </trkpt>
      <trkpt lat="44.92612" lon="6.73327">
        <ele>1882.4</ele>
        <time>2017-11-30T12:50:03Z</time>
      </trkpt>
      <trkpt lat="44.92622" lon="6.73338">
        <ele>1880.48</ele>
        <time>2017-11-30T12:50:06Z</time>
      </trkpt>
      <trkpt lat="44.92625" lon="6.73341">
        <ele>1880</ele>
        <time>2017-11-30T12:50:07Z</time>
      </trkpt>
      <trkpt lat="44.92635" lon="6.73352">
        <ele>1878.07</ele>
        <time>2017-11-30T12:50:10Z</time>
      </trkpt>
      <trkpt lat="44.92646" lon="6.73362">
        <ele>1874.23</ele>
        <time>2017-11-30T12:50:13Z</time>
      </trkpt>
      <trkpt lat="44.9265" lon="6.73363">
        <ele>1874.71</ele>
        <time>2017-11-30T12:50:14Z</time>
      </trkpt>
      <trkpt lat="44.92675" lon="6.73371">
        <ele>1871.34</ele>
        <time>2017-11-30T12:50:19Z</time>
      </trkpt>
      <trkpt lat="44.92691" lon="6.73378">
        <ele>1867.98</ele>
        <time>2017-11-30T12:50:22Z</time>
      </trkpt>
      <trkpt lat="44.92697" lon="6.73379">
        <ele>1867.98</ele>
        <time>2017-11-30T12:50:23Z</time>
      </trkpt>
      <trkpt lat="44.92726" lon="6.7338">
        <ele>1867.98</ele>
        <time>2017-11-30T12:50:28Z</time>
      </trkpt>
      <trkpt lat="44.9274" lon="6.73387">
        <ele>1866.54</ele>
        <time>2017-11-30T12:50:31Z</time>
      </trkpt>
      <trkpt lat="44.92756" lon="6.73397">
        <ele>1862.69</ele>
        <time>2017-11-30T12:50:35Z</time>
      </trkpt>
      <trkpt lat="44.92772" lon="6.73405">
        <ele>1858.37</ele>
        <time>2017-11-30T12:50:38Z</time>
      </trkpt>
      <trkpt lat="44.92787" lon="6.73414">
        <ele>1855</ele>
        <time>2017-11-30T12:50:41Z</time>
      </trkpt>
      <trkpt lat="44.92796" lon="6.73421">
        <ele>1852.12</ele>
        <time>2017-11-30T12:50:43Z</time>
      </trkpt>
      <trkpt lat="44.92805" lon="6.73429">
        <ele>1848.75</ele>
        <time>2017-11-30T12:50:45Z</time>
      </trkpt>
      <trkpt lat="44.9281" lon="6.73432">
        <ele>1848.75</ele>
        <time>2017-11-30T12:50:46Z</time>
      </trkpt>
      <trkpt lat="44.9283" lon="6.73446">
        <ele>1845.87</ele>
        <time>2017-11-30T12:50:50Z</time>
      </trkpt>
      <trkpt lat="44.92835" lon="6.73449">
        <ele>1844.91</ele>
        <time>2017-11-30T12:50:51Z</time>
      </trkpt>
      <trkpt lat="44.92852" lon="6.73462">
        <ele>1841.06</ele>
        <time>2017-11-30T12:50:54Z</time>
      </trkpt>
      <trkpt lat="44.92864" lon="6.73485">
        <ele>1837.22</ele>
        <time>2017-11-30T12:50:57Z</time>
      </trkpt>
      <trkpt lat="44.92875" lon="6.73508">
        <ele>1834.81</ele>
        <time>2017-11-30T12:51:00Z</time>
      </trkpt>
      <trkpt lat="44.9289" lon="6.73532">
        <ele>1833.37</ele>
        <time>2017-11-30T12:51:04Z</time>
      </trkpt>
      <trkpt lat="44.92895" lon="6.73537">
        <ele>1832.41</ele>
        <time>2017-11-30T12:51:05Z</time>
      </trkpt>
      <trkpt lat="44.9291" lon="6.7356">
        <ele>1830.01</ele>
        <time>2017-11-30T12:51:10Z</time>
      </trkpt>
      <trkpt lat="44.92921" lon="6.73571">
        <ele>1828.08</ele>
        <time>2017-11-30T12:51:13Z</time>
      </trkpt>
      <trkpt lat="44.92935" lon="6.73584">
        <ele>1824.72</ele>
        <time>2017-11-30T12:51:16Z</time>
      </trkpt>
      <trkpt lat="44.92955" lon="6.73605">
        <ele>1821.84</ele>
        <time>2017-11-30T12:51:20Z</time>
      </trkpt>
      <trkpt lat="44.9297" lon="6.73622">
        <ele>1820.87</ele>
        <time>2017-11-30T12:51:23Z</time>
      </trkpt>
      <trkpt lat="44.92984" lon="6.73642">
        <ele>1818.95</ele>
        <time>2017-11-30T12:51:26Z</time>
      </trkpt>
      <trkpt lat="44.92989" lon="6.73649">
        <ele>1817.51</ele>
        <time>2017-11-30T12:51:27Z</time>
      </trkpt>
      <trkpt lat="44.93004" lon="6.73674">
        <ele>1814.15</ele>
        <time>2017-11-30T12:51:31Z</time>
      </trkpt>
      <trkpt lat="44.93017" lon="6.73692">
        <ele>1813.18</ele>
        <time>2017-11-30T12:51:35Z</time>
      </trkpt>
      <trkpt lat="44.93035" lon="6.73696">
        <ele>1811.26</ele>
        <time>2017-11-30T12:51:43Z</time>
      </trkpt>
      <trkpt lat="44.93041" lon="6.73695">
        <ele>1809.82</ele>
        <time>2017-11-30T12:52:04Z</time>
      </trkpt>
      <trkpt lat="44.93039" lon="6.73695">
        <ele>1810.3</ele>
        <time>2017-11-30T12:52:21Z</time>
      </trkpt>
      <trkpt lat="44.93046" lon="6.73701">
        <ele>1810.3</ele>
        <time>2017-11-30T12:52:44Z</time>
      </trkpt>
      <trkpt lat="44.93049" lon="6.73706">
        <ele>1811.74</ele>
        <time>2017-11-30T12:52:56Z</time>
      </trkpt>
      <trkpt lat="44.93052" lon="6.73712">
        <ele>1812.22</ele>
        <time>2017-11-30T12:53:09Z</time>
      </trkpt>
      <trkpt lat="44.93052" lon="6.73713">
        <ele>1812.7</ele>
        <time>2017-11-30T12:53:25Z</time>
      </trkpt>
      <trkpt lat="44.93054" lon="6.73718">
        <ele>1812.7</ele>
        <time>2017-11-30T12:53:44Z</time>
      </trkpt>
      <trkpt lat="44.93069" lon="6.73745">
        <ele>1811.74</ele>
        <time>2017-11-30T12:53:58Z</time>
      </trkpt>
      <trkpt lat="44.93112" lon="6.73788">
        <ele>1809.34</ele>
        <time>2017-11-30T12:54:13Z</time>
      </trkpt>
      <trkpt lat="44.93123" lon="6.73812">
        <ele>1808.86</ele>
        <time>2017-11-30T12:54:23Z</time>
      </trkpt>
      <trkpt lat="44.93124" lon="6.73813">
        <ele>1809.34</ele>
        <time>2017-11-30T12:54:41Z</time>
      </trkpt>
      <trkpt lat="44.93126" lon="6.73815">
        <ele>1809.34</ele>
        <time>2017-11-30T12:54:45Z</time>
      </trkpt>
      <trkpt lat="44.93146" lon="6.73835">
        <ele>1806.94</ele>
        <time>2017-11-30T12:54:54Z</time>
      </trkpt>
      <trkpt lat="44.93162" lon="6.73858">
        <ele>1806.45</ele>
        <time>2017-11-30T12:55:08Z</time>
      </trkpt>
      <trkpt lat="44.93169" lon="6.73875">
        <ele>1806.45</ele>
        <time>2017-11-30T12:55:21Z</time>
      </trkpt>
      <trkpt lat="44.93169" lon="6.73878">
        <ele>1806.45</ele>
        <time>2017-11-30T12:55:24Z</time>
      </trkpt>
      <trkpt lat="44.93176" lon="6.73898">
        <ele>1806.45</ele>
        <time>2017-11-30T12:55:41Z</time>
      </trkpt>
      <trkpt lat="44.93178" lon="6.7391">
        <ele>1807.42</ele>
        <time>2017-11-30T12:55:57Z</time>
      </trkpt>
      <trkpt lat="44.93191" lon="6.73934">
        <ele>1805.49</ele>
        <time>2017-11-30T12:56:15Z</time>
      </trkpt>
      <trkpt lat="44.93197" lon="6.73945">
        <ele>1805.49</ele>
        <time>2017-11-30T12:56:26Z</time>
      </trkpt>
      <trkpt lat="44.932" lon="6.73951">
        <ele>1805.01</ele>
        <time>2017-11-30T12:56:46Z</time>
      </trkpt>
      <trkpt lat="44.93204" lon="6.7396">
        <ele>1803.09</ele>
        <time>2017-11-30T12:56:48Z</time>
      </trkpt>
      <trkpt lat="44.93209" lon="6.7399">
        <ele>1800.69</ele>
        <time>2017-11-30T12:56:53Z</time>
      </trkpt>
      <trkpt lat="44.93213" lon="6.7401">
        <ele>1799.24</ele>
        <time>2017-11-30T12:56:58Z</time>
      </trkpt>
      <trkpt lat="44.93219" lon="6.74032">
        <ele>1797.8</ele>
        <time>2017-11-30T12:57:02Z</time>
      </trkpt>
      <trkpt lat="44.9324" lon="6.74069">
        <ele>1796.84</ele>
        <time>2017-11-30T12:57:15Z</time>
      </trkpt>
      <trkpt lat="44.93259" lon="6.74103">
        <ele>1796.84</ele>
        <time>2017-11-30T12:57:31Z</time>
      </trkpt>
      <trkpt lat="44.93262" lon="6.74116">
        <ele>1794.44</ele>
        <time>2017-11-30T12:57:36Z</time>
      </trkpt>
      <trkpt lat="44.93261" lon="6.74121">
        <ele>1795.88</ele>
        <time>2017-11-30T12:57:42Z</time>
      </trkpt>
      <trkpt lat="44.93261" lon="6.74124">
        <ele>1795.4</ele>
        <time>2017-11-30T12:58:12Z</time>
      </trkpt>
      <trkpt lat="44.93261" lon="6.74124">
        <ele>1795.88</ele>
        <time>2017-11-30T12:58:32Z</time>
      </trkpt>
      <trkpt lat="44.93262" lon="6.74125">
        <ele>1796.84</ele>
        <time>2017-11-30T12:58:43Z</time>
      </trkpt>
      <trkpt lat="44.93282" lon="6.74138">
        <ele>1794.44</ele>
        <time>2017-11-30T12:58:50Z</time>
      </trkpt>
      <trkpt lat="44.93289" lon="6.74158">
        <ele>1791.55</ele>
        <time>2017-11-30T12:58:54Z</time>
      </trkpt>
      <trkpt lat="44.93296" lon="6.74166">
        <ele>1790.59</ele>
        <time>2017-11-30T12:58:56Z</time>
      </trkpt>
      <trkpt lat="44.93313" lon="6.74188">
        <ele>1789.63</ele>
        <time>2017-11-30T12:59:04Z</time>
      </trkpt>
      <trkpt lat="44.93311" lon="6.74196">
        <ele>1785.31</ele>
        <time>2017-11-30T12:59:08Z</time>
      </trkpt>
      <trkpt lat="44.93309" lon="6.74199">
        <ele>1785.31</ele>
        <time>2017-11-30T12:59:09Z</time>
      </trkpt>
      <trkpt lat="44.93322" lon="6.74219">
        <ele>1784.34</ele>
        <time>2017-11-30T12:59:14Z</time>
      </trkpt>
      <trkpt lat="44.93359" lon="6.74246">
        <ele>1780.98</ele>
        <time>2017-11-30T12:59:27Z</time>
      </trkpt>
      <trkpt lat="44.93379" lon="6.74264">
        <ele>1778.58</ele>
        <time>2017-11-30T12:59:32Z</time>
      </trkpt>
      <trkpt lat="44.93403" lon="6.74285">
        <ele>1777.13</ele>
        <time>2017-11-30T12:59:37Z</time>
      </trkpt>
      <trkpt lat="44.93435" lon="6.74312">
        <ele>1774.73</ele>
        <time>2017-11-30T12:59:47Z</time>
      </trkpt>
      <trkpt lat="44.93454" lon="6.74322">
        <ele>1774.73</ele>
        <time>2017-11-30T12:59:58Z</time>
      </trkpt>
      <trkpt lat="44.9346" lon="6.7432">
        <ele>1774.25</ele>
        <time>2017-11-30T13:00:05Z</time>
      </trkpt>
      <trkpt lat="44.93462" lon="6.74319">
        <ele>1774.25</ele>
        <time>2017-11-30T13:00:06Z</time>
      </trkpt>
      <trkpt lat="44.93464" lon="6.74319">
        <ele>1773.77</ele>
        <time>2017-11-30T13:00:07Z</time>
      </trkpt>
      <trkpt lat="44.93466" lon="6.74319">
        <ele>1773.77</ele>
        <time>2017-11-30T13:00:08Z</time>
      </trkpt>
      <trkpt lat="44.93468" lon="6.74319">
        <ele>1773.77</ele>
        <time>2017-11-30T13:00:09Z</time>
      </trkpt>
      <trkpt lat="44.93471" lon="6.74321">
        <ele>1773.77</ele>
        <time>2017-11-30T13:00:10Z</time>
      </trkpt>
      <trkpt lat="44.93473" lon="6.74322">
        <ele>1773.77</ele>
        <time>2017-11-30T13:00:11Z</time>
      </trkpt>
      <trkpt lat="44.93475" lon="6.74324">
        <ele>1773.29</ele>
        <time>2017-11-30T13:00:12Z</time>
      </trkpt>
      <trkpt lat="44.93476" lon="6.74326">
        <ele>1773.77</ele>
        <time>2017-11-30T13:00:13Z</time>
      </trkpt>
      <trkpt lat="44.93478" lon="6.74328">
        <ele>1773.77</ele>
        <time>2017-11-30T13:00:14Z</time>
      </trkpt>
      <trkpt lat="44.9348" lon="6.7433">
        <ele>1773.77</ele>
        <time>2017-11-30T13:00:15Z</time>
      </trkpt>
      <trkpt lat="44.93481" lon="6.74333">
        <ele>1773.77</ele>
        <time>2017-11-30T13:00:16Z</time>
      </trkpt>
      <trkpt lat="44.93482" lon="6.74335">
        <ele>1773.29</ele>
        <time>2017-11-30T13:00:17Z</time>
      </trkpt>
      <trkpt lat="44.93501" lon="6.74375">
        <ele>1771.85</ele>
        <time>2017-11-30T13:00:32Z</time>
      </trkpt>
      <trkpt lat="44.93519" lon="6.7441">
        <ele>1770.89</ele>
        <time>2017-11-30T13:00:45Z</time>
      </trkpt>
      <trkpt lat="44.93539" lon="6.74467">
        <ele>1768.48</ele>
        <time>2017-11-30T13:01:00Z</time>
      </trkpt>
      <trkpt lat="44.93562" lon="6.74517">
        <ele>1767.04</ele>
        <time>2017-11-30T13:01:14Z</time>
      </trkpt>
      <trkpt lat="44.93577" lon="6.74569">
        <ele>1765.12</ele>
        <time>2017-11-30T13:01:26Z</time>
      </trkpt>
      <trkpt lat="44.93578" lon="6.74582">
        <ele>1765.6</ele>
        <time>2017-11-30T13:01:38Z</time>
      </trkpt>
      <trkpt lat="44.93583" lon="6.74597">
        <ele>1765.6</ele>
        <time>2017-11-30T13:01:55Z</time>
      </trkpt>
      <trkpt lat="44.93587" lon="6.7463">
        <ele>1763.68</ele>
        <time>2017-11-30T13:02:07Z</time>
      </trkpt>
      <trkpt lat="44.936" lon="6.74657">
        <ele>1762.23</ele>
        <time>2017-11-30T13:02:21Z</time>
      </trkpt>
      <trkpt lat="44.93602" lon="6.74692">
        <ele>1762.23</ele>
        <time>2017-11-30T13:02:39Z</time>
      </trkpt>
      <trkpt lat="44.93603" lon="6.74713">
        <ele>1761.27</ele>
        <time>2017-11-30T13:02:55Z</time>
      </trkpt>
      <trkpt lat="44.93606" lon="6.74725">
        <ele>1760.31</ele>
        <time>2017-11-30T13:03:06Z</time>
      </trkpt>
      <trkpt lat="44.93607" lon="6.74726">
        <ele>1760.31</ele>
        <time>2017-11-30T13:03:07Z</time>
      </trkpt>
      <trkpt lat="44.9361" lon="6.74733">
        <ele>1760.31</ele>
        <time>2017-11-30T13:03:23Z</time>
      </trkpt>
      <trkpt lat="44.93609" lon="6.74737">
        <ele>1760.31</ele>
        <time>2017-11-30T13:03:36Z</time>
      </trkpt>
      <trkpt lat="44.93606" lon="6.74749">
        <ele>1759.83</ele>
        <time>2017-11-30T13:03:46Z</time>
      </trkpt>
      <trkpt lat="44.93606" lon="6.74751">
        <ele>1759.83</ele>
        <time>2017-11-30T13:03:47Z</time>
      </trkpt>
      <trkpt lat="44.93604" lon="6.74773">
        <ele>1759.35</ele>
        <time>2017-11-30T13:04:05Z</time>
      </trkpt>
      <trkpt lat="44.93604" lon="6.74777">
        <ele>1759.83</ele>
        <time>2017-11-30T13:04:19Z</time>
      </trkpt>
      <trkpt lat="44.93609" lon="6.74819">
        <ele>1757.91</ele>
        <time>2017-11-30T13:04:37Z</time>
      </trkpt>
      <trkpt lat="44.93612" lon="6.74832">
        <ele>1756.47</ele>
        <time>2017-11-30T13:04:48Z</time>
      </trkpt>
      <trkpt lat="44.93609" lon="6.74834">
        <ele>1755.99</ele>
        <time>2017-11-30T13:05:00Z</time>
      </trkpt>
      <trkpt lat="44.93608" lon="6.74844">
        <ele>1755.99</ele>
        <time>2017-11-30T13:05:13Z</time>
      </trkpt>
      <trkpt lat="44.9361" lon="6.74856">
        <ele>1756.47</ele>
        <time>2017-11-30T13:05:28Z</time>
      </trkpt>
      <trkpt lat="44.93611" lon="6.74858">
        <ele>1756.95</ele>
        <time>2017-11-30T13:05:43Z</time>
      </trkpt>
      <trkpt lat="44.93611" lon="6.74858">
        <ele>1756.95</ele>
        <time>2017-11-30T13:06:00Z</time>
      </trkpt>
      <trkpt lat="44.93611" lon="6.74857">
        <ele>1756.47</ele>
        <time>2017-11-30T13:06:20Z</time>
      </trkpt>
      <trkpt lat="44.93611" lon="6.74859">
        <ele>1756.47</ele>
        <time>2017-11-30T13:06:38Z</time>
      </trkpt>
      <trkpt lat="44.93611" lon="6.74858">
        <ele>1756.95</ele>
        <time>2017-11-30T13:07:02Z</time>
      </trkpt>
      <trkpt lat="44.9361" lon="6.7486">
        <ele>1756.95</ele>
        <time>2017-11-30T13:07:22Z</time>
      </trkpt>
      <trkpt lat="44.93613" lon="6.74875">
        <ele>1756.95</ele>
        <time>2017-11-30T13:07:37Z</time>
      </trkpt>
      <trkpt lat="44.93617" lon="6.74896">
        <ele>1757.43</ele>
        <time>2017-11-30T13:07:48Z</time>
      </trkpt>
      <trkpt lat="44.93632" lon="6.74934">
        <ele>1755.5</ele>
        <time>2017-11-30T13:08:02Z</time>
      </trkpt>
      <trkpt lat="44.93647" lon="6.7495">
        <ele>1754.06</ele>
        <time>2017-11-30T13:08:12Z</time>
      </trkpt>
      <trkpt lat="44.93664" lon="6.74961">
        <ele>1753.1</ele>
        <time>2017-11-30T13:08:24Z</time>
      </trkpt>
      <trkpt lat="44.93667" lon="6.74961">
        <ele>1753.1</ele>
        <time>2017-11-30T13:08:38Z</time>
      </trkpt>
      <trkpt lat="44.9367" lon="6.74966">
        <ele>1753.1</ele>
        <time>2017-11-30T13:08:55Z</time>
      </trkpt>
      <trkpt lat="44.93674" lon="6.74976">
        <ele>1753.58</ele>
        <time>2017-11-30T13:09:10Z</time>
      </trkpt>
      <trkpt lat="44.93676" lon="6.74985">
        <ele>1752.62</ele>
        <time>2017-11-30T13:09:23Z</time>
      </trkpt>
      <trkpt lat="44.93678" lon="6.74987">
        <ele>1752.62</ele>
        <time>2017-11-30T13:09:25Z</time>
      </trkpt>
      <trkpt lat="44.93682" lon="6.74989">
        <ele>1752.62</ele>
        <time>2017-11-30T13:09:31Z</time>
      </trkpt>
      <trkpt lat="44.93686" lon="6.74993">
        <ele>1753.1</ele>
        <time>2017-11-30T13:09:46Z</time>
      </trkpt>
      <trkpt lat="44.93691" lon="6.74999">
        <ele>1752.62</ele>
        <time>2017-11-30T13:09:50Z</time>
      </trkpt>
      <trkpt lat="44.93692" lon="6.75002">
        <ele>1751.66</ele>
        <time>2017-11-30T13:09:51Z</time>
      </trkpt>
      <trkpt lat="44.93707" lon="6.75033">
        <ele>1748.78</ele>
        <time>2017-11-30T13:09:57Z</time>
      </trkpt>
      <trkpt lat="44.93712" lon="6.75044">
        <ele>1750.22</ele>
        <time>2017-11-30T13:09:59Z</time>
      </trkpt>
      <trkpt lat="44.93738" lon="6.7509">
        <ele>1747.81</ele>
        <time>2017-11-30T13:10:12Z</time>
      </trkpt>
      <trkpt lat="44.93764" lon="6.75122">
        <ele>1744.45</ele>
        <time>2017-11-30T13:10:29Z</time>
      </trkpt>
      <trkpt lat="44.93776" lon="6.75124">
        <ele>1744.45</ele>
        <time>2017-11-30T13:10:41Z</time>
      </trkpt>
      <trkpt lat="44.93783" lon="6.75127">
        <ele>1745.41</ele>
        <time>2017-11-30T13:10:54Z</time>
      </trkpt>
      <trkpt lat="44.93789" lon="6.75127">
        <ele>1745.89</ele>
        <time>2017-11-30T13:11:09Z</time>
      </trkpt>
      <trkpt lat="44.93793" lon="6.75121">
        <ele>1746.37</ele>
        <time>2017-11-30T13:11:22Z</time>
      </trkpt>
      <trkpt lat="44.938" lon="6.75113">
        <ele>1746.85</ele>
        <time>2017-11-30T13:11:36Z</time>
      </trkpt>
      <trkpt lat="44.93806" lon="6.75109">
        <ele>1747.33</ele>
        <time>2017-11-30T13:11:49Z</time>
      </trkpt>
      <trkpt lat="44.93809" lon="6.75107">
        <ele>1747.81</ele>
        <time>2017-11-30T13:12:08Z</time>
      </trkpt>
      <trkpt lat="44.93806" lon="6.75108">
        <ele>1747.81</ele>
        <time>2017-11-30T13:12:24Z</time>
      </trkpt>
      <trkpt lat="44.93804" lon="6.75107">
        <ele>1747.33</ele>
        <time>2017-11-30T13:12:42Z</time>
      </trkpt>
      <trkpt lat="44.93804" lon="6.75109">
        <ele>1747.81</ele>
        <time>2017-11-30T13:13:07Z</time>
      </trkpt>
      <trkpt lat="44.93808" lon="6.75109">
        <ele>1747.81</ele>
        <time>2017-11-30T13:13:32Z</time>
      </trkpt>
      <trkpt lat="44.93807" lon="6.7511">
        <ele>1747.81</ele>
        <time>2017-11-30T13:13:58Z</time>
      </trkpt>
      <trkpt lat="44.93808" lon="6.75109">
        <ele>1747.33</ele>
        <time>2017-11-30T13:14:18Z</time>
      </trkpt>
      <trkpt lat="44.93809" lon="6.75107">
        <ele>1747.81</ele>
        <time>2017-11-30T13:14:35Z</time>
      </trkpt>
      <trkpt lat="44.93811" lon="6.75108">
        <ele>1747.33</ele>
        <time>2017-11-30T13:15:07Z</time>
      </trkpt>
      <trkpt lat="44.93809" lon="6.75104">
        <ele>1747.33</ele>
        <time>2017-11-30T13:15:34Z</time>
      </trkpt>
      <trkpt lat="44.93806" lon="6.75107">
        <ele>1747.33</ele>
        <time>2017-11-30T13:15:57Z</time>
      </trkpt>
      <trkpt lat="44.93817" lon="6.75113">
        <ele>1746.37</ele>
        <time>2017-11-30T13:16:13Z</time>
      </trkpt>
      <trkpt lat="44.93842" lon="6.75144">
        <ele>1743.97</ele>
        <time>2017-11-30T13:16:23Z</time>
      </trkpt>
      <trkpt lat="44.93862" lon="6.75169">
        <ele>1741.57</ele>
        <time>2017-11-30T13:16:31Z</time>
      </trkpt>
      <trkpt lat="44.93885" lon="6.75192">
        <ele>1739.16</ele>
        <time>2017-11-30T13:16:42Z</time>
      </trkpt>
      <trkpt lat="44.93893" lon="6.75195">
        <ele>1739.16</ele>
        <time>2017-11-30T13:16:56Z</time>
      </trkpt>
      <trkpt lat="44.93896" lon="6.75195">
        <ele>1738.68</ele>
        <time>2017-11-30T13:17:15Z</time>
      </trkpt>
      <trkpt lat="44.93896" lon="6.75196">
        <ele>1739.16</ele>
        <time>2017-11-30T13:17:33Z</time>
      </trkpt>
      <trkpt lat="44.93893" lon="6.75193">
        <ele>1739.64</ele>
        <time>2017-11-30T13:17:47Z</time>
      </trkpt>
      <trkpt lat="44.93893" lon="6.75193">
        <ele>1739.64</ele>
        <time>2017-11-30T13:18:10Z</time>
      </trkpt>
      <trkpt lat="44.93897" lon="6.75196">
        <ele>1740.12</ele>
        <time>2017-11-30T13:18:29Z</time>
      </trkpt>
      <trkpt lat="44.93902" lon="6.75191">
        <ele>1740.6</ele>
        <time>2017-11-30T13:18:43Z</time>
      </trkpt>
      <trkpt lat="44.93903" lon="6.75196">
        <ele>1740.12</ele>
        <time>2017-11-30T13:18:50Z</time>
      </trkpt>
      <trkpt lat="44.93907" lon="6.75206">
        <ele>1739.16</ele>
        <time>2017-11-30T13:18:59Z</time>
      </trkpt>
      <trkpt lat="44.93913" lon="6.75203">
        <ele>1741.08</ele>
        <time>2017-11-30T13:19:12Z</time>
      </trkpt>
      <trkpt lat="44.9392" lon="6.75198">
        <ele>1743.49</ele>
        <time>2017-11-30T13:19:27Z</time>
      </trkpt>
      <trkpt lat="44.93925" lon="6.75194">
        <ele>1745.89</ele>
        <time>2017-11-30T13:19:42Z</time>
      </trkpt>
      <trkpt lat="44.93929" lon="6.75187">
        <ele>1747.81</ele>
        <time>2017-11-30T13:19:58Z</time>
      </trkpt>
      <trkpt lat="44.93932" lon="6.75174">
        <ele>1749.74</ele>
        <time>2017-11-30T13:20:14Z</time>
      </trkpt>
      <trkpt lat="44.93936" lon="6.75168">
        <ele>1752.62</ele>
        <time>2017-11-30T13:20:31Z</time>
      </trkpt>
      <trkpt lat="44.93945" lon="6.75186">
        <ele>1752.14</ele>
        <time>2017-11-30T13:20:49Z</time>
      </trkpt>
      <trkpt lat="44.93958" lon="6.75201">
        <ele>1750.7</ele>
        <time>2017-11-30T13:21:08Z</time>
      </trkpt>
      <trkpt lat="44.93961" lon="6.75205">
        <ele>1750.7</ele>
        <time>2017-11-30T13:21:12Z</time>
      </trkpt>
      <trkpt lat="44.93977" lon="6.75206">
        <ele>1750.7</ele>
        <time>2017-11-30T13:21:29Z</time>
      </trkpt>
      <trkpt lat="44.93979" lon="6.75205">
        <ele>1750.7</ele>
        <time>2017-11-30T13:21:32Z</time>
      </trkpt>
      <trkpt lat="44.93989" lon="6.752">
        <ele>1752.14</ele>
        <time>2017-11-30T13:21:46Z</time>
      </trkpt>
      <trkpt lat="44.93993" lon="6.75223">
        <ele>1752.14</ele>
        <time>2017-11-30T13:22:02Z</time>
      </trkpt>
      <trkpt lat="44.93994" lon="6.75236">
        <ele>1751.66</ele>
        <time>2017-11-30T13:22:17Z</time>
      </trkpt>
      <trkpt lat="44.93995" lon="6.75236">
        <ele>1750.7</ele>
        <time>2017-11-30T13:22:28Z</time>
      </trkpt>
      <trkpt lat="44.93993" lon="6.75235">
        <ele>1751.18</ele>
        <time>2017-11-30T13:23:02Z</time>
      </trkpt>
      <trkpt lat="44.93993" lon="6.75237">
        <ele>1751.66</ele>
        <time>2017-11-30T13:23:14Z</time>
      </trkpt>
    </trkseg>
  </trk>
</gpx>